<?xml version="1.0" encoding="UTF-8" standalone="no" ?>
<gpx xmlns="http://www.topografix.com/GPX/1/1" xmlns:xsi="http://www.w3.org/2001/XMLSchema-instance" xsi:schemaLocation="http://www.topografix.com/GPX/1/1 http://www.topografix.com/GPX/1/1/gpx.xsd" version="1.1" creator="VisuGPX - https://www.visugpx.com">
  <metadata>
    <name>2019-05-19 13:40:44</name>
    <desc><![CDATA[

]]></desc>
  </metadata>
  <trk>
    <name><![CDATA[2019-05-19 13:40:44]]></name>
    <trkseg>
      <trkpt lat="39.91247" lon="-8.43547">
        <ele>202.49</ele>
        <time>2019-05-19T07:04:51Z</time>
      </trkpt>
      <trkpt lat="39.91247" lon="-8.43547">
        <ele>202.49</ele>
        <time>2019-05-19T07:04:52Z</time>
      </trkpt>
      <trkpt lat="39.91243" lon="-8.43545">
        <ele>202.49</ele>
        <time>2019-05-19T07:05:11Z</time>
      </trkpt>
      <trkpt lat="39.91242" lon="-8.43543">
        <ele>202.01</ele>
        <time>2019-05-19T07:05:33Z</time>
      </trkpt>
      <trkpt lat="39.91243" lon="-8.43543">
        <ele>201.53</ele>
        <time>2019-05-19T07:06:01Z</time>
      </trkpt>
      <trkpt lat="39.91239" lon="-8.43543">
        <ele>202.49</ele>
        <time>2019-05-19T07:06:25Z</time>
      </trkpt>
      <trkpt lat="39.91239" lon="-8.43544">
        <ele>202.49</ele>
        <time>2019-05-19T07:06:40Z</time>
      </trkpt>
      <trkpt lat="39.91243" lon="-8.43548">
        <ele>202.01</ele>
        <time>2019-05-19T07:07:01Z</time>
      </trkpt>
      <trkpt lat="39.91245" lon="-8.43547">
        <ele>201.53</ele>
        <time>2019-05-19T07:07:21Z</time>
      </trkpt>
      <trkpt lat="39.91259" lon="-8.43542">
        <ele>200.09</ele>
        <time>2019-05-19T07:07:35Z</time>
      </trkpt>
      <trkpt lat="39.9128" lon="-8.43538">
        <ele>199.61</ele>
        <time>2019-05-19T07:07:50Z</time>
      </trkpt>
      <trkpt lat="39.9129" lon="-8.43537">
        <ele>198.65</ele>
        <time>2019-05-19T07:08:02Z</time>
      </trkpt>
      <trkpt lat="39.91299" lon="-8.43538">
        <ele>198.17</ele>
        <time>2019-05-19T07:08:13Z</time>
      </trkpt>
      <trkpt lat="39.9131" lon="-8.43543">
        <ele>198.17</ele>
        <time>2019-05-19T07:08:26Z</time>
      </trkpt>
      <trkpt lat="39.91314" lon="-8.43553">
        <ele>197.69</ele>
        <time>2019-05-19T07:08:38Z</time>
      </trkpt>
      <trkpt lat="39.91316" lon="-8.43554">
        <ele>197.21</ele>
        <time>2019-05-19T07:08:40Z</time>
      </trkpt>
      <trkpt lat="39.91339" lon="-8.43549">
        <ele>197.21</ele>
        <time>2019-05-19T07:08:57Z</time>
      </trkpt>
      <trkpt lat="39.91348" lon="-8.43545">
        <ele>196.73</ele>
        <time>2019-05-19T07:09:04Z</time>
      </trkpt>
      <trkpt lat="39.91365" lon="-8.43547">
        <ele>197.21</ele>
        <time>2019-05-19T07:09:18Z</time>
      </trkpt>
      <trkpt lat="39.91375" lon="-8.43552">
        <ele>196.73</ele>
        <time>2019-05-19T07:09:34Z</time>
      </trkpt>
      <trkpt lat="39.91387" lon="-8.43556">
        <ele>196.25</ele>
        <time>2019-05-19T07:09:46Z</time>
      </trkpt>
      <trkpt lat="39.91393" lon="-8.43572">
        <ele>196.73</ele>
        <time>2019-05-19T07:10:01Z</time>
      </trkpt>
      <trkpt lat="39.91399" lon="-8.43573">
        <ele>196.73</ele>
        <time>2019-05-19T07:10:14Z</time>
      </trkpt>
      <trkpt lat="39.9141" lon="-8.43577">
        <ele>196.25</ele>
        <time>2019-05-19T07:10:34Z</time>
      </trkpt>
      <trkpt lat="39.91414" lon="-8.4357">
        <ele>196.73</ele>
        <time>2019-05-19T07:10:50Z</time>
      </trkpt>
      <trkpt lat="39.91418" lon="-8.43567">
        <ele>196.25</ele>
        <time>2019-05-19T07:11:05Z</time>
      </trkpt>
      <trkpt lat="39.91433" lon="-8.43564">
        <ele>196.25</ele>
        <time>2019-05-19T07:11:17Z</time>
      </trkpt>
      <trkpt lat="39.91443" lon="-8.43568">
        <ele>196.73</ele>
        <time>2019-05-19T07:11:27Z</time>
      </trkpt>
      <trkpt lat="39.91444" lon="-8.4357">
        <ele>196.25</ele>
        <time>2019-05-19T07:11:29Z</time>
      </trkpt>
      <trkpt lat="39.91459" lon="-8.43583">
        <ele>196.25</ele>
        <time>2019-05-19T07:11:45Z</time>
      </trkpt>
      <trkpt lat="39.91464" lon="-8.43584">
        <ele>195.77</ele>
        <time>2019-05-19T07:11:49Z</time>
      </trkpt>
      <trkpt lat="39.91487" lon="-8.43585">
        <ele>195.28</ele>
        <time>2019-05-19T07:12:07Z</time>
      </trkpt>
      <trkpt lat="39.91493" lon="-8.43589">
        <ele>196.73</ele>
        <time>2019-05-19T07:12:20Z</time>
      </trkpt>
      <trkpt lat="39.91499" lon="-8.43589">
        <ele>197.21</ele>
        <time>2019-05-19T07:12:36Z</time>
      </trkpt>
      <trkpt lat="39.91504" lon="-8.43588">
        <ele>197.69</ele>
        <time>2019-05-19T07:12:53Z</time>
      </trkpt>
      <trkpt lat="39.91505" lon="-8.4359">
        <ele>196.73</ele>
        <time>2019-05-19T07:13:12Z</time>
      </trkpt>
      <trkpt lat="39.91516" lon="-8.43595">
        <ele>196.25</ele>
        <time>2019-05-19T07:13:28Z</time>
      </trkpt>
      <trkpt lat="39.9153" lon="-8.43596">
        <ele>196.73</ele>
        <time>2019-05-19T07:13:40Z</time>
      </trkpt>
      <trkpt lat="39.9154" lon="-8.43596">
        <ele>195.77</ele>
        <time>2019-05-19T07:13:47Z</time>
      </trkpt>
      <trkpt lat="39.9156" lon="-8.43599">
        <ele>194.8</ele>
        <time>2019-05-19T07:14:03Z</time>
      </trkpt>
      <trkpt lat="39.91568" lon="-8.43601">
        <ele>196.25</ele>
        <time>2019-05-19T07:14:10Z</time>
      </trkpt>
      <trkpt lat="39.91573" lon="-8.43602">
        <ele>196.25</ele>
        <time>2019-05-19T07:14:14Z</time>
      </trkpt>
      <trkpt lat="39.91597" lon="-8.43605">
        <ele>196.25</ele>
        <time>2019-05-19T07:14:32Z</time>
      </trkpt>
      <trkpt lat="39.91608" lon="-8.43608">
        <ele>196.73</ele>
        <time>2019-05-19T07:14:42Z</time>
      </trkpt>
      <trkpt lat="39.91625" lon="-8.43615">
        <ele>196.73</ele>
        <time>2019-05-19T07:14:58Z</time>
      </trkpt>
      <trkpt lat="39.91642" lon="-8.43619">
        <ele>197.21</ele>
        <time>2019-05-19T07:15:11Z</time>
      </trkpt>
      <trkpt lat="39.9165" lon="-8.4362">
        <ele>197.69</ele>
        <time>2019-05-19T07:15:16Z</time>
      </trkpt>
      <trkpt lat="39.91668" lon="-8.43625">
        <ele>197.69</ele>
        <time>2019-05-19T07:15:32Z</time>
      </trkpt>
      <trkpt lat="39.91683" lon="-8.43631">
        <ele>198.17</ele>
        <time>2019-05-19T07:15:47Z</time>
      </trkpt>
      <trkpt lat="39.91701" lon="-8.43636">
        <ele>199.13</ele>
        <time>2019-05-19T07:16:03Z</time>
      </trkpt>
      <trkpt lat="39.91716" lon="-8.43646">
        <ele>199.61</ele>
        <time>2019-05-19T07:16:16Z</time>
      </trkpt>
      <trkpt lat="39.91735" lon="-8.43649">
        <ele>199.61</ele>
        <time>2019-05-19T07:16:33Z</time>
      </trkpt>
      <trkpt lat="39.91751" lon="-8.43658">
        <ele>200.09</ele>
        <time>2019-05-19T07:16:51Z</time>
      </trkpt>
      <trkpt lat="39.91765" lon="-8.4367">
        <ele>201.05</ele>
        <time>2019-05-19T07:17:05Z</time>
      </trkpt>
      <trkpt lat="39.91778" lon="-8.43682">
        <ele>202.01</ele>
        <time>2019-05-19T07:17:21Z</time>
      </trkpt>
      <trkpt lat="39.91793" lon="-8.43691">
        <ele>202.98</ele>
        <time>2019-05-19T07:17:35Z</time>
      </trkpt>
      <trkpt lat="39.91809" lon="-8.437">
        <ele>203.94</ele>
        <time>2019-05-19T07:17:50Z</time>
      </trkpt>
      <trkpt lat="39.91823" lon="-8.43709">
        <ele>204.42</ele>
        <time>2019-05-19T07:18:06Z</time>
      </trkpt>
      <trkpt lat="39.91839" lon="-8.43716">
        <ele>205.86</ele>
        <time>2019-05-19T07:18:20Z</time>
      </trkpt>
      <trkpt lat="39.91854" lon="-8.43717">
        <ele>206.82</ele>
        <time>2019-05-19T07:18:36Z</time>
      </trkpt>
      <trkpt lat="39.91858" lon="-8.43719">
        <ele>206.82</ele>
        <time>2019-05-19T07:18:39Z</time>
      </trkpt>
      <trkpt lat="39.9187" lon="-8.43721">
        <ele>207.3</ele>
        <time>2019-05-19T07:18:52Z</time>
      </trkpt>
      <trkpt lat="39.91888" lon="-8.43722">
        <ele>208.74</ele>
        <time>2019-05-19T07:19:09Z</time>
      </trkpt>
      <trkpt lat="39.91905" lon="-8.43723">
        <ele>209.7</ele>
        <time>2019-05-19T07:19:26Z</time>
      </trkpt>
      <trkpt lat="39.91923" lon="-8.43724">
        <ele>211.15</ele>
        <time>2019-05-19T07:19:42Z</time>
      </trkpt>
      <trkpt lat="39.91937" lon="-8.43725">
        <ele>212.11</ele>
        <time>2019-05-19T07:19:54Z</time>
      </trkpt>
      <trkpt lat="39.91941" lon="-8.43726">
        <ele>212.11</ele>
        <time>2019-05-19T07:19:58Z</time>
      </trkpt>
      <trkpt lat="39.91959" lon="-8.43728">
        <ele>213.07</ele>
        <time>2019-05-19T07:20:14Z</time>
      </trkpt>
      <trkpt lat="39.91974" lon="-8.43729">
        <ele>214.03</ele>
        <time>2019-05-19T07:20:29Z</time>
      </trkpt>
      <trkpt lat="39.91988" lon="-8.4373">
        <ele>215.47</ele>
        <time>2019-05-19T07:20:42Z</time>
      </trkpt>
      <trkpt lat="39.92006" lon="-8.43732">
        <ele>215.47</ele>
        <time>2019-05-19T07:20:58Z</time>
      </trkpt>
      <trkpt lat="39.9201" lon="-8.43733">
        <ele>215.95</ele>
        <time>2019-05-19T07:21:02Z</time>
      </trkpt>
      <trkpt lat="39.92025" lon="-8.43733">
        <ele>217.4</ele>
        <time>2019-05-19T07:21:16Z</time>
      </trkpt>
      <trkpt lat="39.92031" lon="-8.43733">
        <ele>217.88</ele>
        <time>2019-05-19T07:21:22Z</time>
      </trkpt>
      <trkpt lat="39.92038" lon="-8.43733">
        <ele>218.84</ele>
        <time>2019-05-19T07:21:34Z</time>
      </trkpt>
      <trkpt lat="39.92049" lon="-8.43738">
        <ele>219.8</ele>
        <time>2019-05-19T07:21:48Z</time>
      </trkpt>
      <trkpt lat="39.92068" lon="-8.43736">
        <ele>220.28</ele>
        <time>2019-05-19T07:22:05Z</time>
      </trkpt>
      <trkpt lat="39.92085" lon="-8.43736">
        <ele>221.72</ele>
        <time>2019-05-19T07:22:21Z</time>
      </trkpt>
      <trkpt lat="39.92096" lon="-8.43738">
        <ele>223.16</ele>
        <time>2019-05-19T07:22:34Z</time>
      </trkpt>
      <trkpt lat="39.92097" lon="-8.43733">
        <ele>222.68</ele>
        <time>2019-05-19T07:22:40Z</time>
      </trkpt>
      <trkpt lat="39.92098" lon="-8.43731">
        <ele>223.16</ele>
        <time>2019-05-19T07:22:42Z</time>
      </trkpt>
      <trkpt lat="39.92103" lon="-8.43727">
        <ele>222.68</ele>
        <time>2019-05-19T07:22:54Z</time>
      </trkpt>
      <trkpt lat="39.92113" lon="-8.43736">
        <ele>224.12</ele>
        <time>2019-05-19T07:23:08Z</time>
      </trkpt>
      <trkpt lat="39.92114" lon="-8.43738">
        <ele>224.12</ele>
        <time>2019-05-19T07:23:10Z</time>
      </trkpt>
      <trkpt lat="39.92115" lon="-8.43741">
        <ele>224.12</ele>
        <time>2019-05-19T07:23:13Z</time>
      </trkpt>
      <trkpt lat="39.92134" lon="-8.43746">
        <ele>226.05</ele>
        <time>2019-05-19T07:23:30Z</time>
      </trkpt>
      <trkpt lat="39.92146" lon="-8.43747">
        <ele>226.53</ele>
        <time>2019-05-19T07:23:40Z</time>
      </trkpt>
      <trkpt lat="39.92164" lon="-8.43757">
        <ele>227.49</ele>
        <time>2019-05-19T07:23:59Z</time>
      </trkpt>
      <trkpt lat="39.92172" lon="-8.43778">
        <ele>229.89</ele>
        <time>2019-05-19T07:24:17Z</time>
      </trkpt>
      <trkpt lat="39.92175" lon="-8.43794">
        <ele>230.85</ele>
        <time>2019-05-19T07:24:28Z</time>
      </trkpt>
      <trkpt lat="39.92172" lon="-8.43801">
        <ele>230.37</ele>
        <time>2019-05-19T07:24:33Z</time>
      </trkpt>
      <trkpt lat="39.92169" lon="-8.43826">
        <ele>227.97</ele>
        <time>2019-05-19T07:24:49Z</time>
      </trkpt>
      <trkpt lat="39.9219" lon="-8.43839">
        <ele>227.01</ele>
        <time>2019-05-19T07:25:07Z</time>
      </trkpt>
      <trkpt lat="39.92199" lon="-8.43844">
        <ele>226.05</ele>
        <time>2019-05-19T07:25:20Z</time>
      </trkpt>
      <trkpt lat="39.92215" lon="-8.43854">
        <ele>224.61</ele>
        <time>2019-05-19T07:25:34Z</time>
      </trkpt>
      <trkpt lat="39.92225" lon="-8.43862">
        <ele>223.64</ele>
        <time>2019-05-19T07:25:48Z</time>
      </trkpt>
      <trkpt lat="39.92243" lon="-8.43874">
        <ele>222.68</ele>
        <time>2019-05-19T07:26:02Z</time>
      </trkpt>
      <trkpt lat="39.92249" lon="-8.43876">
        <ele>222.2</ele>
        <time>2019-05-19T07:26:07Z</time>
      </trkpt>
      <trkpt lat="39.92268" lon="-8.43879">
        <ele>221.72</ele>
        <time>2019-05-19T07:26:23Z</time>
      </trkpt>
      <trkpt lat="39.92285" lon="-8.43872">
        <ele>221.72</ele>
        <time>2019-05-19T07:26:37Z</time>
      </trkpt>
      <trkpt lat="39.92296" lon="-8.43868">
        <ele>221.72</ele>
        <time>2019-05-19T07:26:49Z</time>
      </trkpt>
      <trkpt lat="39.92299" lon="-8.43867">
        <ele>221.72</ele>
        <time>2019-05-19T07:26:51Z</time>
      </trkpt>
      <trkpt lat="39.9231" lon="-8.43864">
        <ele>220.76</ele>
        <time>2019-05-19T07:27:00Z</time>
      </trkpt>
      <trkpt lat="39.92327" lon="-8.43867">
        <ele>221.72</ele>
        <time>2019-05-19T07:27:15Z</time>
      </trkpt>
      <trkpt lat="39.92329" lon="-8.43867">
        <ele>221.24</ele>
        <time>2019-05-19T07:27:17Z</time>
      </trkpt>
      <trkpt lat="39.92343" lon="-8.43862">
        <ele>221.72</ele>
        <time>2019-05-19T07:27:28Z</time>
      </trkpt>
      <trkpt lat="39.92348" lon="-8.43858">
        <ele>222.2</ele>
        <time>2019-05-19T07:27:32Z</time>
      </trkpt>
      <trkpt lat="39.92365" lon="-8.43847">
        <ele>224.12</ele>
        <time>2019-05-19T07:27:48Z</time>
      </trkpt>
      <trkpt lat="39.92379" lon="-8.43842">
        <ele>226.53</ele>
        <time>2019-05-19T07:28:02Z</time>
      </trkpt>
      <trkpt lat="39.92396" lon="-8.43835">
        <ele>228.45</ele>
        <time>2019-05-19T07:28:18Z</time>
      </trkpt>
      <trkpt lat="39.92411" lon="-8.43814">
        <ele>229.89</ele>
        <time>2019-05-19T07:28:35Z</time>
      </trkpt>
      <trkpt lat="39.92416" lon="-8.43805">
        <ele>229.89</ele>
        <time>2019-05-19T07:28:41Z</time>
      </trkpt>
      <trkpt lat="39.92431" lon="-8.43787">
        <ele>231.33</ele>
        <time>2019-05-19T07:28:59Z</time>
      </trkpt>
      <trkpt lat="39.92447" lon="-8.43772">
        <ele>231.81</ele>
        <time>2019-05-19T07:29:16Z</time>
      </trkpt>
      <trkpt lat="39.92465" lon="-8.43758">
        <ele>233.26</ele>
        <time>2019-05-19T07:29:33Z</time>
      </trkpt>
      <trkpt lat="39.92478" lon="-8.43747">
        <ele>235.18</ele>
        <time>2019-05-19T07:29:49Z</time>
      </trkpt>
      <trkpt lat="39.92496" lon="-8.43736">
        <ele>235.18</ele>
        <time>2019-05-19T07:30:05Z</time>
      </trkpt>
      <trkpt lat="39.92513" lon="-8.43725">
        <ele>235.18</ele>
        <time>2019-05-19T07:30:21Z</time>
      </trkpt>
      <trkpt lat="39.9253" lon="-8.43713">
        <ele>235.18</ele>
        <time>2019-05-19T07:30:37Z</time>
      </trkpt>
      <trkpt lat="39.92546" lon="-8.43703">
        <ele>234.7</ele>
        <time>2019-05-19T07:30:52Z</time>
      </trkpt>
      <trkpt lat="39.92558" lon="-8.43697">
        <ele>235.18</ele>
        <time>2019-05-19T07:31:06Z</time>
      </trkpt>
      <trkpt lat="39.92567" lon="-8.43692">
        <ele>234.7</ele>
        <time>2019-05-19T07:31:26Z</time>
      </trkpt>
      <trkpt lat="39.92584" lon="-8.43687">
        <ele>234.7</ele>
        <time>2019-05-19T07:31:43Z</time>
      </trkpt>
      <trkpt lat="39.92587" lon="-8.43686">
        <ele>234.22</ele>
        <time>2019-05-19T07:31:59Z</time>
      </trkpt>
      <trkpt lat="39.92602" lon="-8.43681">
        <ele>235.18</ele>
        <time>2019-05-19T07:32:14Z</time>
      </trkpt>
      <trkpt lat="39.92612" lon="-8.43677">
        <ele>235.18</ele>
        <time>2019-05-19T07:32:28Z</time>
      </trkpt>
      <trkpt lat="39.9263" lon="-8.4367">
        <ele>235.66</ele>
        <time>2019-05-19T07:32:43Z</time>
      </trkpt>
      <trkpt lat="39.92648" lon="-8.43661">
        <ele>236.62</ele>
        <time>2019-05-19T07:32:59Z</time>
      </trkpt>
      <trkpt lat="39.92664" lon="-8.43655">
        <ele>236.14</ele>
        <time>2019-05-19T07:33:14Z</time>
      </trkpt>
      <trkpt lat="39.92681" lon="-8.43645">
        <ele>237.1</ele>
        <time>2019-05-19T07:33:29Z</time>
      </trkpt>
      <trkpt lat="39.92694" lon="-8.43635">
        <ele>236.62</ele>
        <time>2019-05-19T07:33:41Z</time>
      </trkpt>
      <trkpt lat="39.92697" lon="-8.43632">
        <ele>236.62</ele>
        <time>2019-05-19T07:33:44Z</time>
      </trkpt>
      <trkpt lat="39.92714" lon="-8.43623">
        <ele>236.62</ele>
        <time>2019-05-19T07:33:58Z</time>
      </trkpt>
      <trkpt lat="39.92732" lon="-8.43616">
        <ele>236.62</ele>
        <time>2019-05-19T07:34:13Z</time>
      </trkpt>
      <trkpt lat="39.92747" lon="-8.43608">
        <ele>237.1</ele>
        <time>2019-05-19T07:34:27Z</time>
      </trkpt>
      <trkpt lat="39.92761" lon="-8.436">
        <ele>237.1</ele>
        <time>2019-05-19T07:34:40Z</time>
      </trkpt>
      <trkpt lat="39.92779" lon="-8.43596">
        <ele>236.14</ele>
        <time>2019-05-19T07:34:54Z</time>
      </trkpt>
      <trkpt lat="39.92779" lon="-8.43596">
        <ele>235.66</ele>
        <time>2019-05-19T07:34:55Z</time>
      </trkpt>
      <trkpt lat="39.92784" lon="-8.43594">
        <ele>235.66</ele>
        <time>2019-05-19T07:34:59Z</time>
      </trkpt>
      <trkpt lat="39.92788" lon="-8.43592">
        <ele>235.66</ele>
        <time>2019-05-19T07:35:04Z</time>
      </trkpt>
      <trkpt lat="39.92791" lon="-8.43587">
        <ele>235.66</ele>
        <time>2019-05-19T07:35:08Z</time>
      </trkpt>
      <trkpt lat="39.92806" lon="-8.43563">
        <ele>234.7</ele>
        <time>2019-05-19T07:35:24Z</time>
      </trkpt>
      <trkpt lat="39.92815" lon="-8.43552">
        <ele>235.18</ele>
        <time>2019-05-19T07:35:38Z</time>
      </trkpt>
      <trkpt lat="39.92815" lon="-8.43556">
        <ele>235.66</ele>
        <time>2019-05-19T07:35:45Z</time>
      </trkpt>
      <trkpt lat="39.92826" lon="-8.43534">
        <ele>235.18</ele>
        <time>2019-05-19T07:36:01Z</time>
      </trkpt>
      <trkpt lat="39.92827" lon="-8.43533">
        <ele>235.18</ele>
        <time>2019-05-19T07:36:02Z</time>
      </trkpt>
      <trkpt lat="39.92836" lon="-8.43508">
        <ele>234.22</ele>
        <time>2019-05-19T07:36:20Z</time>
      </trkpt>
      <trkpt lat="39.92845" lon="-8.43485">
        <ele>233.26</ele>
        <time>2019-05-19T07:36:35Z</time>
      </trkpt>
      <trkpt lat="39.9285" lon="-8.43473">
        <ele>232.3</ele>
        <time>2019-05-19T07:36:49Z</time>
      </trkpt>
      <trkpt lat="39.92859" lon="-8.43448">
        <ele>231.33</ele>
        <time>2019-05-19T07:37:06Z</time>
      </trkpt>
      <trkpt lat="39.9287" lon="-8.43422">
        <ele>230.85</ele>
        <time>2019-05-19T07:37:24Z</time>
      </trkpt>
      <trkpt lat="39.92882" lon="-8.434">
        <ele>229.41</ele>
        <time>2019-05-19T07:37:39Z</time>
      </trkpt>
      <trkpt lat="39.9289" lon="-8.43379">
        <ele>227.49</ele>
        <time>2019-05-19T07:37:54Z</time>
      </trkpt>
      <trkpt lat="39.92895" lon="-8.43368">
        <ele>227.01</ele>
        <time>2019-05-19T07:38:02Z</time>
      </trkpt>
      <trkpt lat="39.92913" lon="-8.4336">
        <ele>224.61</ele>
        <time>2019-05-19T07:38:15Z</time>
      </trkpt>
      <trkpt lat="39.9292" lon="-8.4336">
        <ele>224.12</ele>
        <time>2019-05-19T07:38:28Z</time>
      </trkpt>
      <trkpt lat="39.92934" lon="-8.43365">
        <ele>223.64</ele>
        <time>2019-05-19T07:38:41Z</time>
      </trkpt>
      <trkpt lat="39.92953" lon="-8.43376">
        <ele>223.16</ele>
        <time>2019-05-19T07:38:57Z</time>
      </trkpt>
      <trkpt lat="39.92968" lon="-8.43389">
        <ele>223.64</ele>
        <time>2019-05-19T07:39:13Z</time>
      </trkpt>
      <trkpt lat="39.92988" lon="-8.43396">
        <ele>224.61</ele>
        <time>2019-05-19T07:39:29Z</time>
      </trkpt>
      <trkpt lat="39.93005" lon="-8.43408">
        <ele>224.61</ele>
        <time>2019-05-19T07:39:45Z</time>
      </trkpt>
      <trkpt lat="39.93018" lon="-8.43421">
        <ele>225.57</ele>
        <time>2019-05-19T07:40:00Z</time>
      </trkpt>
      <trkpt lat="39.93029" lon="-8.43432">
        <ele>227.01</ele>
        <time>2019-05-19T07:40:14Z</time>
      </trkpt>
      <trkpt lat="39.93033" lon="-8.43436">
        <ele>227.49</ele>
        <time>2019-05-19T07:40:19Z</time>
      </trkpt>
      <trkpt lat="39.93038" lon="-8.43439">
        <ele>227.97</ele>
        <time>2019-05-19T07:40:35Z</time>
      </trkpt>
      <trkpt lat="39.93045" lon="-8.43441">
        <ele>228.45</ele>
        <time>2019-05-19T07:40:56Z</time>
      </trkpt>
      <trkpt lat="39.93056" lon="-8.43446">
        <ele>228.93</ele>
        <time>2019-05-19T07:41:10Z</time>
      </trkpt>
      <trkpt lat="39.93064" lon="-8.43449">
        <ele>229.89</ele>
        <time>2019-05-19T07:41:24Z</time>
      </trkpt>
      <trkpt lat="39.93082" lon="-8.43449">
        <ele>230.37</ele>
        <time>2019-05-19T07:41:40Z</time>
      </trkpt>
      <trkpt lat="39.93092" lon="-8.43448">
        <ele>230.85</ele>
        <time>2019-05-19T07:41:48Z</time>
      </trkpt>
      <trkpt lat="39.9311" lon="-8.43442">
        <ele>229.89</ele>
        <time>2019-05-19T07:42:02Z</time>
      </trkpt>
      <trkpt lat="39.93111" lon="-8.43441">
        <ele>230.85</ele>
        <time>2019-05-19T07:42:03Z</time>
      </trkpt>
      <trkpt lat="39.93124" lon="-8.43431">
        <ele>229.89</ele>
        <time>2019-05-19T07:42:16Z</time>
      </trkpt>
      <trkpt lat="39.93134" lon="-8.43422">
        <ele>229.89</ele>
        <time>2019-05-19T07:42:34Z</time>
      </trkpt>
      <trkpt lat="39.93138" lon="-8.43414">
        <ele>229.41</ele>
        <time>2019-05-19T07:42:49Z</time>
      </trkpt>
      <trkpt lat="39.93147" lon="-8.43388">
        <ele>229.41</ele>
        <time>2019-05-19T07:43:06Z</time>
      </trkpt>
      <trkpt lat="39.93148" lon="-8.43359">
        <ele>227.97</ele>
        <time>2019-05-19T07:43:23Z</time>
      </trkpt>
      <trkpt lat="39.93142" lon="-8.43334">
        <ele>226.05</ele>
        <time>2019-05-19T07:43:38Z</time>
      </trkpt>
      <trkpt lat="39.9314" lon="-8.43309">
        <ele>224.61</ele>
        <time>2019-05-19T07:43:55Z</time>
      </trkpt>
      <trkpt lat="39.93146" lon="-8.43296">
        <ele>221.72</ele>
        <time>2019-05-19T07:44:07Z</time>
      </trkpt>
      <trkpt lat="39.93152" lon="-8.43289">
        <ele>221.24</ele>
        <time>2019-05-19T07:44:14Z</time>
      </trkpt>
      <trkpt lat="39.93162" lon="-8.43276">
        <ele>220.76</ele>
        <time>2019-05-19T07:44:24Z</time>
      </trkpt>
      <trkpt lat="39.9317" lon="-8.4327">
        <ele>219.8</ele>
        <time>2019-05-19T07:44:31Z</time>
      </trkpt>
      <trkpt lat="39.93189" lon="-8.43265">
        <ele>217.88</ele>
        <time>2019-05-19T07:44:45Z</time>
      </trkpt>
      <trkpt lat="39.93209" lon="-8.43261">
        <ele>217.4</ele>
        <time>2019-05-19T07:45:00Z</time>
      </trkpt>
      <trkpt lat="39.93229" lon="-8.43255">
        <ele>215.95</ele>
        <time>2019-05-19T07:45:16Z</time>
      </trkpt>
      <trkpt lat="39.93249" lon="-8.43248">
        <ele>214.51</ele>
        <time>2019-05-19T07:45:31Z</time>
      </trkpt>
      <trkpt lat="39.93266" lon="-8.43242">
        <ele>214.51</ele>
        <time>2019-05-19T07:45:45Z</time>
      </trkpt>
      <trkpt lat="39.93283" lon="-8.43236">
        <ele>213.55</ele>
        <time>2019-05-19T07:45:59Z</time>
      </trkpt>
      <trkpt lat="39.93298" lon="-8.43241">
        <ele>213.55</ele>
        <time>2019-05-19T07:46:13Z</time>
      </trkpt>
      <trkpt lat="39.93302" lon="-8.43243">
        <ele>213.07</ele>
        <time>2019-05-19T07:46:27Z</time>
      </trkpt>
      <trkpt lat="39.9332" lon="-8.43251">
        <ele>214.03</ele>
        <time>2019-05-19T07:46:41Z</time>
      </trkpt>
      <trkpt lat="39.93336" lon="-8.43244">
        <ele>214.51</ele>
        <time>2019-05-19T07:46:56Z</time>
      </trkpt>
      <trkpt lat="39.9335" lon="-8.43232">
        <ele>214.99</ele>
        <time>2019-05-19T07:47:11Z</time>
      </trkpt>
      <trkpt lat="39.93355" lon="-8.43227">
        <ele>215.47</ele>
        <time>2019-05-19T07:47:15Z</time>
      </trkpt>
      <trkpt lat="39.93366" lon="-8.43216">
        <ele>215.47</ele>
        <time>2019-05-19T07:47:25Z</time>
      </trkpt>
      <trkpt lat="39.9338" lon="-8.43206">
        <ele>215.47</ele>
        <time>2019-05-19T07:47:39Z</time>
      </trkpt>
      <trkpt lat="39.93391" lon="-8.43201">
        <ele>216.43</ele>
        <time>2019-05-19T07:47:53Z</time>
      </trkpt>
      <trkpt lat="39.93403" lon="-8.43194">
        <ele>216.43</ele>
        <time>2019-05-19T07:48:05Z</time>
      </trkpt>
      <trkpt lat="39.93422" lon="-8.43183">
        <ele>216.91</ele>
        <time>2019-05-19T07:48:19Z</time>
      </trkpt>
      <trkpt lat="39.93438" lon="-8.43176">
        <ele>216.43</ele>
        <time>2019-05-19T07:48:33Z</time>
      </trkpt>
      <trkpt lat="39.93453" lon="-8.43171">
        <ele>216.43</ele>
        <time>2019-05-19T07:48:48Z</time>
      </trkpt>
      <trkpt lat="39.93453" lon="-8.43162">
        <ele>215.47</ele>
        <time>2019-05-19T07:49:06Z</time>
      </trkpt>
      <trkpt lat="39.9346" lon="-8.43147">
        <ele>216.91</ele>
        <time>2019-05-19T07:49:19Z</time>
      </trkpt>
      <trkpt lat="39.93464" lon="-8.43129">
        <ele>217.88</ele>
        <time>2019-05-19T07:49:31Z</time>
      </trkpt>
      <trkpt lat="39.93469" lon="-8.43114">
        <ele>218.36</ele>
        <time>2019-05-19T07:49:41Z</time>
      </trkpt>
      <trkpt lat="39.93473" lon="-8.43092">
        <ele>217.4</ele>
        <time>2019-05-19T07:49:56Z</time>
      </trkpt>
      <trkpt lat="39.93479" lon="-8.43087">
        <ele>218.36</ele>
        <time>2019-05-19T07:50:07Z</time>
      </trkpt>
      <trkpt lat="39.93494" lon="-8.43098">
        <ele>220.28</ele>
        <time>2019-05-19T07:50:23Z</time>
      </trkpt>
      <trkpt lat="39.93495" lon="-8.43098">
        <ele>220.28</ele>
        <time>2019-05-19T07:50:24Z</time>
      </trkpt>
      <trkpt lat="39.93505" lon="-8.43107">
        <ele>221.24</ele>
        <time>2019-05-19T07:50:39Z</time>
      </trkpt>
      <trkpt lat="39.93508" lon="-8.43109">
        <ele>221.24</ele>
        <time>2019-05-19T07:50:45Z</time>
      </trkpt>
      <trkpt lat="39.93512" lon="-8.43113">
        <ele>222.2</ele>
        <time>2019-05-19T07:50:51Z</time>
      </trkpt>
      <trkpt lat="39.93523" lon="-8.43124">
        <ele>223.16</ele>
        <time>2019-05-19T07:51:07Z</time>
      </trkpt>
      <trkpt lat="39.93532" lon="-8.43133">
        <ele>224.61</ele>
        <time>2019-05-19T07:51:21Z</time>
      </trkpt>
      <trkpt lat="39.93542" lon="-8.43141">
        <ele>225.57</ele>
        <time>2019-05-19T07:51:36Z</time>
      </trkpt>
      <trkpt lat="39.93554" lon="-8.43149">
        <ele>227.01</ele>
        <time>2019-05-19T07:51:50Z</time>
      </trkpt>
      <trkpt lat="39.93566" lon="-8.43156">
        <ele>228.45</ele>
        <time>2019-05-19T07:52:04Z</time>
      </trkpt>
      <trkpt lat="39.93581" lon="-8.43165">
        <ele>229.89</ele>
        <time>2019-05-19T07:52:21Z</time>
      </trkpt>
      <trkpt lat="39.93583" lon="-8.43166">
        <ele>230.85</ele>
        <time>2019-05-19T07:52:23Z</time>
      </trkpt>
      <trkpt lat="39.936" lon="-8.43172">
        <ele>232.3</ele>
        <time>2019-05-19T07:52:41Z</time>
      </trkpt>
      <trkpt lat="39.93616" lon="-8.43178">
        <ele>234.22</ele>
        <time>2019-05-19T07:52:58Z</time>
      </trkpt>
      <trkpt lat="39.93631" lon="-8.43187">
        <ele>234.7</ele>
        <time>2019-05-19T07:53:14Z</time>
      </trkpt>
      <trkpt lat="39.93635" lon="-8.4319">
        <ele>234.7</ele>
        <time>2019-05-19T07:53:19Z</time>
      </trkpt>
      <trkpt lat="39.93649" lon="-8.43201">
        <ele>236.14</ele>
        <time>2019-05-19T07:53:37Z</time>
      </trkpt>
      <trkpt lat="39.93659" lon="-8.43209">
        <ele>238.54</ele>
        <time>2019-05-19T07:53:51Z</time>
      </trkpt>
      <trkpt lat="39.93663" lon="-8.43212">
        <ele>239.51</ele>
        <time>2019-05-19T07:53:56Z</time>
      </trkpt>
      <trkpt lat="39.93672" lon="-8.43219">
        <ele>240.47</ele>
        <time>2019-05-19T07:54:09Z</time>
      </trkpt>
      <trkpt lat="39.93682" lon="-8.43228">
        <ele>242.39</ele>
        <time>2019-05-19T07:54:23Z</time>
      </trkpt>
      <trkpt lat="39.937" lon="-8.43245">
        <ele>245.27</ele>
        <time>2019-05-19T07:54:41Z</time>
      </trkpt>
      <trkpt lat="39.93707" lon="-8.4325">
        <ele>245.75</ele>
        <time>2019-05-19T07:54:50Z</time>
      </trkpt>
      <trkpt lat="39.93723" lon="-8.43259">
        <ele>247.68</ele>
        <time>2019-05-19T07:55:05Z</time>
      </trkpt>
      <trkpt lat="39.93734" lon="-8.43262">
        <ele>248.64</ele>
        <time>2019-05-19T07:55:16Z</time>
      </trkpt>
      <trkpt lat="39.9375" lon="-8.43263">
        <ele>249.12</ele>
        <time>2019-05-19T07:55:32Z</time>
      </trkpt>
      <trkpt lat="39.9376" lon="-8.43264">
        <ele>250.08</ele>
        <time>2019-05-19T07:55:41Z</time>
      </trkpt>
      <trkpt lat="39.93777" lon="-8.4327">
        <ele>250.08</ele>
        <time>2019-05-19T07:55:58Z</time>
      </trkpt>
      <trkpt lat="39.93786" lon="-8.43274">
        <ele>249.12</ele>
        <time>2019-05-19T07:56:08Z</time>
      </trkpt>
      <trkpt lat="39.93805" lon="-8.43283">
        <ele>248.16</ele>
        <time>2019-05-19T07:56:23Z</time>
      </trkpt>
      <trkpt lat="39.93818" lon="-8.43289">
        <ele>246.72</ele>
        <time>2019-05-19T07:56:36Z</time>
      </trkpt>
      <trkpt lat="39.93836" lon="-8.43297">
        <ele>247.2</ele>
        <time>2019-05-19T07:56:50Z</time>
      </trkpt>
      <trkpt lat="39.93857" lon="-8.43303">
        <ele>247.68</ele>
        <time>2019-05-19T07:57:05Z</time>
      </trkpt>
      <trkpt lat="39.93875" lon="-8.43306">
        <ele>248.64</ele>
        <time>2019-05-19T07:57:21Z</time>
      </trkpt>
      <trkpt lat="39.93883" lon="-8.43307">
        <ele>250.08</ele>
        <time>2019-05-19T07:57:28Z</time>
      </trkpt>
      <trkpt lat="39.939" lon="-8.43315">
        <ele>250.56</ele>
        <time>2019-05-19T07:57:43Z</time>
      </trkpt>
      <trkpt lat="39.93913" lon="-8.43331">
        <ele>252.48</ele>
        <time>2019-05-19T07:57:58Z</time>
      </trkpt>
      <trkpt lat="39.93924" lon="-8.43351">
        <ele>253.93</ele>
        <time>2019-05-19T07:58:15Z</time>
      </trkpt>
      <trkpt lat="39.93932" lon="-8.43368">
        <ele>255.37</ele>
        <time>2019-05-19T07:58:29Z</time>
      </trkpt>
      <trkpt lat="39.93939" lon="-8.4338">
        <ele>257.29</ele>
        <time>2019-05-19T07:58:41Z</time>
      </trkpt>
      <trkpt lat="39.93948" lon="-8.43397">
        <ele>258.73</ele>
        <time>2019-05-19T07:58:55Z</time>
      </trkpt>
      <trkpt lat="39.93952" lon="-8.43401">
        <ele>259.21</ele>
        <time>2019-05-19T07:59:10Z</time>
      </trkpt>
      <trkpt lat="39.93954" lon="-8.43401">
        <ele>259.21</ele>
        <time>2019-05-19T07:59:46Z</time>
      </trkpt>
      <trkpt lat="39.93952" lon="-8.43401">
        <ele>259.21</ele>
        <time>2019-05-19T08:00:09Z</time>
      </trkpt>
      <trkpt lat="39.93952" lon="-8.43407">
        <ele>259.21</ele>
        <time>2019-05-19T08:00:28Z</time>
      </trkpt>
      <trkpt lat="39.93954" lon="-8.43423">
        <ele>257.77</ele>
        <time>2019-05-19T08:00:39Z</time>
      </trkpt>
      <trkpt lat="39.93958" lon="-8.43439">
        <ele>255.85</ele>
        <time>2019-05-19T08:00:50Z</time>
      </trkpt>
      <trkpt lat="39.9396" lon="-8.43458">
        <ele>254.89</ele>
        <time>2019-05-19T08:01:00Z</time>
      </trkpt>
      <trkpt lat="39.93964" lon="-8.43475">
        <ele>253.44</ele>
        <time>2019-05-19T08:01:15Z</time>
      </trkpt>
      <trkpt lat="39.93965" lon="-8.43477">
        <ele>258.25</ele>
        <time>2019-05-19T08:01:20Z</time>
      </trkpt>
      <trkpt lat="39.93964" lon="-8.43478">
        <ele>254.89</ele>
        <time>2019-05-19T08:01:21Z</time>
      </trkpt>
      <trkpt lat="39.93965" lon="-8.4348">
        <ele>254.89</ele>
        <time>2019-05-19T08:01:23Z</time>
      </trkpt>
      <trkpt lat="39.93965" lon="-8.435">
        <ele>255.85</ele>
        <time>2019-05-19T08:01:38Z</time>
      </trkpt>
      <trkpt lat="39.93965" lon="-8.43508">
        <ele>256.33</ele>
        <time>2019-05-19T08:01:44Z</time>
      </trkpt>
      <trkpt lat="39.93966" lon="-8.43528">
        <ele>257.29</ele>
        <time>2019-05-19T08:01:57Z</time>
      </trkpt>
      <trkpt lat="39.93969" lon="-8.43553">
        <ele>258.25</ele>
        <time>2019-05-19T08:02:14Z</time>
      </trkpt>
      <trkpt lat="39.93966" lon="-8.43576">
        <ele>258.73</ele>
        <time>2019-05-19T08:02:29Z</time>
      </trkpt>
      <trkpt lat="39.93964" lon="-8.43595">
        <ele>259.21</ele>
        <time>2019-05-19T08:02:43Z</time>
      </trkpt>
      <trkpt lat="39.93965" lon="-8.43601">
        <ele>259.21</ele>
        <time>2019-05-19T08:02:47Z</time>
      </trkpt>
      <trkpt lat="39.93973" lon="-8.43627">
        <ele>258.73</ele>
        <time>2019-05-19T08:03:03Z</time>
      </trkpt>
      <trkpt lat="39.93975" lon="-8.43639">
        <ele>259.21</ele>
        <time>2019-05-19T08:03:12Z</time>
      </trkpt>
      <trkpt lat="39.93975" lon="-8.43662">
        <ele>261.62</ele>
        <time>2019-05-19T08:03:29Z</time>
      </trkpt>
      <trkpt lat="39.93969" lon="-8.43678">
        <ele>262.1</ele>
        <time>2019-05-19T08:03:42Z</time>
      </trkpt>
      <trkpt lat="39.93964" lon="-8.43685">
        <ele>261.62</ele>
        <time>2019-05-19T08:03:48Z</time>
      </trkpt>
      <trkpt lat="39.93959" lon="-8.43681">
        <ele>262.1</ele>
        <time>2019-05-19T08:04:01Z</time>
      </trkpt>
      <trkpt lat="39.93953" lon="-8.43673">
        <ele>263.54</ele>
        <time>2019-05-19T08:04:16Z</time>
      </trkpt>
      <trkpt lat="39.93951" lon="-8.43675">
        <ele>263.06</ele>
        <time>2019-05-19T08:04:20Z</time>
      </trkpt>
      <trkpt lat="39.93932" lon="-8.43674">
        <ele>261.62</ele>
        <time>2019-05-19T08:04:36Z</time>
      </trkpt>
      <trkpt lat="39.93924" lon="-8.43672">
        <ele>260.65</ele>
        <time>2019-05-19T08:04:51Z</time>
      </trkpt>
      <trkpt lat="39.93922" lon="-8.43677">
        <ele>259.69</ele>
        <time>2019-05-19T08:05:06Z</time>
      </trkpt>
      <trkpt lat="39.93923" lon="-8.43677">
        <ele>259.69</ele>
        <time>2019-05-19T08:05:07Z</time>
      </trkpt>
      <trkpt lat="39.93943" lon="-8.43686">
        <ele>261.14</ele>
        <time>2019-05-19T08:05:26Z</time>
      </trkpt>
      <trkpt lat="39.93947" lon="-8.43686">
        <ele>260.17</ele>
        <time>2019-05-19T08:05:43Z</time>
      </trkpt>
      <trkpt lat="39.93954" lon="-8.43693">
        <ele>261.62</ele>
        <time>2019-05-19T08:05:57Z</time>
      </trkpt>
      <trkpt lat="39.9396" lon="-8.43692">
        <ele>260.65</ele>
        <time>2019-05-19T08:06:17Z</time>
      </trkpt>
      <trkpt lat="39.93966" lon="-8.4369">
        <ele>261.14</ele>
        <time>2019-05-19T08:06:30Z</time>
      </trkpt>
      <trkpt lat="39.93967" lon="-8.43691">
        <ele>262.1</ele>
        <time>2019-05-19T08:06:49Z</time>
      </trkpt>
      <trkpt lat="39.93966" lon="-8.43688">
        <ele>261.14</ele>
        <time>2019-05-19T08:07:04Z</time>
      </trkpt>
      <trkpt lat="39.9397" lon="-8.43696">
        <ele>260.65</ele>
        <time>2019-05-19T08:07:17Z</time>
      </trkpt>
      <trkpt lat="39.93972" lon="-8.43698">
        <ele>260.17</ele>
        <time>2019-05-19T08:07:20Z</time>
      </trkpt>
      <trkpt lat="39.93978" lon="-8.437">
        <ele>261.14</ele>
        <time>2019-05-19T08:07:25Z</time>
      </trkpt>
      <trkpt lat="39.93995" lon="-8.43706">
        <ele>260.65</ele>
        <time>2019-05-19T08:07:41Z</time>
      </trkpt>
      <trkpt lat="39.94008" lon="-8.43715">
        <ele>262.1</ele>
        <time>2019-05-19T08:07:54Z</time>
      </trkpt>
      <trkpt lat="39.94022" lon="-8.43731">
        <ele>262.58</ele>
        <time>2019-05-19T08:08:10Z</time>
      </trkpt>
      <trkpt lat="39.94037" lon="-8.43748">
        <ele>261.62</ele>
        <time>2019-05-19T08:08:26Z</time>
      </trkpt>
      <trkpt lat="39.94051" lon="-8.43768">
        <ele>261.14</ele>
        <time>2019-05-19T08:08:43Z</time>
      </trkpt>
      <trkpt lat="39.94063" lon="-8.43785">
        <ele>261.14</ele>
        <time>2019-05-19T08:08:57Z</time>
      </trkpt>
      <trkpt lat="39.94075" lon="-8.43806">
        <ele>260.65</ele>
        <time>2019-05-19T08:09:14Z</time>
      </trkpt>
      <trkpt lat="39.94086" lon="-8.43824">
        <ele>261.14</ele>
        <time>2019-05-19T08:09:29Z</time>
      </trkpt>
      <trkpt lat="39.94097" lon="-8.43842">
        <ele>261.62</ele>
        <time>2019-05-19T08:09:45Z</time>
      </trkpt>
      <trkpt lat="39.94111" lon="-8.43861">
        <ele>261.62</ele>
        <time>2019-05-19T08:10:02Z</time>
      </trkpt>
      <trkpt lat="39.94122" lon="-8.43874">
        <ele>261.62</ele>
        <time>2019-05-19T08:10:14Z</time>
      </trkpt>
      <trkpt lat="39.94135" lon="-8.43884">
        <ele>264.02</ele>
        <time>2019-05-19T08:10:28Z</time>
      </trkpt>
      <trkpt lat="39.94152" lon="-8.43894">
        <ele>265.46</ele>
        <time>2019-05-19T08:10:45Z</time>
      </trkpt>
      <trkpt lat="39.94166" lon="-8.439">
        <ele>265.94</ele>
        <time>2019-05-19T08:10:58Z</time>
      </trkpt>
      <trkpt lat="39.94179" lon="-8.43907">
        <ele>266.42</ele>
        <time>2019-05-19T08:11:09Z</time>
      </trkpt>
      <trkpt lat="39.94187" lon="-8.43912">
        <ele>266.9</ele>
        <time>2019-05-19T08:11:16Z</time>
      </trkpt>
      <trkpt lat="39.94204" lon="-8.43922">
        <ele>266.9</ele>
        <time>2019-05-19T08:11:33Z</time>
      </trkpt>
      <trkpt lat="39.94219" lon="-8.43924">
        <ele>265.46</ele>
        <time>2019-05-19T08:11:47Z</time>
      </trkpt>
      <trkpt lat="39.94237" lon="-8.43928">
        <ele>265.46</ele>
        <time>2019-05-19T08:12:01Z</time>
      </trkpt>
      <trkpt lat="39.94255" lon="-8.43933">
        <ele>265.94</ele>
        <time>2019-05-19T08:12:16Z</time>
      </trkpt>
      <trkpt lat="39.94259" lon="-8.43938">
        <ele>265.46</ele>
        <time>2019-05-19T08:12:21Z</time>
      </trkpt>
      <trkpt lat="39.94264" lon="-8.43955">
        <ele>264.5</ele>
        <time>2019-05-19T08:12:34Z</time>
      </trkpt>
      <trkpt lat="39.94266" lon="-8.43974">
        <ele>265.46</ele>
        <time>2019-05-19T08:12:47Z</time>
      </trkpt>
      <trkpt lat="39.9427" lon="-8.4399">
        <ele>265.46</ele>
        <time>2019-05-19T08:13:00Z</time>
      </trkpt>
      <trkpt lat="39.94276" lon="-8.44002">
        <ele>266.42</ele>
        <time>2019-05-19T08:13:08Z</time>
      </trkpt>
      <trkpt lat="39.94288" lon="-8.44022">
        <ele>266.42</ele>
        <time>2019-05-19T08:13:23Z</time>
      </trkpt>
      <trkpt lat="39.94301" lon="-8.44042">
        <ele>266.42</ele>
        <time>2019-05-19T08:13:40Z</time>
      </trkpt>
      <trkpt lat="39.94311" lon="-8.44057">
        <ele>265.94</ele>
        <time>2019-05-19T08:13:53Z</time>
      </trkpt>
      <trkpt lat="39.94319" lon="-8.44077">
        <ele>265.94</ele>
        <time>2019-05-19T08:14:09Z</time>
      </trkpt>
      <trkpt lat="39.94322" lon="-8.44085">
        <ele>264.5</ele>
        <time>2019-05-19T08:14:14Z</time>
      </trkpt>
      <trkpt lat="39.94334" lon="-8.44106">
        <ele>263.54</ele>
        <time>2019-05-19T08:14:31Z</time>
      </trkpt>
      <trkpt lat="39.9434" lon="-8.44127">
        <ele>261.14</ele>
        <time>2019-05-19T08:14:44Z</time>
      </trkpt>
      <trkpt lat="39.94342" lon="-8.44145">
        <ele>259.69</ele>
        <time>2019-05-19T08:14:56Z</time>
      </trkpt>
      <trkpt lat="39.94346" lon="-8.4416">
        <ele>258.73</ele>
        <time>2019-05-19T08:15:07Z</time>
      </trkpt>
      <trkpt lat="39.94348" lon="-8.44166">
        <ele>258.73</ele>
        <time>2019-05-19T08:15:28Z</time>
      </trkpt>
      <trkpt lat="39.94355" lon="-8.44183">
        <ele>258.73</ele>
        <time>2019-05-19T08:15:42Z</time>
      </trkpt>
      <trkpt lat="39.94358" lon="-8.44186">
        <ele>258.25</ele>
        <time>2019-05-19T08:15:45Z</time>
      </trkpt>
      <trkpt lat="39.94375" lon="-8.44205">
        <ele>260.17</ele>
        <time>2019-05-19T08:16:01Z</time>
      </trkpt>
      <trkpt lat="39.94391" lon="-8.44217">
        <ele>260.65</ele>
        <time>2019-05-19T08:16:17Z</time>
      </trkpt>
      <trkpt lat="39.94401" lon="-8.44223">
        <ele>262.58</ele>
        <time>2019-05-19T08:16:32Z</time>
      </trkpt>
      <trkpt lat="39.94409" lon="-8.44225">
        <ele>262.58</ele>
        <time>2019-05-19T08:16:52Z</time>
      </trkpt>
      <trkpt lat="39.94417" lon="-8.44229">
        <ele>264.02</ele>
        <time>2019-05-19T08:17:04Z</time>
      </trkpt>
      <trkpt lat="39.94429" lon="-8.44236">
        <ele>264.98</ele>
        <time>2019-05-19T08:17:16Z</time>
      </trkpt>
      <trkpt lat="39.94431" lon="-8.44236">
        <ele>264.02</ele>
        <time>2019-05-19T08:17:18Z</time>
      </trkpt>
      <trkpt lat="39.94449" lon="-8.44243">
        <ele>265.94</ele>
        <time>2019-05-19T08:17:33Z</time>
      </trkpt>
      <trkpt lat="39.94456" lon="-8.44251">
        <ele>265.94</ele>
        <time>2019-05-19T08:17:41Z</time>
      </trkpt>
      <trkpt lat="39.9446" lon="-8.44267">
        <ele>266.9</ele>
        <time>2019-05-19T08:17:55Z</time>
      </trkpt>
      <trkpt lat="39.94459" lon="-8.44287">
        <ele>268.35</ele>
        <time>2019-05-19T08:18:09Z</time>
      </trkpt>
      <trkpt lat="39.94461" lon="-8.44305">
        <ele>268.83</ele>
        <time>2019-05-19T08:18:21Z</time>
      </trkpt>
      <trkpt lat="39.94467" lon="-8.44325">
        <ele>270.27</ele>
        <time>2019-05-19T08:18:37Z</time>
      </trkpt>
      <trkpt lat="39.94468" lon="-8.44326">
        <ele>269.79</ele>
        <time>2019-05-19T08:18:38Z</time>
      </trkpt>
      <trkpt lat="39.94476" lon="-8.44349">
        <ele>268.83</ele>
        <time>2019-05-19T08:18:54Z</time>
      </trkpt>
      <trkpt lat="39.94485" lon="-8.44367">
        <ele>269.31</ele>
        <time>2019-05-19T08:19:09Z</time>
      </trkpt>
      <trkpt lat="39.94488" lon="-8.44375">
        <ele>267.86</ele>
        <time>2019-05-19T08:19:15Z</time>
      </trkpt>
      <trkpt lat="39.94491" lon="-8.44383">
        <ele>268.35</ele>
        <time>2019-05-19T08:19:20Z</time>
      </trkpt>
      <trkpt lat="39.9449" lon="-8.44405">
        <ele>267.38</ele>
        <time>2019-05-19T08:19:35Z</time>
      </trkpt>
      <trkpt lat="39.94487" lon="-8.44423">
        <ele>267.38</ele>
        <time>2019-05-19T08:19:47Z</time>
      </trkpt>
      <trkpt lat="39.94485" lon="-8.44441">
        <ele>267.86</ele>
        <time>2019-05-19T08:20:00Z</time>
      </trkpt>
      <trkpt lat="39.94485" lon="-8.44462">
        <ele>267.86</ele>
        <time>2019-05-19T08:20:14Z</time>
      </trkpt>
      <trkpt lat="39.94484" lon="-8.44481">
        <ele>269.31</ele>
        <time>2019-05-19T08:20:28Z</time>
      </trkpt>
      <trkpt lat="39.94478" lon="-8.44499">
        <ele>270.75</ele>
        <time>2019-05-19T08:20:42Z</time>
      </trkpt>
      <trkpt lat="39.94465" lon="-8.44511">
        <ele>270.75</ele>
        <time>2019-05-19T08:20:56Z</time>
      </trkpt>
      <trkpt lat="39.94458" lon="-8.44514">
        <ele>269.79</ele>
        <time>2019-05-19T08:21:03Z</time>
      </trkpt>
      <trkpt lat="39.94456" lon="-8.44518">
        <ele>269.79</ele>
        <time>2019-05-19T08:21:07Z</time>
      </trkpt>
      <trkpt lat="39.94456" lon="-8.44521">
        <ele>269.31</ele>
        <time>2019-05-19T08:21:09Z</time>
      </trkpt>
      <trkpt lat="39.94459" lon="-8.44541">
        <ele>268.83</ele>
        <time>2019-05-19T08:21:23Z</time>
      </trkpt>
      <trkpt lat="39.94463" lon="-8.44548">
        <ele>268.83</ele>
        <time>2019-05-19T08:21:29Z</time>
      </trkpt>
      <trkpt lat="39.94475" lon="-8.44568">
        <ele>268.35</ele>
        <time>2019-05-19T08:21:46Z</time>
      </trkpt>
      <trkpt lat="39.94481" lon="-8.44586">
        <ele>268.83</ele>
        <time>2019-05-19T08:21:59Z</time>
      </trkpt>
      <trkpt lat="39.94487" lon="-8.44607">
        <ele>268.83</ele>
        <time>2019-05-19T08:22:11Z</time>
      </trkpt>
      <trkpt lat="39.94503" lon="-8.4462">
        <ele>267.38</ele>
        <time>2019-05-19T08:22:26Z</time>
      </trkpt>
      <trkpt lat="39.94516" lon="-8.44634">
        <ele>266.9</ele>
        <time>2019-05-19T08:22:40Z</time>
      </trkpt>
      <trkpt lat="39.94527" lon="-8.4465">
        <ele>267.38</ele>
        <time>2019-05-19T08:22:53Z</time>
      </trkpt>
      <trkpt lat="39.9453" lon="-8.44659">
        <ele>267.86</ele>
        <time>2019-05-19T08:23:00Z</time>
      </trkpt>
      <trkpt lat="39.94531" lon="-8.4468">
        <ele>268.83</ele>
        <time>2019-05-19T08:23:15Z</time>
      </trkpt>
      <trkpt lat="39.94532" lon="-8.44698">
        <ele>268.83</ele>
        <time>2019-05-19T08:23:28Z</time>
      </trkpt>
      <trkpt lat="39.94535" lon="-8.44719">
        <ele>269.79</ele>
        <time>2019-05-19T08:23:42Z</time>
      </trkpt>
      <trkpt lat="39.94535" lon="-8.44721">
        <ele>270.27</ele>
        <time>2019-05-19T08:23:43Z</time>
      </trkpt>
      <trkpt lat="39.94534" lon="-8.4474">
        <ele>271.71</ele>
        <time>2019-05-19T08:23:57Z</time>
      </trkpt>
      <trkpt lat="39.94536" lon="-8.44757">
        <ele>272.67</ele>
        <time>2019-05-19T08:24:11Z</time>
      </trkpt>
      <trkpt lat="39.94546" lon="-8.44773">
        <ele>274.59</ele>
        <time>2019-05-19T08:24:25Z</time>
      </trkpt>
      <trkpt lat="39.94562" lon="-8.44782">
        <ele>274.11</ele>
        <time>2019-05-19T08:24:41Z</time>
      </trkpt>
      <trkpt lat="39.94569" lon="-8.44785">
        <ele>274.59</ele>
        <time>2019-05-19T08:24:48Z</time>
      </trkpt>
      <trkpt lat="39.94585" lon="-8.44787">
        <ele>274.59</ele>
        <time>2019-05-19T08:25:03Z</time>
      </trkpt>
      <trkpt lat="39.94586" lon="-8.44787">
        <ele>275.56</ele>
        <time>2019-05-19T08:25:23Z</time>
      </trkpt>
      <trkpt lat="39.94586" lon="-8.44788">
        <ele>275.07</ele>
        <time>2019-05-19T08:25:48Z</time>
      </trkpt>
      <trkpt lat="39.94585" lon="-8.44788">
        <ele>274.11</ele>
        <time>2019-05-19T08:26:05Z</time>
      </trkpt>
      <trkpt lat="39.94584" lon="-8.44789">
        <ele>274.11</ele>
        <time>2019-05-19T08:26:18Z</time>
      </trkpt>
      <trkpt lat="39.94586" lon="-8.44787">
        <ele>273.63</ele>
        <time>2019-05-19T08:26:49Z</time>
      </trkpt>
      <trkpt lat="39.94584" lon="-8.44787">
        <ele>273.63</ele>
        <time>2019-05-19T08:27:26Z</time>
      </trkpt>
      <trkpt lat="39.94585" lon="-8.44789">
        <ele>274.11</ele>
        <time>2019-05-19T08:28:03Z</time>
      </trkpt>
      <trkpt lat="39.94585" lon="-8.44787">
        <ele>274.59</ele>
        <time>2019-05-19T08:28:13Z</time>
      </trkpt>
      <trkpt lat="39.94586" lon="-8.44787">
        <ele>274.11</ele>
        <time>2019-05-19T08:28:25Z</time>
      </trkpt>
      <trkpt lat="39.94586" lon="-8.44787">
        <ele>273.63</ele>
        <time>2019-05-19T08:28:52Z</time>
      </trkpt>
      <trkpt lat="39.94587" lon="-8.44786">
        <ele>273.63</ele>
        <time>2019-05-19T08:29:09Z</time>
      </trkpt>
      <trkpt lat="39.94599" lon="-8.4479">
        <ele>273.63</ele>
        <time>2019-05-19T08:29:25Z</time>
      </trkpt>
      <trkpt lat="39.94613" lon="-8.44796">
        <ele>273.63</ele>
        <time>2019-05-19T08:29:39Z</time>
      </trkpt>
      <trkpt lat="39.94627" lon="-8.44804">
        <ele>273.63</ele>
        <time>2019-05-19T08:29:53Z</time>
      </trkpt>
      <trkpt lat="39.94641" lon="-8.44811">
        <ele>273.15</ele>
        <time>2019-05-19T08:30:06Z</time>
      </trkpt>
      <trkpt lat="39.94659" lon="-8.44823">
        <ele>273.15</ele>
        <time>2019-05-19T08:30:23Z</time>
      </trkpt>
      <trkpt lat="39.94669" lon="-8.44838">
        <ele>273.15</ele>
        <time>2019-05-19T08:30:37Z</time>
      </trkpt>
      <trkpt lat="39.94669" lon="-8.44847">
        <ele>274.59</ele>
        <time>2019-05-19T08:30:44Z</time>
      </trkpt>
      <trkpt lat="39.94671" lon="-8.44859">
        <ele>275.07</ele>
        <time>2019-05-19T08:30:58Z</time>
      </trkpt>
      <trkpt lat="39.94679" lon="-8.44868">
        <ele>275.56</ele>
        <time>2019-05-19T08:31:13Z</time>
      </trkpt>
      <trkpt lat="39.94685" lon="-8.44873">
        <ele>277</ele>
        <time>2019-05-19T08:31:22Z</time>
      </trkpt>
      <trkpt lat="39.94698" lon="-8.44884">
        <ele>277.96</ele>
        <time>2019-05-19T08:31:37Z</time>
      </trkpt>
      <trkpt lat="39.94711" lon="-8.44895">
        <ele>278.92</ele>
        <time>2019-05-19T08:31:51Z</time>
      </trkpt>
      <trkpt lat="39.94721" lon="-8.44904">
        <ele>277.48</ele>
        <time>2019-05-19T08:32:04Z</time>
      </trkpt>
      <trkpt lat="39.94734" lon="-8.44911">
        <ele>276.52</ele>
        <time>2019-05-19T08:32:16Z</time>
      </trkpt>
      <trkpt lat="39.94749" lon="-8.4492">
        <ele>275.07</ele>
        <time>2019-05-19T08:32:30Z</time>
      </trkpt>
      <trkpt lat="39.9475" lon="-8.44921">
        <ele>275.56</ele>
        <time>2019-05-19T08:32:31Z</time>
      </trkpt>
      <trkpt lat="39.94758" lon="-8.44928">
        <ele>274.11</ele>
        <time>2019-05-19T08:32:44Z</time>
      </trkpt>
      <trkpt lat="39.9477" lon="-8.44939">
        <ele>272.19</ele>
        <time>2019-05-19T08:32:57Z</time>
      </trkpt>
      <trkpt lat="39.94779" lon="-8.44946">
        <ele>270.27</ele>
        <time>2019-05-19T08:33:04Z</time>
      </trkpt>
      <trkpt lat="39.9479" lon="-8.44959">
        <ele>268.35</ele>
        <time>2019-05-19T08:33:17Z</time>
      </trkpt>
      <trkpt lat="39.94792" lon="-8.44962">
        <ele>267.38</ele>
        <time>2019-05-19T08:33:20Z</time>
      </trkpt>
      <trkpt lat="39.94793" lon="-8.44964">
        <ele>266.9</ele>
        <time>2019-05-19T08:33:22Z</time>
      </trkpt>
      <trkpt lat="39.94809" lon="-8.44978">
        <ele>264.5</ele>
        <time>2019-05-19T08:33:37Z</time>
      </trkpt>
      <trkpt lat="39.9482" lon="-8.44985">
        <ele>263.06</ele>
        <time>2019-05-19T08:33:47Z</time>
      </trkpt>
      <trkpt lat="39.94827" lon="-8.4499">
        <ele>262.58</ele>
        <time>2019-05-19T08:34:04Z</time>
      </trkpt>
      <trkpt lat="39.94837" lon="-8.44995">
        <ele>259.21</ele>
        <time>2019-05-19T08:34:18Z</time>
      </trkpt>
      <trkpt lat="39.94853" lon="-8.45001">
        <ele>257.29</ele>
        <time>2019-05-19T08:34:32Z</time>
      </trkpt>
      <trkpt lat="39.94859" lon="-8.45004">
        <ele>257.77</ele>
        <time>2019-05-19T08:34:37Z</time>
      </trkpt>
      <trkpt lat="39.9487" lon="-8.45014">
        <ele>259.21</ele>
        <time>2019-05-19T08:34:50Z</time>
      </trkpt>
      <trkpt lat="39.94883" lon="-8.45024">
        <ele>261.14</ele>
        <time>2019-05-19T08:35:08Z</time>
      </trkpt>
      <trkpt lat="39.94891" lon="-8.45033">
        <ele>264.02</ele>
        <time>2019-05-19T08:35:24Z</time>
      </trkpt>
      <trkpt lat="39.94898" lon="-8.45041">
        <ele>265.94</ele>
        <time>2019-05-19T08:35:39Z</time>
      </trkpt>
      <trkpt lat="39.94904" lon="-8.45047">
        <ele>267.38</ele>
        <time>2019-05-19T08:35:52Z</time>
      </trkpt>
      <trkpt lat="39.94914" lon="-8.45055">
        <ele>269.79</ele>
        <time>2019-05-19T08:36:08Z</time>
      </trkpt>
      <trkpt lat="39.94923" lon="-8.45063">
        <ele>271.23</ele>
        <time>2019-05-19T08:36:23Z</time>
      </trkpt>
      <trkpt lat="39.94935" lon="-8.4507">
        <ele>272.19</ele>
        <time>2019-05-19T08:36:40Z</time>
      </trkpt>
      <trkpt lat="39.94945" lon="-8.45074">
        <ele>274.11</ele>
        <time>2019-05-19T08:36:54Z</time>
      </trkpt>
      <trkpt lat="39.94955" lon="-8.45076">
        <ele>275.56</ele>
        <time>2019-05-19T08:37:08Z</time>
      </trkpt>
      <trkpt lat="39.94963" lon="-8.45077">
        <ele>276.04</ele>
        <time>2019-05-19T08:37:23Z</time>
      </trkpt>
      <trkpt lat="39.94974" lon="-8.45078">
        <ele>278.92</ele>
        <time>2019-05-19T08:37:38Z</time>
      </trkpt>
      <trkpt lat="39.94986" lon="-8.45081">
        <ele>280.36</ele>
        <time>2019-05-19T08:37:53Z</time>
      </trkpt>
      <trkpt lat="39.95" lon="-8.45086">
        <ele>283.25</ele>
        <time>2019-05-19T08:38:10Z</time>
      </trkpt>
      <trkpt lat="39.95012" lon="-8.45089">
        <ele>285.17</ele>
        <time>2019-05-19T08:38:25Z</time>
      </trkpt>
      <trkpt lat="39.95025" lon="-8.45094">
        <ele>286.13</ele>
        <time>2019-05-19T08:38:39Z</time>
      </trkpt>
      <trkpt lat="39.95038" lon="-8.45094">
        <ele>288.53</ele>
        <time>2019-05-19T08:38:55Z</time>
      </trkpt>
      <trkpt lat="39.95053" lon="-8.45095">
        <ele>289.97</ele>
        <time>2019-05-19T08:39:13Z</time>
      </trkpt>
      <trkpt lat="39.95065" lon="-8.45098">
        <ele>290.94</ele>
        <time>2019-05-19T08:39:25Z</time>
      </trkpt>
      <trkpt lat="39.9508" lon="-8.45102">
        <ele>290.94</ele>
        <time>2019-05-19T08:39:38Z</time>
      </trkpt>
      <trkpt lat="39.95093" lon="-8.45104">
        <ele>290.94</ele>
        <time>2019-05-19T08:39:55Z</time>
      </trkpt>
      <trkpt lat="39.95105" lon="-8.45106">
        <ele>291.9</ele>
        <time>2019-05-19T08:40:09Z</time>
      </trkpt>
      <trkpt lat="39.95119" lon="-8.45108">
        <ele>293.34</ele>
        <time>2019-05-19T08:40:26Z</time>
      </trkpt>
      <trkpt lat="39.95134" lon="-8.45113">
        <ele>292.86</ele>
        <time>2019-05-19T08:40:43Z</time>
      </trkpt>
      <trkpt lat="39.95148" lon="-8.45118">
        <ele>293.82</ele>
        <time>2019-05-19T08:40:56Z</time>
      </trkpt>
      <trkpt lat="39.9518" lon="-8.45141">
        <ele>293.82</ele>
        <time>2019-05-19T08:41:11Z</time>
      </trkpt>
      <trkpt lat="39.95192" lon="-8.45155">
        <ele>292.86</ele>
        <time>2019-05-19T08:41:24Z</time>
      </trkpt>
      <trkpt lat="39.95195" lon="-8.45159">
        <ele>292.86</ele>
        <time>2019-05-19T08:41:27Z</time>
      </trkpt>
      <trkpt lat="39.95208" lon="-8.45171">
        <ele>290.94</ele>
        <time>2019-05-19T08:41:42Z</time>
      </trkpt>
      <trkpt lat="39.95219" lon="-8.45179">
        <ele>291.42</ele>
        <time>2019-05-19T08:41:52Z</time>
      </trkpt>
      <trkpt lat="39.95232" lon="-8.45199">
        <ele>290.46</ele>
        <time>2019-05-19T08:42:07Z</time>
      </trkpt>
      <trkpt lat="39.95242" lon="-8.45222">
        <ele>289.49</ele>
        <time>2019-05-19T08:42:22Z</time>
      </trkpt>
      <trkpt lat="39.9525" lon="-8.45244">
        <ele>287.57</ele>
        <time>2019-05-19T08:42:36Z</time>
      </trkpt>
      <trkpt lat="39.95258" lon="-8.45267">
        <ele>287.09</ele>
        <time>2019-05-19T08:42:52Z</time>
      </trkpt>
      <trkpt lat="39.95268" lon="-8.45292">
        <ele>286.13</ele>
        <time>2019-05-19T08:43:09Z</time>
      </trkpt>
      <trkpt lat="39.95277" lon="-8.45311">
        <ele>284.69</ele>
        <time>2019-05-19T08:43:24Z</time>
      </trkpt>
      <trkpt lat="39.9528" lon="-8.45317">
        <ele>283.25</ele>
        <time>2019-05-19T08:43:29Z</time>
      </trkpt>
      <trkpt lat="39.95286" lon="-8.45328">
        <ele>281.32</ele>
        <time>2019-05-19T08:43:39Z</time>
      </trkpt>
      <trkpt lat="39.95288" lon="-8.45338">
        <ele>279.88</ele>
        <time>2019-05-19T08:43:49Z</time>
      </trkpt>
      <trkpt lat="39.95286" lon="-8.45364">
        <ele>278.92</ele>
        <time>2019-05-19T08:44:06Z</time>
      </trkpt>
      <trkpt lat="39.95286" lon="-8.45378">
        <ele>277.96</ele>
        <time>2019-05-19T08:44:19Z</time>
      </trkpt>
      <trkpt lat="39.95288" lon="-8.45401">
        <ele>277</ele>
        <time>2019-05-19T08:44:34Z</time>
      </trkpt>
      <trkpt lat="39.95291" lon="-8.45417">
        <ele>275.07</ele>
        <time>2019-05-19T08:44:46Z</time>
      </trkpt>
      <trkpt lat="39.95294" lon="-8.45429">
        <ele>274.59</ele>
        <time>2019-05-19T08:45:01Z</time>
      </trkpt>
      <trkpt lat="39.95291" lon="-8.45438">
        <ele>274.11</ele>
        <time>2019-05-19T08:45:12Z</time>
      </trkpt>
      <trkpt lat="39.95291" lon="-8.45442">
        <ele>274.11</ele>
        <time>2019-05-19T08:45:16Z</time>
      </trkpt>
      <trkpt lat="39.95289" lon="-8.45464">
        <ele>272.67</ele>
        <time>2019-05-19T08:45:32Z</time>
      </trkpt>
      <trkpt lat="39.95288" lon="-8.45493">
        <ele>272.19</ele>
        <time>2019-05-19T08:45:48Z</time>
      </trkpt>
      <trkpt lat="39.95286" lon="-8.45514">
        <ele>271.23</ele>
        <time>2019-05-19T08:46:02Z</time>
      </trkpt>
      <trkpt lat="39.95283" lon="-8.45535">
        <ele>271.71</ele>
        <time>2019-05-19T08:46:16Z</time>
      </trkpt>
      <trkpt lat="39.95285" lon="-8.45556">
        <ele>270.27</ele>
        <time>2019-05-19T08:46:31Z</time>
      </trkpt>
      <trkpt lat="39.95293" lon="-8.45565">
        <ele>269.79</ele>
        <time>2019-05-19T08:46:40Z</time>
      </trkpt>
      <trkpt lat="39.95304" lon="-8.45585">
        <ele>269.79</ele>
        <time>2019-05-19T08:46:56Z</time>
      </trkpt>
      <trkpt lat="39.95314" lon="-8.45606">
        <ele>270.27</ele>
        <time>2019-05-19T08:47:11Z</time>
      </trkpt>
      <trkpt lat="39.95319" lon="-8.45625">
        <ele>270.75</ele>
        <time>2019-05-19T08:47:24Z</time>
      </trkpt>
      <trkpt lat="39.95331" lon="-8.45637">
        <ele>273.15</ele>
        <time>2019-05-19T08:47:40Z</time>
      </trkpt>
      <trkpt lat="39.95342" lon="-8.45651">
        <ele>274.11</ele>
        <time>2019-05-19T08:47:56Z</time>
      </trkpt>
      <trkpt lat="39.95352" lon="-8.45663">
        <ele>275.56</ele>
        <time>2019-05-19T08:48:11Z</time>
      </trkpt>
      <trkpt lat="39.95353" lon="-8.45666">
        <ele>275.07</ele>
        <time>2019-05-19T08:48:15Z</time>
      </trkpt>
      <trkpt lat="39.95355" lon="-8.45667">
        <ele>275.07</ele>
        <time>2019-05-19T08:48:17Z</time>
      </trkpt>
      <trkpt lat="39.95363" lon="-8.45683">
        <ele>276.04</ele>
        <time>2019-05-19T08:48:31Z</time>
      </trkpt>
      <trkpt lat="39.95367" lon="-8.45688">
        <ele>277</ele>
        <time>2019-05-19T08:48:36Z</time>
      </trkpt>
      <trkpt lat="39.95375" lon="-8.45713">
        <ele>277.96</ele>
        <time>2019-05-19T08:48:53Z</time>
      </trkpt>
      <trkpt lat="39.95379" lon="-8.45736">
        <ele>276.04</ele>
        <time>2019-05-19T08:49:08Z</time>
      </trkpt>
      <trkpt lat="39.95385" lon="-8.45754">
        <ele>275.56</ele>
        <time>2019-05-19T08:49:20Z</time>
      </trkpt>
      <trkpt lat="39.95392" lon="-8.45769">
        <ele>273.63</ele>
        <time>2019-05-19T08:49:32Z</time>
      </trkpt>
      <trkpt lat="39.95393" lon="-8.45784">
        <ele>274.11</ele>
        <time>2019-05-19T08:49:46Z</time>
      </trkpt>
      <trkpt lat="39.954" lon="-8.45808">
        <ele>272.67</ele>
        <time>2019-05-19T08:50:00Z</time>
      </trkpt>
      <trkpt lat="39.95407" lon="-8.45828">
        <ele>270.27</ele>
        <time>2019-05-19T08:50:15Z</time>
      </trkpt>
      <trkpt lat="39.95407" lon="-8.4583">
        <ele>270.27</ele>
        <time>2019-05-19T08:50:16Z</time>
      </trkpt>
      <trkpt lat="39.95415" lon="-8.45844">
        <ele>268.83</ele>
        <time>2019-05-19T08:50:31Z</time>
      </trkpt>
      <trkpt lat="39.95422" lon="-8.45845">
        <ele>269.79</ele>
        <time>2019-05-19T08:50:40Z</time>
      </trkpt>
      <trkpt lat="39.95429" lon="-8.45843">
        <ele>269.79</ele>
        <time>2019-05-19T08:50:47Z</time>
      </trkpt>
      <trkpt lat="39.95446" lon="-8.45835">
        <ele>269.79</ele>
        <time>2019-05-19T08:51:02Z</time>
      </trkpt>
      <trkpt lat="39.95449" lon="-8.45834">
        <ele>269.31</ele>
        <time>2019-05-19T08:51:05Z</time>
      </trkpt>
      <trkpt lat="39.95465" lon="-8.45837">
        <ele>268.83</ele>
        <time>2019-05-19T08:51:20Z</time>
      </trkpt>
      <trkpt lat="39.9548" lon="-8.45848">
        <ele>268.35</ele>
        <time>2019-05-19T08:51:34Z</time>
      </trkpt>
      <trkpt lat="39.95486" lon="-8.45851">
        <ele>268.35</ele>
        <time>2019-05-19T08:51:38Z</time>
      </trkpt>
      <trkpt lat="39.95491" lon="-8.45855">
        <ele>268.35</ele>
        <time>2019-05-19T08:51:43Z</time>
      </trkpt>
      <trkpt lat="39.95497" lon="-8.45858">
        <ele>267.38</ele>
        <time>2019-05-19T08:51:48Z</time>
      </trkpt>
      <trkpt lat="39.95509" lon="-8.45844">
        <ele>265.94</ele>
        <time>2019-05-19T08:52:05Z</time>
      </trkpt>
      <trkpt lat="39.95516" lon="-8.45849">
        <ele>264.5</ele>
        <time>2019-05-19T08:52:14Z</time>
      </trkpt>
      <trkpt lat="39.95524" lon="-8.45869">
        <ele>263.06</ele>
        <time>2019-05-19T08:52:29Z</time>
      </trkpt>
      <trkpt lat="39.95539" lon="-8.45872">
        <ele>260.17</ele>
        <time>2019-05-19T08:52:45Z</time>
      </trkpt>
      <trkpt lat="39.95549" lon="-8.45862">
        <ele>258.25</ele>
        <time>2019-05-19T08:52:58Z</time>
      </trkpt>
      <trkpt lat="39.95562" lon="-8.45858">
        <ele>256.81</ele>
        <time>2019-05-19T08:53:11Z</time>
      </trkpt>
      <trkpt lat="39.95578" lon="-8.45855">
        <ele>255.37</ele>
        <time>2019-05-19T08:53:25Z</time>
      </trkpt>
      <trkpt lat="39.95586" lon="-8.45857">
        <ele>255.37</ele>
        <time>2019-05-19T08:53:40Z</time>
      </trkpt>
      <trkpt lat="39.95598" lon="-8.45854">
        <ele>255.37</ele>
        <time>2019-05-19T08:53:53Z</time>
      </trkpt>
      <trkpt lat="39.95607" lon="-8.45852">
        <ele>253.93</ele>
        <time>2019-05-19T08:54:06Z</time>
      </trkpt>
      <trkpt lat="39.95611" lon="-8.45851">
        <ele>253.93</ele>
        <time>2019-05-19T08:54:09Z</time>
      </trkpt>
      <trkpt lat="39.95625" lon="-8.4585">
        <ele>253.44</ele>
        <time>2019-05-19T08:54:25Z</time>
      </trkpt>
      <trkpt lat="39.95626" lon="-8.4585">
        <ele>252.96</ele>
        <time>2019-05-19T08:54:26Z</time>
      </trkpt>
      <trkpt lat="39.9564" lon="-8.45848">
        <ele>253.93</ele>
        <time>2019-05-19T08:54:40Z</time>
      </trkpt>
      <trkpt lat="39.95658" lon="-8.45848">
        <ele>253.44</ele>
        <time>2019-05-19T08:54:56Z</time>
      </trkpt>
      <trkpt lat="39.95675" lon="-8.45852">
        <ele>253.44</ele>
        <time>2019-05-19T08:55:10Z</time>
      </trkpt>
      <trkpt lat="39.95694" lon="-8.45857">
        <ele>253.93</ele>
        <time>2019-05-19T08:55:26Z</time>
      </trkpt>
      <trkpt lat="39.95711" lon="-8.45863">
        <ele>253.93</ele>
        <time>2019-05-19T08:55:44Z</time>
      </trkpt>
      <trkpt lat="39.95724" lon="-8.45869">
        <ele>253.93</ele>
        <time>2019-05-19T08:55:59Z</time>
      </trkpt>
      <trkpt lat="39.95733" lon="-8.45874">
        <ele>253.93</ele>
        <time>2019-05-19T08:56:10Z</time>
      </trkpt>
      <trkpt lat="39.95737" lon="-8.45877">
        <ele>254.41</ele>
        <time>2019-05-19T08:56:14Z</time>
      </trkpt>
      <trkpt lat="39.95749" lon="-8.45883">
        <ele>254.41</ele>
        <time>2019-05-19T08:56:26Z</time>
      </trkpt>
      <trkpt lat="39.95766" lon="-8.45883">
        <ele>255.37</ele>
        <time>2019-05-19T08:56:41Z</time>
      </trkpt>
      <trkpt lat="39.95775" lon="-8.45883">
        <ele>256.33</ele>
        <time>2019-05-19T08:56:49Z</time>
      </trkpt>
      <trkpt lat="39.9579" lon="-8.45882">
        <ele>256.81</ele>
        <time>2019-05-19T08:57:03Z</time>
      </trkpt>
      <trkpt lat="39.95803" lon="-8.45887">
        <ele>257.77</ele>
        <time>2019-05-19T08:57:17Z</time>
      </trkpt>
      <trkpt lat="39.95814" lon="-8.45897">
        <ele>257.77</ele>
        <time>2019-05-19T08:57:32Z</time>
      </trkpt>
      <trkpt lat="39.95823" lon="-8.45903">
        <ele>259.21</ele>
        <time>2019-05-19T08:57:46Z</time>
      </trkpt>
      <trkpt lat="39.95837" lon="-8.45912">
        <ele>260.17</ele>
        <time>2019-05-19T08:58:01Z</time>
      </trkpt>
      <trkpt lat="39.95848" lon="-8.45915">
        <ele>263.54</ele>
        <time>2019-05-19T08:58:16Z</time>
      </trkpt>
      <trkpt lat="39.95849" lon="-8.45915">
        <ele>263.06</ele>
        <time>2019-05-19T08:58:17Z</time>
      </trkpt>
      <trkpt lat="39.95858" lon="-8.45918">
        <ele>264.02</ele>
        <time>2019-05-19T08:58:31Z</time>
      </trkpt>
      <trkpt lat="39.95869" lon="-8.45929">
        <ele>264.98</ele>
        <time>2019-05-19T08:58:47Z</time>
      </trkpt>
      <trkpt lat="39.95882" lon="-8.45929">
        <ele>264.98</ele>
        <time>2019-05-19T08:59:01Z</time>
      </trkpt>
      <trkpt lat="39.95895" lon="-8.45929">
        <ele>265.46</ele>
        <time>2019-05-19T08:59:15Z</time>
      </trkpt>
      <trkpt lat="39.95906" lon="-8.45933">
        <ele>264.02</ele>
        <time>2019-05-19T08:59:28Z</time>
      </trkpt>
      <trkpt lat="39.95918" lon="-8.45935">
        <ele>262.58</ele>
        <time>2019-05-19T08:59:43Z</time>
      </trkpt>
      <trkpt lat="39.95931" lon="-8.45935">
        <ele>263.54</ele>
        <time>2019-05-19T08:59:59Z</time>
      </trkpt>
      <trkpt lat="39.95945" lon="-8.45936">
        <ele>263.54</ele>
        <time>2019-05-19T09:00:13Z</time>
      </trkpt>
      <trkpt lat="39.95955" lon="-8.45939">
        <ele>263.54</ele>
        <time>2019-05-19T09:00:25Z</time>
      </trkpt>
      <trkpt lat="39.95963" lon="-8.4594">
        <ele>262.58</ele>
        <time>2019-05-19T09:00:32Z</time>
      </trkpt>
      <trkpt lat="39.9598" lon="-8.45941">
        <ele>263.54</ele>
        <time>2019-05-19T09:00:47Z</time>
      </trkpt>
      <trkpt lat="39.95994" lon="-8.45939">
        <ele>263.54</ele>
        <time>2019-05-19T09:01:01Z</time>
      </trkpt>
      <trkpt lat="39.96007" lon="-8.45936">
        <ele>264.5</ele>
        <time>2019-05-19T09:01:14Z</time>
      </trkpt>
      <trkpt lat="39.96022" lon="-8.45931">
        <ele>265.46</ele>
        <time>2019-05-19T09:01:28Z</time>
      </trkpt>
      <trkpt lat="39.9604" lon="-8.45922">
        <ele>265.94</ele>
        <time>2019-05-19T09:01:41Z</time>
      </trkpt>
      <trkpt lat="39.9604" lon="-8.45922">
        <ele>265.94</ele>
        <time>2019-05-19T09:01:42Z</time>
      </trkpt>
      <trkpt lat="39.96042" lon="-8.4592">
        <ele>264.98</ele>
        <time>2019-05-19T09:01:44Z</time>
      </trkpt>
      <trkpt lat="39.96048" lon="-8.45916">
        <ele>264.98</ele>
        <time>2019-05-19T09:01:50Z</time>
      </trkpt>
      <trkpt lat="39.96067" lon="-8.45913">
        <ele>264.02</ele>
        <time>2019-05-19T09:02:06Z</time>
      </trkpt>
      <trkpt lat="39.96085" lon="-8.45908">
        <ele>264.02</ele>
        <time>2019-05-19T09:02:21Z</time>
      </trkpt>
      <trkpt lat="39.96103" lon="-8.45898">
        <ele>263.06</ele>
        <time>2019-05-19T09:02:38Z</time>
      </trkpt>
      <trkpt lat="39.9612" lon="-8.45887">
        <ele>263.06</ele>
        <time>2019-05-19T09:02:54Z</time>
      </trkpt>
      <trkpt lat="39.96134" lon="-8.45882">
        <ele>261.14</ele>
        <time>2019-05-19T09:03:08Z</time>
      </trkpt>
      <trkpt lat="39.96144" lon="-8.45878">
        <ele>258.25</ele>
        <time>2019-05-19T09:03:21Z</time>
      </trkpt>
      <trkpt lat="39.96153" lon="-8.45867">
        <ele>256.81</ele>
        <time>2019-05-19T09:03:34Z</time>
      </trkpt>
      <trkpt lat="39.9616" lon="-8.45851">
        <ele>255.85</ele>
        <time>2019-05-19T09:03:50Z</time>
      </trkpt>
      <trkpt lat="39.96165" lon="-8.45842">
        <ele>255.37</ele>
        <time>2019-05-19T09:03:58Z</time>
      </trkpt>
      <trkpt lat="39.96176" lon="-8.45824">
        <ele>254.41</ele>
        <time>2019-05-19T09:04:12Z</time>
      </trkpt>
      <trkpt lat="39.96187" lon="-8.45819">
        <ele>252</ele>
        <time>2019-05-19T09:04:26Z</time>
      </trkpt>
      <trkpt lat="39.96205" lon="-8.4582">
        <ele>250.08</ele>
        <time>2019-05-19T09:04:41Z</time>
      </trkpt>
      <trkpt lat="39.96219" lon="-8.45829">
        <ele>250.08</ele>
        <time>2019-05-19T09:04:54Z</time>
      </trkpt>
      <trkpt lat="39.96228" lon="-8.45837">
        <ele>249.6</ele>
        <time>2019-05-19T09:05:07Z</time>
      </trkpt>
      <trkpt lat="39.96241" lon="-8.45849">
        <ele>249.6</ele>
        <time>2019-05-19T09:05:20Z</time>
      </trkpt>
      <trkpt lat="39.96256" lon="-8.4586">
        <ele>249.6</ele>
        <time>2019-05-19T09:05:38Z</time>
      </trkpt>
      <trkpt lat="39.96264" lon="-8.45869">
        <ele>250.56</ele>
        <time>2019-05-19T09:05:49Z</time>
      </trkpt>
      <trkpt lat="39.96276" lon="-8.45882">
        <ele>251.52</ele>
        <time>2019-05-19T09:06:04Z</time>
      </trkpt>
      <trkpt lat="39.96279" lon="-8.45883">
        <ele>251.52</ele>
        <time>2019-05-19T09:06:06Z</time>
      </trkpt>
      <trkpt lat="39.96301" lon="-8.45897">
        <ele>252</ele>
        <time>2019-05-19T09:06:23Z</time>
      </trkpt>
      <trkpt lat="39.96315" lon="-8.45907">
        <ele>252.48</ele>
        <time>2019-05-19T09:06:37Z</time>
      </trkpt>
      <trkpt lat="39.96317" lon="-8.45909">
        <ele>252</ele>
        <time>2019-05-19T09:06:39Z</time>
      </trkpt>
      <trkpt lat="39.96332" lon="-8.45919">
        <ele>252.48</ele>
        <time>2019-05-19T09:06:55Z</time>
      </trkpt>
      <trkpt lat="39.96335" lon="-8.45922">
        <ele>255.85</ele>
        <time>2019-05-19T09:07:14Z</time>
      </trkpt>
      <trkpt lat="39.96335" lon="-8.45922">
        <ele>252</ele>
        <time>2019-05-19T09:07:15Z</time>
      </trkpt>
      <trkpt lat="39.96338" lon="-8.45924">
        <ele>252.48</ele>
        <time>2019-05-19T09:07:19Z</time>
      </trkpt>
      <trkpt lat="39.96341" lon="-8.45926">
        <ele>252.48</ele>
        <time>2019-05-19T09:07:23Z</time>
      </trkpt>
      <trkpt lat="39.96356" lon="-8.4594">
        <ele>252.48</ele>
        <time>2019-05-19T09:07:39Z</time>
      </trkpt>
      <trkpt lat="39.9637" lon="-8.45952">
        <ele>252.96</ele>
        <time>2019-05-19T09:07:54Z</time>
      </trkpt>
      <trkpt lat="39.96383" lon="-8.45965">
        <ele>253.44</ele>
        <time>2019-05-19T09:08:07Z</time>
      </trkpt>
      <trkpt lat="39.96396" lon="-8.45975">
        <ele>253.44</ele>
        <time>2019-05-19T09:08:21Z</time>
      </trkpt>
      <trkpt lat="39.96399" lon="-8.45978">
        <ele>253.93</ele>
        <time>2019-05-19T09:08:35Z</time>
      </trkpt>
      <trkpt lat="39.96406" lon="-8.45974">
        <ele>253.44</ele>
        <time>2019-05-19T09:08:54Z</time>
      </trkpt>
      <trkpt lat="39.9642" lon="-8.45961">
        <ele>253.93</ele>
        <time>2019-05-19T09:09:09Z</time>
      </trkpt>
      <trkpt lat="39.96433" lon="-8.45946">
        <ele>253.44</ele>
        <time>2019-05-19T09:09:25Z</time>
      </trkpt>
      <trkpt lat="39.96438" lon="-8.45939">
        <ele>254.89</ele>
        <time>2019-05-19T09:09:31Z</time>
      </trkpt>
      <trkpt lat="39.96456" lon="-8.45923">
        <ele>254.41</ele>
        <time>2019-05-19T09:09:49Z</time>
      </trkpt>
      <trkpt lat="39.96468" lon="-8.45902">
        <ele>254.41</ele>
        <time>2019-05-19T09:10:06Z</time>
      </trkpt>
      <trkpt lat="39.96474" lon="-8.45885">
        <ele>254.41</ele>
        <time>2019-05-19T09:10:21Z</time>
      </trkpt>
      <trkpt lat="39.96475" lon="-8.45883">
        <ele>255.37</ele>
        <time>2019-05-19T09:10:38Z</time>
      </trkpt>
      <trkpt lat="39.96476" lon="-8.45883">
        <ele>254.41</ele>
        <time>2019-05-19T09:10:59Z</time>
      </trkpt>
      <trkpt lat="39.96479" lon="-8.45875">
        <ele>253.93</ele>
        <time>2019-05-19T09:11:13Z</time>
      </trkpt>
      <trkpt lat="39.96489" lon="-8.45859">
        <ele>254.41</ele>
        <time>2019-05-19T09:11:29Z</time>
      </trkpt>
      <trkpt lat="39.96499" lon="-8.45836">
        <ele>254.41</ele>
        <time>2019-05-19T09:11:45Z</time>
      </trkpt>
      <trkpt lat="39.965" lon="-8.45835">
        <ele>253.93</ele>
        <time>2019-05-19T09:11:46Z</time>
      </trkpt>
      <trkpt lat="39.96508" lon="-8.45815">
        <ele>254.41</ele>
        <time>2019-05-19T09:12:01Z</time>
      </trkpt>
      <trkpt lat="39.96518" lon="-8.458">
        <ele>253.44</ele>
        <time>2019-05-19T09:12:13Z</time>
      </trkpt>
      <trkpt lat="39.96532" lon="-8.45782">
        <ele>253.44</ele>
        <time>2019-05-19T09:12:29Z</time>
      </trkpt>
      <trkpt lat="39.96537" lon="-8.45778">
        <ele>252.96</ele>
        <time>2019-05-19T09:12:41Z</time>
      </trkpt>
      <trkpt lat="39.96549" lon="-8.45765">
        <ele>253.44</ele>
        <time>2019-05-19T09:12:54Z</time>
      </trkpt>
      <trkpt lat="39.96563" lon="-8.4575">
        <ele>252.48</ele>
        <time>2019-05-19T09:13:09Z</time>
      </trkpt>
      <trkpt lat="39.96578" lon="-8.45735">
        <ele>252.96</ele>
        <time>2019-05-19T09:13:24Z</time>
      </trkpt>
      <trkpt lat="39.96593" lon="-8.4572">
        <ele>253.44</ele>
        <time>2019-05-19T09:13:39Z</time>
      </trkpt>
      <trkpt lat="39.96609" lon="-8.45704">
        <ele>252</ele>
        <time>2019-05-19T09:13:54Z</time>
      </trkpt>
      <trkpt lat="39.96622" lon="-8.45693">
        <ele>253.44</ele>
        <time>2019-05-19T09:14:08Z</time>
      </trkpt>
      <trkpt lat="39.96637" lon="-8.45677">
        <ele>252.96</ele>
        <time>2019-05-19T09:14:24Z</time>
      </trkpt>
      <trkpt lat="39.96651" lon="-8.45661">
        <ele>252.96</ele>
        <time>2019-05-19T09:14:40Z</time>
      </trkpt>
      <trkpt lat="39.96657" lon="-8.45655">
        <ele>253.44</ele>
        <time>2019-05-19T09:14:47Z</time>
      </trkpt>
      <trkpt lat="39.96661" lon="-8.45657">
        <ele>253.93</ele>
        <time>2019-05-19T09:14:51Z</time>
      </trkpt>
      <trkpt lat="39.96671" lon="-8.45666">
        <ele>254.41</ele>
        <time>2019-05-19T09:15:03Z</time>
      </trkpt>
      <trkpt lat="39.96682" lon="-8.45683">
        <ele>254.41</ele>
        <time>2019-05-19T09:15:19Z</time>
      </trkpt>
      <trkpt lat="39.96694" lon="-8.45696">
        <ele>256.81</ele>
        <time>2019-05-19T09:15:35Z</time>
      </trkpt>
      <trkpt lat="39.96708" lon="-8.45696">
        <ele>257.77</ele>
        <time>2019-05-19T09:15:49Z</time>
      </trkpt>
      <trkpt lat="39.96727" lon="-8.45692">
        <ele>260.17</ele>
        <time>2019-05-19T09:16:08Z</time>
      </trkpt>
      <trkpt lat="39.96739" lon="-8.4569">
        <ele>261.14</ele>
        <time>2019-05-19T09:16:24Z</time>
      </trkpt>
      <trkpt lat="39.96754" lon="-8.4569">
        <ele>262.58</ele>
        <time>2019-05-19T09:16:41Z</time>
      </trkpt>
      <trkpt lat="39.96771" lon="-8.45692">
        <ele>264.5</ele>
        <time>2019-05-19T09:16:59Z</time>
      </trkpt>
      <trkpt lat="39.96787" lon="-8.45692">
        <ele>265.46</ele>
        <time>2019-05-19T09:17:16Z</time>
      </trkpt>
      <trkpt lat="39.96802" lon="-8.45693">
        <ele>267.86</ele>
        <time>2019-05-19T09:17:33Z</time>
      </trkpt>
      <trkpt lat="39.96817" lon="-8.45694">
        <ele>268.35</ele>
        <time>2019-05-19T09:17:48Z</time>
      </trkpt>
      <trkpt lat="39.96833" lon="-8.45694">
        <ele>268.83</ele>
        <time>2019-05-19T09:18:03Z</time>
      </trkpt>
      <trkpt lat="39.96851" lon="-8.45694">
        <ele>269.79</ele>
        <time>2019-05-19T09:18:19Z</time>
      </trkpt>
      <trkpt lat="39.96867" lon="-8.45692">
        <ele>271.71</ele>
        <time>2019-05-19T09:18:36Z</time>
      </trkpt>
      <trkpt lat="39.96882" lon="-8.45692">
        <ele>272.67</ele>
        <time>2019-05-19T09:18:52Z</time>
      </trkpt>
      <trkpt lat="39.96899" lon="-8.45692">
        <ele>274.11</ele>
        <time>2019-05-19T09:19:08Z</time>
      </trkpt>
      <trkpt lat="39.96913" lon="-8.45685">
        <ele>275.07</ele>
        <time>2019-05-19T09:19:24Z</time>
      </trkpt>
      <trkpt lat="39.96922" lon="-8.45679">
        <ele>277</ele>
        <time>2019-05-19T09:19:39Z</time>
      </trkpt>
      <trkpt lat="39.96937" lon="-8.45672">
        <ele>278.92</ele>
        <time>2019-05-19T09:19:56Z</time>
      </trkpt>
      <trkpt lat="39.96948" lon="-8.45675">
        <ele>281.32</ele>
        <time>2019-05-19T09:20:12Z</time>
      </trkpt>
      <trkpt lat="39.9696" lon="-8.45676">
        <ele>284.21</ele>
        <time>2019-05-19T09:20:28Z</time>
      </trkpt>
      <trkpt lat="39.96972" lon="-8.45679">
        <ele>285.17</ele>
        <time>2019-05-19T09:20:44Z</time>
      </trkpt>
      <trkpt lat="39.96982" lon="-8.45683">
        <ele>287.57</ele>
        <time>2019-05-19T09:20:59Z</time>
      </trkpt>
      <trkpt lat="39.96992" lon="-8.45687">
        <ele>289.97</ele>
        <time>2019-05-19T09:21:13Z</time>
      </trkpt>
      <trkpt lat="39.97002" lon="-8.45694">
        <ele>291.9</ele>
        <time>2019-05-19T09:21:29Z</time>
      </trkpt>
      <trkpt lat="39.97013" lon="-8.457">
        <ele>294.78</ele>
        <time>2019-05-19T09:21:43Z</time>
      </trkpt>
      <trkpt lat="39.97029" lon="-8.45708">
        <ele>297.18</ele>
        <time>2019-05-19T09:22:03Z</time>
      </trkpt>
      <trkpt lat="39.97046" lon="-8.45713">
        <ele>298.63</ele>
        <time>2019-05-19T09:22:19Z</time>
      </trkpt>
      <trkpt lat="39.97061" lon="-8.45712">
        <ele>299.11</ele>
        <time>2019-05-19T09:22:33Z</time>
      </trkpt>
      <trkpt lat="39.97082" lon="-8.45712">
        <ele>299.59</ele>
        <time>2019-05-19T09:22:51Z</time>
      </trkpt>
      <trkpt lat="39.97092" lon="-8.45714">
        <ele>301.03</ele>
        <time>2019-05-19T09:23:05Z</time>
      </trkpt>
      <trkpt lat="39.97093" lon="-8.45715">
        <ele>301.03</ele>
        <time>2019-05-19T09:23:22Z</time>
      </trkpt>
      <trkpt lat="39.97108" lon="-8.45716">
        <ele>300.07</ele>
        <time>2019-05-19T09:23:35Z</time>
      </trkpt>
      <trkpt lat="39.97122" lon="-8.45718">
        <ele>299.59</ele>
        <time>2019-05-19T09:23:48Z</time>
      </trkpt>
      <trkpt lat="39.97126" lon="-8.45719">
        <ele>299.59</ele>
        <time>2019-05-19T09:23:51Z</time>
      </trkpt>
      <trkpt lat="39.97128" lon="-8.45721">
        <ele>299.59</ele>
        <time>2019-05-19T09:23:53Z</time>
      </trkpt>
      <trkpt lat="39.97139" lon="-8.4574">
        <ele>299.11</ele>
        <time>2019-05-19T09:24:08Z</time>
      </trkpt>
      <trkpt lat="39.97148" lon="-8.45757">
        <ele>298.15</ele>
        <time>2019-05-19T09:24:22Z</time>
      </trkpt>
      <trkpt lat="39.97154" lon="-8.45776">
        <ele>297.18</ele>
        <time>2019-05-19T09:24:35Z</time>
      </trkpt>
      <trkpt lat="39.9716" lon="-8.45797">
        <ele>297.18</ele>
        <time>2019-05-19T09:24:49Z</time>
      </trkpt>
      <trkpt lat="39.97168" lon="-8.45812">
        <ele>297.67</ele>
        <time>2019-05-19T09:25:02Z</time>
      </trkpt>
      <trkpt lat="39.97171" lon="-8.45819">
        <ele>298.15</ele>
        <time>2019-05-19T09:25:15Z</time>
      </trkpt>
      <trkpt lat="39.97168" lon="-8.45823">
        <ele>298.15</ele>
        <time>2019-05-19T09:25:30Z</time>
      </trkpt>
      <trkpt lat="39.9717" lon="-8.45823">
        <ele>296.7</ele>
        <time>2019-05-19T09:25:43Z</time>
      </trkpt>
      <trkpt lat="39.97169" lon="-8.45825">
        <ele>296.7</ele>
        <time>2019-05-19T09:26:13Z</time>
      </trkpt>
      <trkpt lat="39.97168" lon="-8.45824">
        <ele>297.18</ele>
        <time>2019-05-19T09:26:47Z</time>
      </trkpt>
      <trkpt lat="39.9717" lon="-8.45824">
        <ele>296.7</ele>
        <time>2019-05-19T09:27:27Z</time>
      </trkpt>
      <trkpt lat="39.97168" lon="-8.45825">
        <ele>295.26</ele>
        <time>2019-05-19T09:28:02Z</time>
      </trkpt>
      <trkpt lat="39.97168" lon="-8.45826">
        <ele>298.15</ele>
        <time>2019-05-19T09:28:05Z</time>
      </trkpt>
      <trkpt lat="39.97168" lon="-8.45827">
        <ele>297.18</ele>
        <time>2019-05-19T09:28:45Z</time>
      </trkpt>
      <trkpt lat="39.97165" lon="-8.45826">
        <ele>297.18</ele>
        <time>2019-05-19T09:29:24Z</time>
      </trkpt>
      <trkpt lat="39.97167" lon="-8.45824">
        <ele>297.18</ele>
        <time>2019-05-19T09:30:07Z</time>
      </trkpt>
      <trkpt lat="39.97169" lon="-8.45825">
        <ele>298.15</ele>
        <time>2019-05-19T09:30:52Z</time>
      </trkpt>
      <trkpt lat="39.97166" lon="-8.45822">
        <ele>298.15</ele>
        <time>2019-05-19T09:31:21Z</time>
      </trkpt>
      <trkpt lat="39.97167" lon="-8.45823">
        <ele>299.11</ele>
        <time>2019-05-19T09:31:49Z</time>
      </trkpt>
      <trkpt lat="39.97169" lon="-8.4582">
        <ele>298.63</ele>
        <time>2019-05-19T09:32:22Z</time>
      </trkpt>
      <trkpt lat="39.97169" lon="-8.45818">
        <ele>299.11</ele>
        <time>2019-05-19T09:32:50Z</time>
      </trkpt>
      <trkpt lat="39.97169" lon="-8.45818">
        <ele>299.11</ele>
        <time>2019-05-19T09:33:23Z</time>
      </trkpt>
      <trkpt lat="39.9717" lon="-8.45822">
        <ele>299.11</ele>
        <time>2019-05-19T09:34:01Z</time>
      </trkpt>
      <trkpt lat="39.97167" lon="-8.45823">
        <ele>299.59</ele>
        <time>2019-05-19T09:34:32Z</time>
      </trkpt>
      <trkpt lat="39.97167" lon="-8.45824">
        <ele>299.59</ele>
        <time>2019-05-19T09:35:09Z</time>
      </trkpt>
      <trkpt lat="39.97168" lon="-8.45824">
        <ele>299.59</ele>
        <time>2019-05-19T09:35:43Z</time>
      </trkpt>
      <trkpt lat="39.97166" lon="-8.45823">
        <ele>299.59</ele>
        <time>2019-05-19T09:36:10Z</time>
      </trkpt>
      <trkpt lat="39.97169" lon="-8.45823">
        <ele>299.59</ele>
        <time>2019-05-19T09:36:54Z</time>
      </trkpt>
      <trkpt lat="39.97164" lon="-8.45824">
        <ele>299.59</ele>
        <time>2019-05-19T09:37:34Z</time>
      </trkpt>
      <trkpt lat="39.97168" lon="-8.45823">
        <ele>299.59</ele>
        <time>2019-05-19T09:38:06Z</time>
      </trkpt>
      <trkpt lat="39.97169" lon="-8.45824">
        <ele>299.59</ele>
        <time>2019-05-19T09:38:31Z</time>
      </trkpt>
      <trkpt lat="39.97166" lon="-8.45822">
        <ele>300.07</ele>
        <time>2019-05-19T09:39:09Z</time>
      </trkpt>
      <trkpt lat="39.97166" lon="-8.45822">
        <ele>300.07</ele>
        <time>2019-05-19T09:39:44Z</time>
      </trkpt>
      <trkpt lat="39.97168" lon="-8.45824">
        <ele>300.07</ele>
        <time>2019-05-19T09:40:08Z</time>
      </trkpt>
      <trkpt lat="39.97167" lon="-8.4582">
        <ele>300.55</ele>
        <time>2019-05-19T09:40:37Z</time>
      </trkpt>
      <trkpt lat="39.97167" lon="-8.4582">
        <ele>300.07</ele>
        <time>2019-05-19T09:41:00Z</time>
      </trkpt>
      <trkpt lat="39.97167" lon="-8.45821">
        <ele>301.03</ele>
        <time>2019-05-19T09:41:25Z</time>
      </trkpt>
      <trkpt lat="39.97164" lon="-8.45821">
        <ele>301.51</ele>
        <time>2019-05-19T09:41:40Z</time>
      </trkpt>
      <trkpt lat="39.97166" lon="-8.45822">
        <ele>301.51</ele>
        <time>2019-05-19T09:42:02Z</time>
      </trkpt>
      <trkpt lat="39.97165" lon="-8.45822">
        <ele>301.03</ele>
        <time>2019-05-19T09:42:25Z</time>
      </trkpt>
      <trkpt lat="39.97166" lon="-8.4582">
        <ele>301.99</ele>
        <time>2019-05-19T09:42:40Z</time>
      </trkpt>
      <trkpt lat="39.97169" lon="-8.45818">
        <ele>301.99</ele>
        <time>2019-05-19T09:42:57Z</time>
      </trkpt>
      <trkpt lat="39.97183" lon="-8.45819">
        <ele>301.51</ele>
        <time>2019-05-19T09:43:11Z</time>
      </trkpt>
      <trkpt lat="39.97199" lon="-8.45818">
        <ele>301.99</ele>
        <time>2019-05-19T09:43:24Z</time>
      </trkpt>
      <trkpt lat="39.97211" lon="-8.45816">
        <ele>301.99</ele>
        <time>2019-05-19T09:43:37Z</time>
      </trkpt>
      <trkpt lat="39.97215" lon="-8.45816">
        <ele>301.99</ele>
        <time>2019-05-19T09:43:40Z</time>
      </trkpt>
      <trkpt lat="39.97219" lon="-8.45815">
        <ele>302.47</ele>
        <time>2019-05-19T09:43:43Z</time>
      </trkpt>
      <trkpt lat="39.97228" lon="-8.45817">
        <ele>301.99</ele>
        <time>2019-05-19T09:43:51Z</time>
      </trkpt>
      <trkpt lat="39.9724" lon="-8.45833">
        <ele>300.55</ele>
        <time>2019-05-19T09:44:04Z</time>
      </trkpt>
      <trkpt lat="39.97241" lon="-8.45835">
        <ele>300.55</ele>
        <time>2019-05-19T09:44:05Z</time>
      </trkpt>
      <trkpt lat="39.9725" lon="-8.45844">
        <ele>300.07</ele>
        <time>2019-05-19T09:44:14Z</time>
      </trkpt>
      <trkpt lat="39.97252" lon="-8.45849">
        <ele>298.15</ele>
        <time>2019-05-19T09:44:18Z</time>
      </trkpt>
      <trkpt lat="39.9726" lon="-8.45864">
        <ele>297.67</ele>
        <time>2019-05-19T09:44:30Z</time>
      </trkpt>
      <trkpt lat="39.97269" lon="-8.45878">
        <ele>296.7</ele>
        <time>2019-05-19T09:44:41Z</time>
      </trkpt>
      <trkpt lat="39.9728" lon="-8.45898">
        <ele>295.74</ele>
        <time>2019-05-19T09:44:55Z</time>
      </trkpt>
      <trkpt lat="39.97287" lon="-8.45914">
        <ele>294.3</ele>
        <time>2019-05-19T09:45:07Z</time>
      </trkpt>
      <trkpt lat="39.97287" lon="-8.45917">
        <ele>294.3</ele>
        <time>2019-05-19T09:45:09Z</time>
      </trkpt>
      <trkpt lat="39.9729" lon="-8.45928">
        <ele>293.82</ele>
        <time>2019-05-19T09:45:15Z</time>
      </trkpt>
      <trkpt lat="39.97293" lon="-8.45939">
        <ele>292.86</ele>
        <time>2019-05-19T09:45:22Z</time>
      </trkpt>
      <trkpt lat="39.97299" lon="-8.45953">
        <ele>292.86</ele>
        <time>2019-05-19T09:45:36Z</time>
      </trkpt>
      <trkpt lat="39.97299" lon="-8.45954">
        <ele>293.34</ele>
        <time>2019-05-19T09:45:45Z</time>
      </trkpt>
      <trkpt lat="39.97304" lon="-8.45951">
        <ele>292.86</ele>
        <time>2019-05-19T09:45:50Z</time>
      </trkpt>
      <trkpt lat="39.9732" lon="-8.4593">
        <ele>292.38</ele>
        <time>2019-05-19T09:46:07Z</time>
      </trkpt>
      <trkpt lat="39.97326" lon="-8.45923">
        <ele>292.38</ele>
        <time>2019-05-19T09:46:14Z</time>
      </trkpt>
      <trkpt lat="39.97339" lon="-8.45912">
        <ele>293.82</ele>
        <time>2019-05-19T09:46:28Z</time>
      </trkpt>
      <trkpt lat="39.97342" lon="-8.45911">
        <ele>293.34</ele>
        <time>2019-05-19T09:46:31Z</time>
      </trkpt>
      <trkpt lat="39.9736" lon="-8.45903">
        <ele>292.86</ele>
        <time>2019-05-19T09:46:47Z</time>
      </trkpt>
      <trkpt lat="39.9738" lon="-8.45897">
        <ele>292.38</ele>
        <time>2019-05-19T09:47:03Z</time>
      </trkpt>
      <trkpt lat="39.974" lon="-8.45889">
        <ele>291.42</ele>
        <time>2019-05-19T09:47:20Z</time>
      </trkpt>
      <trkpt lat="39.97422" lon="-8.45882">
        <ele>290.94</ele>
        <time>2019-05-19T09:47:37Z</time>
      </trkpt>
      <trkpt lat="39.97446" lon="-8.45874">
        <ele>290.94</ele>
        <time>2019-05-19T09:47:56Z</time>
      </trkpt>
      <trkpt lat="39.97465" lon="-8.4587">
        <ele>290.94</ele>
        <time>2019-05-19T09:48:11Z</time>
      </trkpt>
      <trkpt lat="39.97485" lon="-8.45866">
        <ele>291.42</ele>
        <time>2019-05-19T09:48:27Z</time>
      </trkpt>
      <trkpt lat="39.97504" lon="-8.45855">
        <ele>290.94</ele>
        <time>2019-05-19T09:48:42Z</time>
      </trkpt>
      <trkpt lat="39.97522" lon="-8.45845">
        <ele>291.42</ele>
        <time>2019-05-19T09:48:57Z</time>
      </trkpt>
      <trkpt lat="39.97537" lon="-8.45831">
        <ele>291.9</ele>
        <time>2019-05-19T09:49:12Z</time>
      </trkpt>
      <trkpt lat="39.97553" lon="-8.45816">
        <ele>292.38</ele>
        <time>2019-05-19T09:49:29Z</time>
      </trkpt>
      <trkpt lat="39.97558" lon="-8.45811">
        <ele>293.34</ele>
        <time>2019-05-19T09:49:43Z</time>
      </trkpt>
      <trkpt lat="39.97573" lon="-8.45797">
        <ele>294.3</ele>
        <time>2019-05-19T09:49:59Z</time>
      </trkpt>
      <trkpt lat="39.97584" lon="-8.45785">
        <ele>295.26</ele>
        <time>2019-05-19T09:50:14Z</time>
      </trkpt>
      <trkpt lat="39.97598" lon="-8.45769">
        <ele>295.74</ele>
        <time>2019-05-19T09:50:30Z</time>
      </trkpt>
      <trkpt lat="39.97613" lon="-8.45753">
        <ele>297.18</ele>
        <time>2019-05-19T09:50:46Z</time>
      </trkpt>
      <trkpt lat="39.97623" lon="-8.45736">
        <ele>297.18</ele>
        <time>2019-05-19T09:51:00Z</time>
      </trkpt>
      <trkpt lat="39.97633" lon="-8.45718">
        <ele>298.63</ele>
        <time>2019-05-19T09:51:15Z</time>
      </trkpt>
      <trkpt lat="39.9764" lon="-8.45703">
        <ele>298.63</ele>
        <time>2019-05-19T09:51:27Z</time>
      </trkpt>
      <trkpt lat="39.97652" lon="-8.45681">
        <ele>300.55</ele>
        <time>2019-05-19T09:51:44Z</time>
      </trkpt>
      <trkpt lat="39.9766" lon="-8.45665">
        <ele>300.55</ele>
        <time>2019-05-19T09:51:57Z</time>
      </trkpt>
      <trkpt lat="39.97668" lon="-8.45653">
        <ele>300.55</ele>
        <time>2019-05-19T09:52:07Z</time>
      </trkpt>
      <trkpt lat="39.97682" lon="-8.45637">
        <ele>298.63</ele>
        <time>2019-05-19T09:52:21Z</time>
      </trkpt>
      <trkpt lat="39.97683" lon="-8.45636">
        <ele>298.63</ele>
        <time>2019-05-19T09:52:22Z</time>
      </trkpt>
      <trkpt lat="39.97697" lon="-8.45622">
        <ele>297.67</ele>
        <time>2019-05-19T09:52:35Z</time>
      </trkpt>
      <trkpt lat="39.97717" lon="-8.45606">
        <ele>297.67</ele>
        <time>2019-05-19T09:52:53Z</time>
      </trkpt>
      <trkpt lat="39.97733" lon="-8.45596">
        <ele>297.67</ele>
        <time>2019-05-19T09:53:09Z</time>
      </trkpt>
      <trkpt lat="39.97751" lon="-8.45586">
        <ele>298.63</ele>
        <time>2019-05-19T09:53:26Z</time>
      </trkpt>
      <trkpt lat="39.97764" lon="-8.45581">
        <ele>300.55</ele>
        <time>2019-05-19T09:53:39Z</time>
      </trkpt>
      <trkpt lat="39.9777" lon="-8.45579">
        <ele>300.55</ele>
        <time>2019-05-19T09:53:44Z</time>
      </trkpt>
      <trkpt lat="39.97786" lon="-8.4557">
        <ele>301.51</ele>
        <time>2019-05-19T09:53:58Z</time>
      </trkpt>
      <trkpt lat="39.97799" lon="-8.45562">
        <ele>301.99</ele>
        <time>2019-05-19T09:54:13Z</time>
      </trkpt>
      <trkpt lat="39.978" lon="-8.45557">
        <ele>301.51</ele>
        <time>2019-05-19T09:54:28Z</time>
      </trkpt>
      <trkpt lat="39.97813" lon="-8.45542">
        <ele>299.59</ele>
        <time>2019-05-19T09:54:44Z</time>
      </trkpt>
      <trkpt lat="39.97827" lon="-8.45531">
        <ele>299.11</ele>
        <time>2019-05-19T09:54:58Z</time>
      </trkpt>
      <trkpt lat="39.97833" lon="-8.45522">
        <ele>299.11</ele>
        <time>2019-05-19T09:55:11Z</time>
      </trkpt>
      <trkpt lat="39.97833" lon="-8.45518">
        <ele>298.15</ele>
        <time>2019-05-19T09:55:22Z</time>
      </trkpt>
      <trkpt lat="39.97839" lon="-8.45509">
        <ele>298.63</ele>
        <time>2019-05-19T09:55:34Z</time>
      </trkpt>
      <trkpt lat="39.9785" lon="-8.45503">
        <ele>297.18</ele>
        <time>2019-05-19T09:55:46Z</time>
      </trkpt>
      <trkpt lat="39.97849" lon="-8.45507">
        <ele>297.67</ele>
        <time>2019-05-19T09:55:57Z</time>
      </trkpt>
      <trkpt lat="39.97848" lon="-8.45508">
        <ele>298.15</ele>
        <time>2019-05-19T09:56:20Z</time>
      </trkpt>
      <trkpt lat="39.97848" lon="-8.45505">
        <ele>298.15</ele>
        <time>2019-05-19T09:56:40Z</time>
      </trkpt>
      <trkpt lat="39.97857" lon="-8.45501">
        <ele>297.67</ele>
        <time>2019-05-19T09:56:50Z</time>
      </trkpt>
      <trkpt lat="39.97858" lon="-8.455">
        <ele>298.15</ele>
        <time>2019-05-19T09:56:52Z</time>
      </trkpt>
      <trkpt lat="39.9786" lon="-8.45502">
        <ele>298.15</ele>
        <time>2019-05-19T09:57:02Z</time>
      </trkpt>
      <trkpt lat="39.9786" lon="-8.45506">
        <ele>297.67</ele>
        <time>2019-05-19T09:57:20Z</time>
      </trkpt>
      <trkpt lat="39.97854" lon="-8.45491">
        <ele>297.67</ele>
        <time>2019-05-19T09:57:44Z</time>
      </trkpt>
      <trkpt lat="39.97857" lon="-8.45475">
        <ele>297.67</ele>
        <time>2019-05-19T09:58:06Z</time>
      </trkpt>
      <trkpt lat="39.97858" lon="-8.45472">
        <ele>297.67</ele>
        <time>2019-05-19T09:58:37Z</time>
      </trkpt>
      <trkpt lat="39.97861" lon="-8.45479">
        <ele>297.67</ele>
        <time>2019-05-19T09:59:10Z</time>
      </trkpt>
      <trkpt lat="39.97862" lon="-8.4548">
        <ele>297.67</ele>
        <time>2019-05-19T09:59:14Z</time>
      </trkpt>
      <trkpt lat="39.97878" lon="-8.45512">
        <ele>297.67</ele>
        <time>2019-05-19T09:59:41Z</time>
      </trkpt>
      <trkpt lat="39.97898" lon="-8.45521">
        <ele>297.67</ele>
        <time>2019-05-19T10:00:03Z</time>
      </trkpt>
      <trkpt lat="39.979" lon="-8.45516">
        <ele>298.15</ele>
        <time>2019-05-19T10:00:07Z</time>
      </trkpt>
      <trkpt lat="39.97935" lon="-8.45481">
        <ele>297.18</ele>
        <time>2019-05-19T10:00:29Z</time>
      </trkpt>
      <trkpt lat="39.97865" lon="-8.45516">
        <ele>298.15</ele>
        <time>2019-05-19T10:03:09Z</time>
      </trkpt>
      <trkpt lat="39.9787" lon="-8.45511">
        <ele>298.63</ele>
        <time>2019-05-19T10:03:21Z</time>
      </trkpt>
      <trkpt lat="39.9787" lon="-8.45508">
        <ele>298.63</ele>
        <time>2019-05-19T10:03:34Z</time>
      </trkpt>
      <trkpt lat="39.97872" lon="-8.45507">
        <ele>298.15</ele>
        <time>2019-05-19T10:03:38Z</time>
      </trkpt>
      <trkpt lat="39.97873" lon="-8.45508">
        <ele>299.11</ele>
        <time>2019-05-19T10:03:49Z</time>
      </trkpt>
      <trkpt lat="39.9787" lon="-8.45515">
        <ele>297.67</ele>
        <time>2019-05-19T10:04:06Z</time>
      </trkpt>
      <trkpt lat="39.97873" lon="-8.45513">
        <ele>297.67</ele>
        <time>2019-05-19T10:04:23Z</time>
      </trkpt>
      <trkpt lat="39.97873" lon="-8.45509">
        <ele>298.63</ele>
        <time>2019-05-19T10:04:42Z</time>
      </trkpt>
      <trkpt lat="39.97873" lon="-8.45507">
        <ele>297.67</ele>
        <time>2019-05-19T10:05:04Z</time>
      </trkpt>
      <trkpt lat="39.97873" lon="-8.45511">
        <ele>298.63</ele>
        <time>2019-05-19T10:05:20Z</time>
      </trkpt>
      <trkpt lat="39.97872" lon="-8.45511">
        <ele>299.11</ele>
        <time>2019-05-19T10:05:33Z</time>
      </trkpt>
      <trkpt lat="39.97875" lon="-8.45509">
        <ele>299.11</ele>
        <time>2019-05-19T10:05:53Z</time>
      </trkpt>
      <trkpt lat="39.97875" lon="-8.45508">
        <ele>299.59</ele>
        <time>2019-05-19T10:06:07Z</time>
      </trkpt>
      <trkpt lat="39.97877" lon="-8.45509">
        <ele>298.63</ele>
        <time>2019-05-19T10:06:16Z</time>
      </trkpt>
      <trkpt lat="39.97889" lon="-8.45507">
        <ele>299.11</ele>
        <time>2019-05-19T10:06:29Z</time>
      </trkpt>
      <trkpt lat="39.97902" lon="-8.45501">
        <ele>299.59</ele>
        <time>2019-05-19T10:06:43Z</time>
      </trkpt>
      <trkpt lat="39.9791" lon="-8.455">
        <ele>299.11</ele>
        <time>2019-05-19T10:06:52Z</time>
      </trkpt>
      <trkpt lat="39.97922" lon="-8.455">
        <ele>298.63</ele>
        <time>2019-05-19T10:07:08Z</time>
      </trkpt>
      <trkpt lat="39.9793" lon="-8.45499">
        <ele>298.63</ele>
        <time>2019-05-19T10:07:16Z</time>
      </trkpt>
      <trkpt lat="39.97949" lon="-8.45489">
        <ele>297.18</ele>
        <time>2019-05-19T10:07:30Z</time>
      </trkpt>
      <trkpt lat="39.97965" lon="-8.45482">
        <ele>296.7</ele>
        <time>2019-05-19T10:07:46Z</time>
      </trkpt>
      <trkpt lat="39.97972" lon="-8.45483">
        <ele>297.18</ele>
        <time>2019-05-19T10:07:56Z</time>
      </trkpt>
      <trkpt lat="39.97975" lon="-8.45485">
        <ele>297.18</ele>
        <time>2019-05-19T10:08:02Z</time>
      </trkpt>
      <trkpt lat="39.97987" lon="-8.45487">
        <ele>297.67</ele>
        <time>2019-05-19T10:08:13Z</time>
      </trkpt>
      <trkpt lat="39.97999" lon="-8.45487">
        <ele>297.18</ele>
        <time>2019-05-19T10:08:25Z</time>
      </trkpt>
      <trkpt lat="39.98016" lon="-8.45488">
        <ele>297.18</ele>
        <time>2019-05-19T10:08:39Z</time>
      </trkpt>
      <trkpt lat="39.98024" lon="-8.4549">
        <ele>296.7</ele>
        <time>2019-05-19T10:08:49Z</time>
      </trkpt>
      <trkpt lat="39.98039" lon="-8.45492">
        <ele>296.22</ele>
        <time>2019-05-19T10:09:02Z</time>
      </trkpt>
      <trkpt lat="39.98057" lon="-8.45489">
        <ele>296.7</ele>
        <time>2019-05-19T10:09:15Z</time>
      </trkpt>
      <trkpt lat="39.98066" lon="-8.45482">
        <ele>296.7</ele>
        <time>2019-05-19T10:09:27Z</time>
      </trkpt>
      <trkpt lat="39.98079" lon="-8.45473">
        <ele>297.18</ele>
        <time>2019-05-19T10:09:41Z</time>
      </trkpt>
      <trkpt lat="39.98093" lon="-8.45462">
        <ele>296.7</ele>
        <time>2019-05-19T10:09:56Z</time>
      </trkpt>
      <trkpt lat="39.98106" lon="-8.45455">
        <ele>296.7</ele>
        <time>2019-05-19T10:10:09Z</time>
      </trkpt>
      <trkpt lat="39.98111" lon="-8.45453">
        <ele>297.18</ele>
        <time>2019-05-19T10:10:16Z</time>
      </trkpt>
      <trkpt lat="39.98122" lon="-8.45451">
        <ele>297.67</ele>
        <time>2019-05-19T10:10:30Z</time>
      </trkpt>
      <trkpt lat="39.98131" lon="-8.45443">
        <ele>297.67</ele>
        <time>2019-05-19T10:10:45Z</time>
      </trkpt>
      <trkpt lat="39.98132" lon="-8.45442">
        <ele>297.18</ele>
        <time>2019-05-19T10:10:46Z</time>
      </trkpt>
      <trkpt lat="39.98138" lon="-8.45437">
        <ele>297.67</ele>
        <time>2019-05-19T10:11:05Z</time>
      </trkpt>
      <trkpt lat="39.98133" lon="-8.45438">
        <ele>297.67</ele>
        <time>2019-05-19T10:11:21Z</time>
      </trkpt>
      <trkpt lat="39.98132" lon="-8.45443">
        <ele>297.67</ele>
        <time>2019-05-19T10:11:29Z</time>
      </trkpt>
      <trkpt lat="39.98138" lon="-8.45452">
        <ele>297.67</ele>
        <time>2019-05-19T10:11:41Z</time>
      </trkpt>
      <trkpt lat="39.9814" lon="-8.45451">
        <ele>297.18</ele>
        <time>2019-05-19T10:11:54Z</time>
      </trkpt>
      <trkpt lat="39.98142" lon="-8.45459">
        <ele>297.18</ele>
        <time>2019-05-19T10:12:21Z</time>
      </trkpt>
      <trkpt lat="39.98133" lon="-8.45461">
        <ele>297.18</ele>
        <time>2019-05-19T10:12:35Z</time>
      </trkpt>
      <trkpt lat="39.98133" lon="-8.45454">
        <ele>297.67</ele>
        <time>2019-05-19T10:12:54Z</time>
      </trkpt>
      <trkpt lat="39.98133" lon="-8.45453">
        <ele>297.18</ele>
        <time>2019-05-19T10:13:12Z</time>
      </trkpt>
      <trkpt lat="39.9813" lon="-8.45451">
        <ele>297.18</ele>
        <time>2019-05-19T10:13:30Z</time>
      </trkpt>
      <trkpt lat="39.98126" lon="-8.45433">
        <ele>296.22</ele>
        <time>2019-05-19T10:13:44Z</time>
      </trkpt>
      <trkpt lat="39.98125" lon="-8.45428">
        <ele>296.22</ele>
        <time>2019-05-19T10:13:48Z</time>
      </trkpt>
      <trkpt lat="39.98125" lon="-8.45418">
        <ele>296.7</ele>
        <time>2019-05-19T10:14:03Z</time>
      </trkpt>
      <trkpt lat="39.98124" lon="-8.45419">
        <ele>296.7</ele>
        <time>2019-05-19T10:14:05Z</time>
      </trkpt>
      <trkpt lat="39.98114" lon="-8.45417">
        <ele>295.74</ele>
        <time>2019-05-19T10:14:19Z</time>
      </trkpt>
      <trkpt lat="39.98113" lon="-8.45417">
        <ele>295.74</ele>
        <time>2019-05-19T10:14:20Z</time>
      </trkpt>
      <trkpt lat="39.981" lon="-8.45414">
        <ele>292.86</ele>
        <time>2019-05-19T10:14:34Z</time>
      </trkpt>
      <trkpt lat="39.98095" lon="-8.45409">
        <ele>292.38</ele>
        <time>2019-05-19T10:14:47Z</time>
      </trkpt>
      <trkpt lat="39.98085" lon="-8.45409">
        <ele>291.9</ele>
        <time>2019-05-19T10:15:06Z</time>
      </trkpt>
      <trkpt lat="39.98077" lon="-8.45405">
        <ele>289.97</ele>
        <time>2019-05-19T10:15:13Z</time>
      </trkpt>
      <trkpt lat="39.98075" lon="-8.45405">
        <ele>289.97</ele>
        <time>2019-05-19T10:15:16Z</time>
      </trkpt>
      <trkpt lat="39.98058" lon="-8.45399">
        <ele>287.57</ele>
        <time>2019-05-19T10:15:31Z</time>
      </trkpt>
      <trkpt lat="39.98048" lon="-8.4539">
        <ele>286.61</ele>
        <time>2019-05-19T10:15:44Z</time>
      </trkpt>
      <trkpt lat="39.98044" lon="-8.45381">
        <ele>284.69</ele>
        <time>2019-05-19T10:15:55Z</time>
      </trkpt>
      <trkpt lat="39.98044" lon="-8.45375">
        <ele>282.77</ele>
        <time>2019-05-19T10:15:59Z</time>
      </trkpt>
      <trkpt lat="39.98052" lon="-8.45357">
        <ele>279.88</ele>
        <time>2019-05-19T10:16:14Z</time>
      </trkpt>
      <trkpt lat="39.9806" lon="-8.45342">
        <ele>277</ele>
        <time>2019-05-19T10:16:25Z</time>
      </trkpt>
      <trkpt lat="39.9807" lon="-8.45328">
        <ele>275.56</ele>
        <time>2019-05-19T10:16:39Z</time>
      </trkpt>
      <trkpt lat="39.98077" lon="-8.45322">
        <ele>272.67</ele>
        <time>2019-05-19T10:16:46Z</time>
      </trkpt>
      <trkpt lat="39.98084" lon="-8.45313">
        <ele>271.71</ele>
        <time>2019-05-19T10:16:55Z</time>
      </trkpt>
      <trkpt lat="39.9809" lon="-8.45309">
        <ele>270.75</ele>
        <time>2019-05-19T10:17:00Z</time>
      </trkpt>
      <trkpt lat="39.9811" lon="-8.45294">
        <ele>266.9</ele>
        <time>2019-05-19T10:17:17Z</time>
      </trkpt>
      <trkpt lat="39.98124" lon="-8.45285">
        <ele>264.02</ele>
        <time>2019-05-19T10:17:29Z</time>
      </trkpt>
      <trkpt lat="39.98126" lon="-8.45285">
        <ele>263.54</ele>
        <time>2019-05-19T10:17:42Z</time>
      </trkpt>
      <trkpt lat="39.9813" lon="-8.45287">
        <ele>263.06</ele>
        <time>2019-05-19T10:18:15Z</time>
      </trkpt>
      <trkpt lat="39.98132" lon="-8.45288">
        <ele>262.58</ele>
        <time>2019-05-19T10:18:53Z</time>
      </trkpt>
      <trkpt lat="39.9813" lon="-8.45287">
        <ele>263.54</ele>
        <time>2019-05-19T10:19:23Z</time>
      </trkpt>
      <trkpt lat="39.98129" lon="-8.45288">
        <ele>263.06</ele>
        <time>2019-05-19T10:19:59Z</time>
      </trkpt>
      <trkpt lat="39.98127" lon="-8.45286">
        <ele>264.02</ele>
        <time>2019-05-19T10:20:28Z</time>
      </trkpt>
      <trkpt lat="39.98126" lon="-8.45284">
        <ele>264.5</ele>
        <time>2019-05-19T10:20:39Z</time>
      </trkpt>
      <trkpt lat="39.98118" lon="-8.4529">
        <ele>265.46</ele>
        <time>2019-05-19T10:20:56Z</time>
      </trkpt>
      <trkpt lat="39.98111" lon="-8.45297">
        <ele>267.38</ele>
        <time>2019-05-19T10:21:09Z</time>
      </trkpt>
      <trkpt lat="39.98105" lon="-8.45299">
        <ele>267.86</ele>
        <time>2019-05-19T10:21:30Z</time>
      </trkpt>
      <trkpt lat="39.98097" lon="-8.45307">
        <ele>268.83</ele>
        <time>2019-05-19T10:21:41Z</time>
      </trkpt>
      <trkpt lat="39.98089" lon="-8.45314">
        <ele>271.23</ele>
        <time>2019-05-19T10:21:53Z</time>
      </trkpt>
      <trkpt lat="39.98087" lon="-8.45322">
        <ele>272.19</ele>
        <time>2019-05-19T10:22:12Z</time>
      </trkpt>
      <trkpt lat="39.9808" lon="-8.45329">
        <ele>274.11</ele>
        <time>2019-05-19T10:22:23Z</time>
      </trkpt>
      <trkpt lat="39.98071" lon="-8.45337">
        <ele>276.04</ele>
        <time>2019-05-19T10:22:37Z</time>
      </trkpt>
      <trkpt lat="39.98062" lon="-8.4535">
        <ele>277.96</ele>
        <time>2019-05-19T10:22:52Z</time>
      </trkpt>
      <trkpt lat="39.98054" lon="-8.45366">
        <ele>279.88</ele>
        <time>2019-05-19T10:23:11Z</time>
      </trkpt>
      <trkpt lat="39.98049" lon="-8.45377">
        <ele>283.25</ele>
        <time>2019-05-19T10:23:25Z</time>
      </trkpt>
      <trkpt lat="39.98042" lon="-8.45384">
        <ele>284.21</ele>
        <time>2019-05-19T10:23:39Z</time>
      </trkpt>
      <trkpt lat="39.98043" lon="-8.45387">
        <ele>284.69</ele>
        <time>2019-05-19T10:23:54Z</time>
      </trkpt>
      <trkpt lat="39.98046" lon="-8.45388">
        <ele>284.69</ele>
        <time>2019-05-19T10:24:19Z</time>
      </trkpt>
      <trkpt lat="39.98048" lon="-8.4539">
        <ele>285.17</ele>
        <time>2019-05-19T10:24:35Z</time>
      </trkpt>
      <trkpt lat="39.98048" lon="-8.45391">
        <ele>285.17</ele>
        <time>2019-05-19T10:24:56Z</time>
      </trkpt>
      <trkpt lat="39.98052" lon="-8.45392">
        <ele>284.69</ele>
        <time>2019-05-19T10:25:14Z</time>
      </trkpt>
      <trkpt lat="39.9805" lon="-8.4539">
        <ele>285.17</ele>
        <time>2019-05-19T10:25:33Z</time>
      </trkpt>
      <trkpt lat="39.98047" lon="-8.45391">
        <ele>285.17</ele>
        <time>2019-05-19T10:25:59Z</time>
      </trkpt>
      <trkpt lat="39.98047" lon="-8.45392">
        <ele>285.65</ele>
        <time>2019-05-19T10:26:17Z</time>
      </trkpt>
      <trkpt lat="39.98049" lon="-8.45392">
        <ele>285.17</ele>
        <time>2019-05-19T10:26:40Z</time>
      </trkpt>
      <trkpt lat="39.98052" lon="-8.45391">
        <ele>284.69</ele>
        <time>2019-05-19T10:27:05Z</time>
      </trkpt>
      <trkpt lat="39.98056" lon="-8.45398">
        <ele>286.13</ele>
        <time>2019-05-19T10:27:24Z</time>
      </trkpt>
      <trkpt lat="39.98058" lon="-8.45399">
        <ele>287.09</ele>
        <time>2019-05-19T10:27:26Z</time>
      </trkpt>
      <trkpt lat="39.98075" lon="-8.45403">
        <ele>289.01</ele>
        <time>2019-05-19T10:27:43Z</time>
      </trkpt>
      <trkpt lat="39.98086" lon="-8.45405">
        <ele>290.46</ele>
        <time>2019-05-19T10:27:54Z</time>
      </trkpt>
      <trkpt lat="39.98099" lon="-8.45412">
        <ele>291.9</ele>
        <time>2019-05-19T10:28:09Z</time>
      </trkpt>
      <trkpt lat="39.98113" lon="-8.45416">
        <ele>294.78</ele>
        <time>2019-05-19T10:28:23Z</time>
      </trkpt>
      <trkpt lat="39.9812" lon="-8.45418">
        <ele>295.74</ele>
        <time>2019-05-19T10:28:34Z</time>
      </trkpt>
      <trkpt lat="39.98127" lon="-8.45434">
        <ele>295.26</ele>
        <time>2019-05-19T10:28:43Z</time>
      </trkpt>
      <trkpt lat="39.98127" lon="-8.4545">
        <ele>295.74</ele>
        <time>2019-05-19T10:28:57Z</time>
      </trkpt>
      <trkpt lat="39.98135" lon="-8.45459">
        <ele>295.74</ele>
        <time>2019-05-19T10:29:09Z</time>
      </trkpt>
      <trkpt lat="39.98136" lon="-8.45459">
        <ele>295.26</ele>
        <time>2019-05-19T10:29:12Z</time>
      </trkpt>
      <trkpt lat="39.98149" lon="-8.45461">
        <ele>294.78</ele>
        <time>2019-05-19T10:29:28Z</time>
      </trkpt>
      <trkpt lat="39.98152" lon="-8.4546">
        <ele>294.3</ele>
        <time>2019-05-19T10:29:31Z</time>
      </trkpt>
      <trkpt lat="39.98172" lon="-8.45454">
        <ele>292.86</ele>
        <time>2019-05-19T10:29:47Z</time>
      </trkpt>
      <trkpt lat="39.98179" lon="-8.4545">
        <ele>292.86</ele>
        <time>2019-05-19T10:29:54Z</time>
      </trkpt>
      <trkpt lat="39.98186" lon="-8.45455">
        <ele>292.86</ele>
        <time>2019-05-19T10:30:05Z</time>
      </trkpt>
      <trkpt lat="39.98187" lon="-8.45457">
        <ele>291.9</ele>
        <time>2019-05-19T10:30:17Z</time>
      </trkpt>
      <trkpt lat="39.98187" lon="-8.45458">
        <ele>292.86</ele>
        <time>2019-05-19T10:30:36Z</time>
      </trkpt>
      <trkpt lat="39.98187" lon="-8.45458">
        <ele>292.38</ele>
        <time>2019-05-19T10:30:45Z</time>
      </trkpt>
      <trkpt lat="39.98192" lon="-8.45489">
        <ele>289.49</ele>
        <time>2019-05-19T10:31:04Z</time>
      </trkpt>
      <trkpt lat="39.98198" lon="-8.45509">
        <ele>288.05</ele>
        <time>2019-05-19T10:31:17Z</time>
      </trkpt>
      <trkpt lat="39.98204" lon="-8.4553">
        <ele>287.57</ele>
        <time>2019-05-19T10:31:30Z</time>
      </trkpt>
      <trkpt lat="39.98208" lon="-8.45534">
        <ele>287.57</ele>
        <time>2019-05-19T10:31:37Z</time>
      </trkpt>
      <trkpt lat="39.9821" lon="-8.4553">
        <ele>287.09</ele>
        <time>2019-05-19T10:31:40Z</time>
      </trkpt>
      <trkpt lat="39.98214" lon="-8.45517">
        <ele>284.69</ele>
        <time>2019-05-19T10:31:49Z</time>
      </trkpt>
      <trkpt lat="39.98215" lon="-8.45514">
        <ele>284.69</ele>
        <time>2019-05-19T10:31:51Z</time>
      </trkpt>
      <trkpt lat="39.98218" lon="-8.45499">
        <ele>282.77</ele>
        <time>2019-05-19T10:32:06Z</time>
      </trkpt>
      <trkpt lat="39.98221" lon="-8.45486">
        <ele>279.4</ele>
        <time>2019-05-19T10:32:16Z</time>
      </trkpt>
      <trkpt lat="39.98224" lon="-8.45481">
        <ele>278.44</ele>
        <time>2019-05-19T10:32:20Z</time>
      </trkpt>
      <trkpt lat="39.9823" lon="-8.45468">
        <ele>277</ele>
        <time>2019-05-19T10:32:29Z</time>
      </trkpt>
      <trkpt lat="39.98231" lon="-8.45451">
        <ele>275.56</ele>
        <time>2019-05-19T10:32:41Z</time>
      </trkpt>
      <trkpt lat="39.98231" lon="-8.4545">
        <ele>275.56</ele>
        <time>2019-05-19T10:32:42Z</time>
      </trkpt>
      <trkpt lat="39.98228" lon="-8.45433">
        <ele>272.67</ele>
        <time>2019-05-19T10:32:55Z</time>
      </trkpt>
      <trkpt lat="39.98222" lon="-8.45416">
        <ele>270.27</ele>
        <time>2019-05-19T10:33:08Z</time>
      </trkpt>
      <trkpt lat="39.98221" lon="-8.45406">
        <ele>269.79</ele>
        <time>2019-05-19T10:33:20Z</time>
      </trkpt>
      <trkpt lat="39.98222" lon="-8.45407">
        <ele>269.31</ele>
        <time>2019-05-19T10:33:49Z</time>
      </trkpt>
      <trkpt lat="39.98218" lon="-8.45406">
        <ele>268.83</ele>
        <time>2019-05-19T10:34:19Z</time>
      </trkpt>
      <trkpt lat="39.98207" lon="-8.45387">
        <ele>265.94</ele>
        <time>2019-05-19T10:34:34Z</time>
      </trkpt>
      <trkpt lat="39.98198" lon="-8.45374">
        <ele>264.02</ele>
        <time>2019-05-19T10:34:46Z</time>
      </trkpt>
      <trkpt lat="39.98187" lon="-8.45358">
        <ele>260.65</ele>
        <time>2019-05-19T10:35:00Z</time>
      </trkpt>
      <trkpt lat="39.98177" lon="-8.45339">
        <ele>257.77</ele>
        <time>2019-05-19T10:35:13Z</time>
      </trkpt>
      <trkpt lat="39.98171" lon="-8.45326">
        <ele>255.37</ele>
        <time>2019-05-19T10:35:22Z</time>
      </trkpt>
      <trkpt lat="39.98162" lon="-8.45303">
        <ele>255.85</ele>
        <time>2019-05-19T10:35:35Z</time>
      </trkpt>
      <trkpt lat="39.98163" lon="-8.45296">
        <ele>256.33</ele>
        <time>2019-05-19T10:35:46Z</time>
      </trkpt>
      <trkpt lat="39.98171" lon="-8.45295">
        <ele>252</ele>
        <time>2019-05-19T10:35:56Z</time>
      </trkpt>
      <trkpt lat="39.98173" lon="-8.45295">
        <ele>252</ele>
        <time>2019-05-19T10:35:59Z</time>
      </trkpt>
      <trkpt lat="39.98183" lon="-8.45295">
        <ele>250.08</ele>
        <time>2019-05-19T10:36:09Z</time>
      </trkpt>
      <trkpt lat="39.98186" lon="-8.45295">
        <ele>250.08</ele>
        <time>2019-05-19T10:36:12Z</time>
      </trkpt>
      <trkpt lat="39.98199" lon="-8.45288">
        <ele>246.23</ele>
        <time>2019-05-19T10:36:25Z</time>
      </trkpt>
      <trkpt lat="39.98209" lon="-8.45283">
        <ele>245.27</ele>
        <time>2019-05-19T10:36:35Z</time>
      </trkpt>
      <trkpt lat="39.98211" lon="-8.4528">
        <ele>244.79</ele>
        <time>2019-05-19T10:36:38Z</time>
      </trkpt>
      <trkpt lat="39.98217" lon="-8.45275">
        <ele>243.35</ele>
        <time>2019-05-19T10:36:44Z</time>
      </trkpt>
      <trkpt lat="39.9822" lon="-8.45267">
        <ele>242.87</ele>
        <time>2019-05-19T10:36:50Z</time>
      </trkpt>
      <trkpt lat="39.98222" lon="-8.45261">
        <ele>242.87</ele>
        <time>2019-05-19T10:37:03Z</time>
      </trkpt>
      <trkpt lat="39.98232" lon="-8.45239">
        <ele>240.95</ele>
        <time>2019-05-19T10:37:18Z</time>
      </trkpt>
      <trkpt lat="39.98232" lon="-8.45237">
        <ele>241.43</ele>
        <time>2019-05-19T10:37:19Z</time>
      </trkpt>
      <trkpt lat="39.98238" lon="-8.45233">
        <ele>241.43</ele>
        <time>2019-05-19T10:37:25Z</time>
      </trkpt>
      <trkpt lat="39.98247" lon="-8.45227">
        <ele>241.43</ele>
        <time>2019-05-19T10:37:33Z</time>
      </trkpt>
      <trkpt lat="39.98257" lon="-8.45211">
        <ele>241.91</ele>
        <time>2019-05-19T10:37:46Z</time>
      </trkpt>
      <trkpt lat="39.98263" lon="-8.45192">
        <ele>242.87</ele>
        <time>2019-05-19T10:38:01Z</time>
      </trkpt>
      <trkpt lat="39.9827" lon="-8.45174">
        <ele>244.79</ele>
        <time>2019-05-19T10:38:17Z</time>
      </trkpt>
      <trkpt lat="39.98279" lon="-8.45163">
        <ele>245.27</ele>
        <time>2019-05-19T10:38:30Z</time>
      </trkpt>
      <trkpt lat="39.98286" lon="-8.45155">
        <ele>246.72</ele>
        <time>2019-05-19T10:38:41Z</time>
      </trkpt>
      <trkpt lat="39.98298" lon="-8.45146">
        <ele>249.12</ele>
        <time>2019-05-19T10:38:55Z</time>
      </trkpt>
      <trkpt lat="39.98304" lon="-8.45143">
        <ele>250.08</ele>
        <time>2019-05-19T10:39:06Z</time>
      </trkpt>
      <trkpt lat="39.98314" lon="-8.45131">
        <ele>251.52</ele>
        <time>2019-05-19T10:39:20Z</time>
      </trkpt>
      <trkpt lat="39.98318" lon="-8.45126">
        <ele>252.48</ele>
        <time>2019-05-19T10:39:27Z</time>
      </trkpt>
      <trkpt lat="39.9832" lon="-8.45124">
        <ele>252</ele>
        <time>2019-05-19T10:39:29Z</time>
      </trkpt>
      <trkpt lat="39.98327" lon="-8.45114">
        <ele>252.48</ele>
        <time>2019-05-19T10:39:41Z</time>
      </trkpt>
      <trkpt lat="39.98332" lon="-8.45107">
        <ele>253.93</ele>
        <time>2019-05-19T10:39:49Z</time>
      </trkpt>
      <trkpt lat="39.98341" lon="-8.45097">
        <ele>254.41</ele>
        <time>2019-05-19T10:40:00Z</time>
      </trkpt>
      <trkpt lat="39.98348" lon="-8.45095">
        <ele>254.41</ele>
        <time>2019-05-19T10:40:07Z</time>
      </trkpt>
      <trkpt lat="39.98351" lon="-8.45093">
        <ele>254.89</ele>
        <time>2019-05-19T10:40:10Z</time>
      </trkpt>
      <trkpt lat="39.98358" lon="-8.45091">
        <ele>255.37</ele>
        <time>2019-05-19T10:40:17Z</time>
      </trkpt>
      <trkpt lat="39.9837" lon="-8.45087">
        <ele>256.81</ele>
        <time>2019-05-19T10:40:32Z</time>
      </trkpt>
      <trkpt lat="39.98374" lon="-8.45084">
        <ele>257.77</ele>
        <time>2019-05-19T10:40:38Z</time>
      </trkpt>
      <trkpt lat="39.98383" lon="-8.45073">
        <ele>258.73</ele>
        <time>2019-05-19T10:40:49Z</time>
      </trkpt>
      <trkpt lat="39.98384" lon="-8.45049">
        <ele>257.29</ele>
        <time>2019-05-19T10:41:05Z</time>
      </trkpt>
      <trkpt lat="39.98383" lon="-8.45026">
        <ele>256.81</ele>
        <time>2019-05-19T10:41:20Z</time>
      </trkpt>
      <trkpt lat="39.98381" lon="-8.45001">
        <ele>254.89</ele>
        <time>2019-05-19T10:41:34Z</time>
      </trkpt>
      <trkpt lat="39.98382" lon="-8.44972">
        <ele>253.44</ele>
        <time>2019-05-19T10:41:50Z</time>
      </trkpt>
      <trkpt lat="39.98384" lon="-8.44946">
        <ele>252.48</ele>
        <time>2019-05-19T10:42:05Z</time>
      </trkpt>
      <trkpt lat="39.98388" lon="-8.44918">
        <ele>250.08</ele>
        <time>2019-05-19T10:42:22Z</time>
      </trkpt>
      <trkpt lat="39.98396" lon="-8.44899">
        <ele>247.2</ele>
        <time>2019-05-19T10:42:36Z</time>
      </trkpt>
      <trkpt lat="39.98412" lon="-8.44891">
        <ele>243.83</ele>
        <time>2019-05-19T10:42:49Z</time>
      </trkpt>
      <trkpt lat="39.98431" lon="-8.44888">
        <ele>241.91</ele>
        <time>2019-05-19T10:43:03Z</time>
      </trkpt>
      <trkpt lat="39.98448" lon="-8.44882">
        <ele>240.47</ele>
        <time>2019-05-19T10:43:16Z</time>
      </trkpt>
      <trkpt lat="39.98449" lon="-8.4488">
        <ele>240.95</ele>
        <time>2019-05-19T10:43:30Z</time>
      </trkpt>
      <trkpt lat="39.98448" lon="-8.4488">
        <ele>240.47</ele>
        <time>2019-05-19T10:43:51Z</time>
      </trkpt>
      <trkpt lat="39.9845" lon="-8.44883">
        <ele>240.47</ele>
        <time>2019-05-19T10:44:20Z</time>
      </trkpt>
      <trkpt lat="39.98448" lon="-8.44881">
        <ele>240.47</ele>
        <time>2019-05-19T10:44:48Z</time>
      </trkpt>
      <trkpt lat="39.98446" lon="-8.44881">
        <ele>240.95</ele>
        <time>2019-05-19T10:45:18Z</time>
      </trkpt>
      <trkpt lat="39.98448" lon="-8.44881">
        <ele>240.47</ele>
        <time>2019-05-19T10:45:42Z</time>
      </trkpt>
      <trkpt lat="39.98462" lon="-8.44875">
        <ele>239.51</ele>
        <time>2019-05-19T10:45:55Z</time>
      </trkpt>
      <trkpt lat="39.98477" lon="-8.44861">
        <ele>237.1</ele>
        <time>2019-05-19T10:46:10Z</time>
      </trkpt>
      <trkpt lat="39.98489" lon="-8.44841">
        <ele>234.22</ele>
        <time>2019-05-19T10:46:26Z</time>
      </trkpt>
      <trkpt lat="39.98495" lon="-8.44816">
        <ele>230.85</ele>
        <time>2019-05-19T10:46:42Z</time>
      </trkpt>
      <trkpt lat="39.98496" lon="-8.44789">
        <ele>227.97</ele>
        <time>2019-05-19T10:46:58Z</time>
      </trkpt>
      <trkpt lat="39.98496" lon="-8.44787">
        <ele>227.97</ele>
        <time>2019-05-19T10:46:59Z</time>
      </trkpt>
      <trkpt lat="39.98509" lon="-8.44781">
        <ele>227.49</ele>
        <time>2019-05-19T10:47:10Z</time>
      </trkpt>
      <trkpt lat="39.98527" lon="-8.44772">
        <ele>227.49</ele>
        <time>2019-05-19T10:47:25Z</time>
      </trkpt>
      <trkpt lat="39.98542" lon="-8.44765">
        <ele>227.01</ele>
        <time>2019-05-19T10:47:38Z</time>
      </trkpt>
      <trkpt lat="39.98548" lon="-8.44761">
        <ele>227.49</ele>
        <time>2019-05-19T10:47:43Z</time>
      </trkpt>
      <trkpt lat="39.98553" lon="-8.4476">
        <ele>227.49</ele>
        <time>2019-05-19T10:47:57Z</time>
      </trkpt>
      <trkpt lat="39.98553" lon="-8.44758">
        <ele>227.01</ele>
        <time>2019-05-19T10:48:00Z</time>
      </trkpt>
      <trkpt lat="39.98569" lon="-8.44745">
        <ele>224.61</ele>
        <time>2019-05-19T10:48:16Z</time>
      </trkpt>
      <trkpt lat="39.98588" lon="-8.44733">
        <ele>223.64</ele>
        <time>2019-05-19T10:48:33Z</time>
      </trkpt>
      <trkpt lat="39.98592" lon="-8.44709">
        <ele>224.12</ele>
        <time>2019-05-19T10:48:49Z</time>
      </trkpt>
      <trkpt lat="39.98594" lon="-8.44699">
        <ele>223.64</ele>
        <time>2019-05-19T10:48:55Z</time>
      </trkpt>
      <trkpt lat="39.98594" lon="-8.44694">
        <ele>223.16</ele>
        <time>2019-05-19T10:48:58Z</time>
      </trkpt>
      <trkpt lat="39.98598" lon="-8.44665">
        <ele>222.68</ele>
        <time>2019-05-19T10:49:15Z</time>
      </trkpt>
      <trkpt lat="39.98603" lon="-8.44646">
        <ele>221.72</ele>
        <time>2019-05-19T10:49:27Z</time>
      </trkpt>
      <trkpt lat="39.98606" lon="-8.44642">
        <ele>221.24</ele>
        <time>2019-05-19T10:49:30Z</time>
      </trkpt>
      <trkpt lat="39.98612" lon="-8.44643">
        <ele>220.76</ele>
        <time>2019-05-19T10:49:37Z</time>
      </trkpt>
      <trkpt lat="39.98628" lon="-8.44648">
        <ele>220.28</ele>
        <time>2019-05-19T10:49:54Z</time>
      </trkpt>
      <trkpt lat="39.9863" lon="-8.44648">
        <ele>221.24</ele>
        <time>2019-05-19T10:49:56Z</time>
      </trkpt>
      <trkpt lat="39.98632" lon="-8.44646">
        <ele>221.72</ele>
        <time>2019-05-19T10:49:58Z</time>
      </trkpt>
      <trkpt lat="39.98648" lon="-8.44638">
        <ele>221.72</ele>
        <time>2019-05-19T10:50:15Z</time>
      </trkpt>
      <trkpt lat="39.98662" lon="-8.44632">
        <ele>222.2</ele>
        <time>2019-05-19T10:50:28Z</time>
      </trkpt>
      <trkpt lat="39.98677" lon="-8.44629">
        <ele>222.68</ele>
        <time>2019-05-19T10:50:40Z</time>
      </trkpt>
      <trkpt lat="39.98693" lon="-8.44626">
        <ele>223.64</ele>
        <time>2019-05-19T10:50:56Z</time>
      </trkpt>
      <trkpt lat="39.98712" lon="-8.44621">
        <ele>222.68</ele>
        <time>2019-05-19T10:51:11Z</time>
      </trkpt>
      <trkpt lat="39.98718" lon="-8.44616">
        <ele>222.2</ele>
        <time>2019-05-19T10:51:18Z</time>
      </trkpt>
      <trkpt lat="39.98734" lon="-8.446">
        <ele>220.28</ele>
        <time>2019-05-19T10:51:32Z</time>
      </trkpt>
      <trkpt lat="39.98746" lon="-8.44576">
        <ele>220.28</ele>
        <time>2019-05-19T10:51:49Z</time>
      </trkpt>
      <trkpt lat="39.98757" lon="-8.44558">
        <ele>219.32</ele>
        <time>2019-05-19T10:52:04Z</time>
      </trkpt>
      <trkpt lat="39.98764" lon="-8.44548">
        <ele>220.28</ele>
        <time>2019-05-19T10:52:14Z</time>
      </trkpt>
      <trkpt lat="39.98777" lon="-8.44535">
        <ele>220.76</ele>
        <time>2019-05-19T10:52:29Z</time>
      </trkpt>
      <trkpt lat="39.98788" lon="-8.44526">
        <ele>222.2</ele>
        <time>2019-05-19T10:52:42Z</time>
      </trkpt>
      <trkpt lat="39.988" lon="-8.44519">
        <ele>225.09</ele>
        <time>2019-05-19T10:52:59Z</time>
      </trkpt>
      <trkpt lat="39.98804" lon="-8.44517">
        <ele>226.05</ele>
        <time>2019-05-19T10:53:15Z</time>
      </trkpt>
      <trkpt lat="39.98804" lon="-8.44518">
        <ele>225.57</ele>
        <time>2019-05-19T10:53:36Z</time>
      </trkpt>
      <trkpt lat="39.98804" lon="-8.44516">
        <ele>225.57</ele>
        <time>2019-05-19T10:53:54Z</time>
      </trkpt>
      <trkpt lat="39.98808" lon="-8.44513">
        <ele>226.05</ele>
        <time>2019-05-19T10:54:09Z</time>
      </trkpt>
      <trkpt lat="39.98811" lon="-8.44511">
        <ele>226.05</ele>
        <time>2019-05-19T10:54:13Z</time>
      </trkpt>
      <trkpt lat="39.98821" lon="-8.44498">
        <ele>227.49</ele>
        <time>2019-05-19T10:54:26Z</time>
      </trkpt>
      <trkpt lat="39.9884" lon="-8.44487">
        <ele>226.53</ele>
        <time>2019-05-19T10:54:42Z</time>
      </trkpt>
      <trkpt lat="39.98856" lon="-8.4448">
        <ele>224.12</ele>
        <time>2019-05-19T10:54:56Z</time>
      </trkpt>
      <trkpt lat="39.98874" lon="-8.4447">
        <ele>225.09</ele>
        <time>2019-05-19T10:55:12Z</time>
      </trkpt>
      <trkpt lat="39.98895" lon="-8.44462">
        <ele>224.61</ele>
        <time>2019-05-19T10:55:29Z</time>
      </trkpt>
      <trkpt lat="39.989" lon="-8.44463">
        <ele>223.64</ele>
        <time>2019-05-19T10:55:33Z</time>
      </trkpt>
      <trkpt lat="39.9891" lon="-8.44461">
        <ele>223.64</ele>
        <time>2019-05-19T10:55:42Z</time>
      </trkpt>
      <trkpt lat="39.9893" lon="-8.44449">
        <ele>222.68</ele>
        <time>2019-05-19T10:55:58Z</time>
      </trkpt>
      <trkpt lat="39.98943" lon="-8.4444">
        <ele>221.24</ele>
        <time>2019-05-19T10:56:11Z</time>
      </trkpt>
      <trkpt lat="39.98961" lon="-8.44438">
        <ele>219.8</ele>
        <time>2019-05-19T10:56:25Z</time>
      </trkpt>
      <trkpt lat="39.98977" lon="-8.4443">
        <ele>219.32</ele>
        <time>2019-05-19T10:56:39Z</time>
      </trkpt>
      <trkpt lat="39.98985" lon="-8.44427">
        <ele>218.36</ele>
        <time>2019-05-19T10:56:46Z</time>
      </trkpt>
      <trkpt lat="39.99004" lon="-8.44426">
        <ele>217.88</ele>
        <time>2019-05-19T10:57:01Z</time>
      </trkpt>
      <trkpt lat="39.99021" lon="-8.44424">
        <ele>218.36</ele>
        <time>2019-05-19T10:57:14Z</time>
      </trkpt>
      <trkpt lat="39.99038" lon="-8.44414">
        <ele>218.36</ele>
        <time>2019-05-19T10:57:30Z</time>
      </trkpt>
      <trkpt lat="39.99052" lon="-8.44402">
        <ele>219.32</ele>
        <time>2019-05-19T10:57:44Z</time>
      </trkpt>
      <trkpt lat="39.99067" lon="-8.44385">
        <ele>219.8</ele>
        <time>2019-05-19T10:58:00Z</time>
      </trkpt>
      <trkpt lat="39.99077" lon="-8.44378">
        <ele>220.28</ele>
        <time>2019-05-19T10:58:09Z</time>
      </trkpt>
      <trkpt lat="39.9909" lon="-8.4437">
        <ele>219.8</ele>
        <time>2019-05-19T10:58:22Z</time>
      </trkpt>
      <trkpt lat="39.99102" lon="-8.44359">
        <ele>220.28</ele>
        <time>2019-05-19T10:58:35Z</time>
      </trkpt>
      <trkpt lat="39.99118" lon="-8.44348">
        <ele>220.76</ele>
        <time>2019-05-19T10:58:50Z</time>
      </trkpt>
      <trkpt lat="39.99132" lon="-8.44339">
        <ele>221.24</ele>
        <time>2019-05-19T10:59:04Z</time>
      </trkpt>
      <trkpt lat="39.99146" lon="-8.44325">
        <ele>222.2</ele>
        <time>2019-05-19T10:59:20Z</time>
      </trkpt>
      <trkpt lat="39.99162" lon="-8.44313">
        <ele>222.2</ele>
        <time>2019-05-19T10:59:35Z</time>
      </trkpt>
      <trkpt lat="39.99172" lon="-8.44304">
        <ele>223.64</ele>
        <time>2019-05-19T10:59:47Z</time>
      </trkpt>
      <trkpt lat="39.99184" lon="-8.44295">
        <ele>225.09</ele>
        <time>2019-05-19T11:00:00Z</time>
      </trkpt>
      <trkpt lat="39.99194" lon="-8.44286">
        <ele>226.05</ele>
        <time>2019-05-19T11:00:12Z</time>
      </trkpt>
      <trkpt lat="39.99203" lon="-8.44279">
        <ele>226.53</ele>
        <time>2019-05-19T11:00:28Z</time>
      </trkpt>
      <trkpt lat="39.99206" lon="-8.44277">
        <ele>226.53</ele>
        <time>2019-05-19T11:00:38Z</time>
      </trkpt>
      <trkpt lat="39.99211" lon="-8.44269">
        <ele>227.01</ele>
        <time>2019-05-19T11:00:45Z</time>
      </trkpt>
      <trkpt lat="39.99227" lon="-8.44254">
        <ele>226.05</ele>
        <time>2019-05-19T11:01:01Z</time>
      </trkpt>
      <trkpt lat="39.9924" lon="-8.44242">
        <ele>226.53</ele>
        <time>2019-05-19T11:01:16Z</time>
      </trkpt>
      <trkpt lat="39.99249" lon="-8.44233">
        <ele>227.97</ele>
        <time>2019-05-19T11:01:28Z</time>
      </trkpt>
      <trkpt lat="39.99257" lon="-8.44224">
        <ele>228.93</ele>
        <time>2019-05-19T11:01:41Z</time>
      </trkpt>
      <trkpt lat="39.99266" lon="-8.4422">
        <ele>232.3</ele>
        <time>2019-05-19T11:01:50Z</time>
      </trkpt>
      <trkpt lat="39.99279" lon="-8.44218">
        <ele>232.78</ele>
        <time>2019-05-19T11:02:05Z</time>
      </trkpt>
      <trkpt lat="39.99286" lon="-8.44217">
        <ele>233.74</ele>
        <time>2019-05-19T11:02:19Z</time>
      </trkpt>
      <trkpt lat="39.99296" lon="-8.44214">
        <ele>236.14</ele>
        <time>2019-05-19T11:02:33Z</time>
      </trkpt>
      <trkpt lat="39.99307" lon="-8.44208">
        <ele>237.58</ele>
        <time>2019-05-19T11:02:49Z</time>
      </trkpt>
      <trkpt lat="39.99318" lon="-8.44203">
        <ele>240.47</ele>
        <time>2019-05-19T11:03:05Z</time>
      </trkpt>
      <trkpt lat="39.99324" lon="-8.44202">
        <ele>239.51</ele>
        <time>2019-05-19T11:03:22Z</time>
      </trkpt>
      <trkpt lat="39.99333" lon="-8.44201">
        <ele>243.35</ele>
        <time>2019-05-19T11:03:33Z</time>
      </trkpt>
      <trkpt lat="39.99345" lon="-8.44198">
        <ele>244.31</ele>
        <time>2019-05-19T11:03:47Z</time>
      </trkpt>
      <trkpt lat="39.99361" lon="-8.44197">
        <ele>245.75</ele>
        <time>2019-05-19T11:04:01Z</time>
      </trkpt>
      <trkpt lat="39.99375" lon="-8.4419">
        <ele>246.23</ele>
        <time>2019-05-19T11:04:17Z</time>
      </trkpt>
      <trkpt lat="39.99384" lon="-8.44181">
        <ele>247.68</ele>
        <time>2019-05-19T11:04:28Z</time>
      </trkpt>
      <trkpt lat="39.99391" lon="-8.44165">
        <ele>249.6</ele>
        <time>2019-05-19T11:04:44Z</time>
      </trkpt>
      <trkpt lat="39.99401" lon="-8.44146">
        <ele>250.56</ele>
        <time>2019-05-19T11:05:01Z</time>
      </trkpt>
      <trkpt lat="39.99409" lon="-8.44126">
        <ele>251.52</ele>
        <time>2019-05-19T11:05:19Z</time>
      </trkpt>
      <trkpt lat="39.9941" lon="-8.44123">
        <ele>251.52</ele>
        <time>2019-05-19T11:05:21Z</time>
      </trkpt>
      <trkpt lat="39.99423" lon="-8.44113">
        <ele>250.56</ele>
        <time>2019-05-19T11:05:34Z</time>
      </trkpt>
      <trkpt lat="39.99432" lon="-8.44107">
        <ele>249.12</ele>
        <time>2019-05-19T11:05:42Z</time>
      </trkpt>
      <trkpt lat="39.99447" lon="-8.44091">
        <ele>249.6</ele>
        <time>2019-05-19T11:05:58Z</time>
      </trkpt>
      <trkpt lat="39.99462" lon="-8.44077">
        <ele>250.56</ele>
        <time>2019-05-19T11:06:13Z</time>
      </trkpt>
      <trkpt lat="39.99476" lon="-8.44065">
        <ele>252</ele>
        <time>2019-05-19T11:06:27Z</time>
      </trkpt>
      <trkpt lat="39.9949" lon="-8.44052">
        <ele>252.48</ele>
        <time>2019-05-19T11:06:41Z</time>
      </trkpt>
      <trkpt lat="39.99495" lon="-8.44042">
        <ele>253.93</ele>
        <time>2019-05-19T11:06:49Z</time>
      </trkpt>
      <trkpt lat="39.99497" lon="-8.44041">
        <ele>253.93</ele>
        <time>2019-05-19T11:06:51Z</time>
      </trkpt>
      <trkpt lat="39.99499" lon="-8.44038">
        <ele>254.41</ele>
        <time>2019-05-19T11:06:54Z</time>
      </trkpt>
      <trkpt lat="39.99505" lon="-8.44031">
        <ele>254.41</ele>
        <time>2019-05-19T11:07:01Z</time>
      </trkpt>
      <trkpt lat="39.99507" lon="-8.44029">
        <ele>255.85</ele>
        <time>2019-05-19T11:07:04Z</time>
      </trkpt>
      <trkpt lat="39.99509" lon="-8.44026">
        <ele>254.89</ele>
        <time>2019-05-19T11:07:06Z</time>
      </trkpt>
      <trkpt lat="39.99511" lon="-8.44024">
        <ele>255.85</ele>
        <time>2019-05-19T11:07:08Z</time>
      </trkpt>
      <trkpt lat="39.99523" lon="-8.4401">
        <ele>256.81</ele>
        <time>2019-05-19T11:07:22Z</time>
      </trkpt>
      <trkpt lat="39.99528" lon="-8.44004">
        <ele>257.29</ele>
        <time>2019-05-19T11:07:28Z</time>
      </trkpt>
      <trkpt lat="39.99532" lon="-8.43998">
        <ele>259.21</ele>
        <time>2019-05-19T11:07:34Z</time>
      </trkpt>
      <trkpt lat="39.99536" lon="-8.43992">
        <ele>259.21</ele>
        <time>2019-05-19T11:07:39Z</time>
      </trkpt>
      <trkpt lat="39.99545" lon="-8.43975">
        <ele>261.62</ele>
        <time>2019-05-19T11:07:54Z</time>
      </trkpt>
      <trkpt lat="39.99546" lon="-8.43973">
        <ele>262.1</ele>
        <time>2019-05-19T11:07:56Z</time>
      </trkpt>
      <trkpt lat="39.99556" lon="-8.43959">
        <ele>264.02</ele>
        <time>2019-05-19T11:08:11Z</time>
      </trkpt>
      <trkpt lat="39.99558" lon="-8.43949">
        <ele>264.5</ele>
        <time>2019-05-19T11:08:24Z</time>
      </trkpt>
      <trkpt lat="39.99555" lon="-8.43946">
        <ele>264.5</ele>
        <time>2019-05-19T11:08:46Z</time>
      </trkpt>
      <trkpt lat="39.99556" lon="-8.43946">
        <ele>265.46</ele>
        <time>2019-05-19T11:09:20Z</time>
      </trkpt>
      <trkpt lat="39.99557" lon="-8.43947">
        <ele>264.98</ele>
        <time>2019-05-19T11:09:46Z</time>
      </trkpt>
      <trkpt lat="39.99557" lon="-8.43947">
        <ele>264.98</ele>
        <time>2019-05-19T11:10:09Z</time>
      </trkpt>
      <trkpt lat="39.99557" lon="-8.43946">
        <ele>264.5</ele>
        <time>2019-05-19T11:10:31Z</time>
      </trkpt>
      <trkpt lat="39.99558" lon="-8.43948">
        <ele>264.5</ele>
        <time>2019-05-19T11:10:58Z</time>
      </trkpt>
      <trkpt lat="39.99557" lon="-8.43948">
        <ele>264.98</ele>
        <time>2019-05-19T11:11:17Z</time>
      </trkpt>
      <trkpt lat="39.99558" lon="-8.43947">
        <ele>264.02</ele>
        <time>2019-05-19T11:11:19Z</time>
      </trkpt>
      <trkpt lat="39.99563" lon="-8.43929">
        <ele>264.5</ele>
        <time>2019-05-19T11:11:32Z</time>
      </trkpt>
      <trkpt lat="39.99565" lon="-8.4392">
        <ele>263.54</ele>
        <time>2019-05-19T11:11:38Z</time>
      </trkpt>
      <trkpt lat="39.99565" lon="-8.43917">
        <ele>263.54</ele>
        <time>2019-05-19T11:11:40Z</time>
      </trkpt>
      <trkpt lat="39.99568" lon="-8.43911">
        <ele>263.06</ele>
        <time>2019-05-19T11:11:44Z</time>
      </trkpt>
      <trkpt lat="39.99574" lon="-8.439">
        <ele>263.06</ele>
        <time>2019-05-19T11:11:52Z</time>
      </trkpt>
      <trkpt lat="39.99595" lon="-8.43888">
        <ele>262.1</ele>
        <time>2019-05-19T11:12:10Z</time>
      </trkpt>
      <trkpt lat="39.996" lon="-8.43887">
        <ele>262.58</ele>
        <time>2019-05-19T11:12:14Z</time>
      </trkpt>
      <trkpt lat="39.9961" lon="-8.43896">
        <ele>260.65</ele>
        <time>2019-05-19T11:12:26Z</time>
      </trkpt>
      <trkpt lat="39.9961" lon="-8.43899">
        <ele>260.65</ele>
        <time>2019-05-19T11:12:28Z</time>
      </trkpt>
      <trkpt lat="39.99608" lon="-8.43908">
        <ele>259.69</ele>
        <time>2019-05-19T11:12:35Z</time>
      </trkpt>
      <trkpt lat="39.99606" lon="-8.43927">
        <ele>258.73</ele>
        <time>2019-05-19T11:12:44Z</time>
      </trkpt>
      <trkpt lat="39.99615" lon="-8.43952">
        <ele>257.29</ele>
        <time>2019-05-19T11:12:59Z</time>
      </trkpt>
      <trkpt lat="39.99624" lon="-8.43974">
        <ele>255.85</ele>
        <time>2019-05-19T11:13:13Z</time>
      </trkpt>
      <trkpt lat="39.99624" lon="-8.43978">
        <ele>255.85</ele>
        <time>2019-05-19T11:13:15Z</time>
      </trkpt>
      <trkpt lat="39.99631" lon="-8.44">
        <ele>254.41</ele>
        <time>2019-05-19T11:13:29Z</time>
      </trkpt>
      <trkpt lat="39.99637" lon="-8.44021">
        <ele>252.48</ele>
        <time>2019-05-19T11:13:44Z</time>
      </trkpt>
      <trkpt lat="39.99643" lon="-8.44034">
        <ele>251.04</ele>
        <time>2019-05-19T11:13:58Z</time>
      </trkpt>
      <trkpt lat="39.99646" lon="-8.44045">
        <ele>251.04</ele>
        <time>2019-05-19T11:14:09Z</time>
      </trkpt>
      <trkpt lat="39.99652" lon="-8.44067">
        <ele>249.6</ele>
        <time>2019-05-19T11:14:21Z</time>
      </trkpt>
      <trkpt lat="39.99659" lon="-8.44088">
        <ele>247.68</ele>
        <time>2019-05-19T11:14:36Z</time>
      </trkpt>
      <trkpt lat="39.99667" lon="-8.44109">
        <ele>245.75</ele>
        <time>2019-05-19T11:14:50Z</time>
      </trkpt>
      <trkpt lat="39.99674" lon="-8.44129">
        <ele>243.83</ele>
        <time>2019-05-19T11:15:03Z</time>
      </trkpt>
      <trkpt lat="39.99683" lon="-8.44153">
        <ele>241.91</ele>
        <time>2019-05-19T11:15:18Z</time>
      </trkpt>
      <trkpt lat="39.99684" lon="-8.44156">
        <ele>241.43</ele>
        <time>2019-05-19T11:15:20Z</time>
      </trkpt>
      <trkpt lat="39.99691" lon="-8.44175">
        <ele>240.47</ele>
        <time>2019-05-19T11:15:35Z</time>
      </trkpt>
      <trkpt lat="39.99698" lon="-8.44185">
        <ele>240.47</ele>
        <time>2019-05-19T11:16:00Z</time>
      </trkpt>
      <trkpt lat="39.99698" lon="-8.44188">
        <ele>239.51</ele>
        <time>2019-05-19T11:16:03Z</time>
      </trkpt>
      <trkpt lat="39.99707" lon="-8.4421">
        <ele>238.06</ele>
        <time>2019-05-19T11:16:18Z</time>
      </trkpt>
      <trkpt lat="39.99708" lon="-8.44213">
        <ele>237.58</ele>
        <time>2019-05-19T11:16:20Z</time>
      </trkpt>
      <trkpt lat="39.99714" lon="-8.44218">
        <ele>236.62</ele>
        <time>2019-05-19T11:16:25Z</time>
      </trkpt>
      <trkpt lat="39.99716" lon="-8.44218">
        <ele>237.1</ele>
        <time>2019-05-19T11:16:27Z</time>
      </trkpt>
      <trkpt lat="39.99721" lon="-8.44212">
        <ele>236.62</ele>
        <time>2019-05-19T11:16:33Z</time>
      </trkpt>
      <trkpt lat="39.99728" lon="-8.44201">
        <ele>235.18</ele>
        <time>2019-05-19T11:16:42Z</time>
      </trkpt>
      <trkpt lat="39.99733" lon="-8.44194">
        <ele>234.7</ele>
        <time>2019-05-19T11:16:47Z</time>
      </trkpt>
      <trkpt lat="39.99734" lon="-8.44192">
        <ele>234.22</ele>
        <time>2019-05-19T11:16:49Z</time>
      </trkpt>
      <trkpt lat="39.99736" lon="-8.44189">
        <ele>233.74</ele>
        <time>2019-05-19T11:16:51Z</time>
      </trkpt>
      <trkpt lat="39.99737" lon="-8.44186">
        <ele>234.22</ele>
        <time>2019-05-19T11:16:53Z</time>
      </trkpt>
      <trkpt lat="39.99746" lon="-8.44175">
        <ele>233.26</ele>
        <time>2019-05-19T11:17:02Z</time>
      </trkpt>
      <trkpt lat="39.99749" lon="-8.44171">
        <ele>232.78</ele>
        <time>2019-05-19T11:17:05Z</time>
      </trkpt>
      <trkpt lat="39.9975" lon="-8.44167">
        <ele>232.3</ele>
        <time>2019-05-19T11:17:08Z</time>
      </trkpt>
      <trkpt lat="39.99769" lon="-8.44156">
        <ele>232.3</ele>
        <time>2019-05-19T11:17:24Z</time>
      </trkpt>
      <trkpt lat="39.99783" lon="-8.44154">
        <ele>233.26</ele>
        <time>2019-05-19T11:17:37Z</time>
      </trkpt>
      <trkpt lat="39.99797" lon="-8.44146">
        <ele>235.18</ele>
        <time>2019-05-19T11:17:51Z</time>
      </trkpt>
      <trkpt lat="39.99808" lon="-8.4414">
        <ele>235.18</ele>
        <time>2019-05-19T11:18:03Z</time>
      </trkpt>
      <trkpt lat="39.99825" lon="-8.44139">
        <ele>237.58</ele>
        <time>2019-05-19T11:18:18Z</time>
      </trkpt>
      <trkpt lat="39.99841" lon="-8.44139">
        <ele>239.02</ele>
        <time>2019-05-19T11:18:34Z</time>
      </trkpt>
      <trkpt lat="39.99856" lon="-8.44136">
        <ele>240.95</ele>
        <time>2019-05-19T11:18:50Z</time>
      </trkpt>
      <trkpt lat="39.9987" lon="-8.44137">
        <ele>243.83</ele>
        <time>2019-05-19T11:19:06Z</time>
      </trkpt>
      <trkpt lat="39.99877" lon="-8.44138">
        <ele>243.83</ele>
        <time>2019-05-19T11:19:14Z</time>
      </trkpt>
      <trkpt lat="39.99881" lon="-8.44138">
        <ele>243.83</ele>
        <time>2019-05-19T11:19:18Z</time>
      </trkpt>
      <trkpt lat="39.99885" lon="-8.4414">
        <ele>243.35</ele>
        <time>2019-05-19T11:19:34Z</time>
      </trkpt>
      <trkpt lat="39.99893" lon="-8.44147">
        <ele>242.87</ele>
        <time>2019-05-19T11:19:45Z</time>
      </trkpt>
      <trkpt lat="39.99899" lon="-8.44167">
        <ele>241.43</ele>
        <time>2019-05-19T11:19:59Z</time>
      </trkpt>
      <trkpt lat="39.99913" lon="-8.44179">
        <ele>240.95</ele>
        <time>2019-05-19T11:20:14Z</time>
      </trkpt>
      <trkpt lat="39.99929" lon="-8.44175">
        <ele>238.06</ele>
        <time>2019-05-19T11:20:28Z</time>
      </trkpt>
      <trkpt lat="39.99932" lon="-8.44175">
        <ele>238.06</ele>
        <time>2019-05-19T11:20:30Z</time>
      </trkpt>
      <trkpt lat="39.99948" lon="-8.44166">
        <ele>237.1</ele>
        <time>2019-05-19T11:20:44Z</time>
      </trkpt>
      <trkpt lat="39.99953" lon="-8.44167">
        <ele>236.62</ele>
        <time>2019-05-19T11:20:49Z</time>
      </trkpt>
      <trkpt lat="39.99965" lon="-8.44177">
        <ele>236.62</ele>
        <time>2019-05-19T11:21:02Z</time>
      </trkpt>
      <trkpt lat="39.99968" lon="-8.4418">
        <ele>237.1</ele>
        <time>2019-05-19T11:21:05Z</time>
      </trkpt>
      <trkpt lat="39.99974" lon="-8.44187">
        <ele>237.1</ele>
        <time>2019-05-19T11:21:12Z</time>
      </trkpt>
      <trkpt lat="39.99991" lon="-8.44191">
        <ele>237.1</ele>
        <time>2019-05-19T11:21:26Z</time>
      </trkpt>
      <trkpt lat="39.99996" lon="-8.44189">
        <ele>237.58</ele>
        <time>2019-05-19T11:21:30Z</time>
      </trkpt>
      <trkpt lat="40.00003" lon="-8.44185">
        <ele>237.58</ele>
        <time>2019-05-19T11:21:36Z</time>
      </trkpt>
      <trkpt lat="40.00012" lon="-8.44175">
        <ele>240.47</ele>
        <time>2019-05-19T11:21:48Z</time>
      </trkpt>
      <trkpt lat="40.00014" lon="-8.44173">
        <ele>239.02</ele>
        <time>2019-05-19T11:21:50Z</time>
      </trkpt>
      <trkpt lat="40.00016" lon="-8.44169">
        <ele>239.02</ele>
        <time>2019-05-19T11:21:53Z</time>
      </trkpt>
      <trkpt lat="40.00024" lon="-8.44149">
        <ele>240.47</ele>
        <time>2019-05-19T11:22:08Z</time>
      </trkpt>
      <trkpt lat="40.00028" lon="-8.44144">
        <ele>239.51</ele>
        <time>2019-05-19T11:22:13Z</time>
      </trkpt>
      <trkpt lat="40.00034" lon="-8.44144">
        <ele>238.54</ele>
        <time>2019-05-19T11:22:18Z</time>
      </trkpt>
      <trkpt lat="40.00037" lon="-8.44146">
        <ele>238.54</ele>
        <time>2019-05-19T11:22:20Z</time>
      </trkpt>
      <trkpt lat="40.00047" lon="-8.44163">
        <ele>236.14</ele>
        <time>2019-05-19T11:22:34Z</time>
      </trkpt>
      <trkpt lat="40.00062" lon="-8.44174">
        <ele>235.18</ele>
        <time>2019-05-19T11:22:47Z</time>
      </trkpt>
      <trkpt lat="40.00078" lon="-8.44181">
        <ele>234.22</ele>
        <time>2019-05-19T11:23:00Z</time>
      </trkpt>
      <trkpt lat="40.00079" lon="-8.44182">
        <ele>233.74</ele>
        <time>2019-05-19T11:23:01Z</time>
      </trkpt>
      <trkpt lat="40.00084" lon="-8.44189">
        <ele>233.74</ele>
        <time>2019-05-19T11:23:07Z</time>
      </trkpt>
      <trkpt lat="40.00093" lon="-8.44209">
        <ele>234.7</ele>
        <time>2019-05-19T11:23:23Z</time>
      </trkpt>
      <trkpt lat="40.00099" lon="-8.44218">
        <ele>235.18</ele>
        <time>2019-05-19T11:23:31Z</time>
      </trkpt>
      <trkpt lat="40.0011" lon="-8.44229">
        <ele>236.14</ele>
        <time>2019-05-19T11:23:44Z</time>
      </trkpt>
      <trkpt lat="40.00116" lon="-8.44231">
        <ele>236.14</ele>
        <time>2019-05-19T11:23:50Z</time>
      </trkpt>
      <trkpt lat="40.00132" lon="-8.44227">
        <ele>237.1</ele>
        <time>2019-05-19T11:24:04Z</time>
      </trkpt>
      <trkpt lat="40.00133" lon="-8.44224">
        <ele>237.58</ele>
        <time>2019-05-19T11:24:08Z</time>
      </trkpt>
      <trkpt lat="40.00134" lon="-8.44218">
        <ele>239.02</ele>
        <time>2019-05-19T11:24:14Z</time>
      </trkpt>
      <trkpt lat="40.00138" lon="-8.44199">
        <ele>240.47</ele>
        <time>2019-05-19T11:24:29Z</time>
      </trkpt>
      <trkpt lat="40.00145" lon="-8.44192">
        <ele>240.47</ele>
        <time>2019-05-19T11:24:37Z</time>
      </trkpt>
      <trkpt lat="40.00161" lon="-8.44181">
        <ele>242.39</ele>
        <time>2019-05-19T11:24:54Z</time>
      </trkpt>
      <trkpt lat="40.00172" lon="-8.44175">
        <ele>243.83</ele>
        <time>2019-05-19T11:25:08Z</time>
      </trkpt>
      <trkpt lat="40.0018" lon="-8.4417">
        <ele>244.31</ele>
        <time>2019-05-19T11:25:21Z</time>
      </trkpt>
      <trkpt lat="40.00183" lon="-8.44168">
        <ele>245.75</ele>
        <time>2019-05-19T11:25:24Z</time>
      </trkpt>
      <trkpt lat="40.00188" lon="-8.44165">
        <ele>247.2</ele>
        <time>2019-05-19T11:25:31Z</time>
      </trkpt>
      <trkpt lat="40.00189" lon="-8.44164">
        <ele>246.72</ele>
        <time>2019-05-19T11:25:34Z</time>
      </trkpt>
      <trkpt lat="40.00192" lon="-8.44159">
        <ele>248.16</ele>
        <time>2019-05-19T11:25:48Z</time>
      </trkpt>
      <trkpt lat="40.00193" lon="-8.44158">
        <ele>247.68</ele>
        <time>2019-05-19T11:25:51Z</time>
      </trkpt>
      <trkpt lat="40.00194" lon="-8.44152">
        <ele>248.64</ele>
        <time>2019-05-19T11:25:56Z</time>
      </trkpt>
      <trkpt lat="40.00197" lon="-8.44144">
        <ele>248.16</ele>
        <time>2019-05-19T11:26:02Z</time>
      </trkpt>
      <trkpt lat="40.002" lon="-8.44138">
        <ele>248.16</ele>
        <time>2019-05-19T11:26:07Z</time>
      </trkpt>
      <trkpt lat="40.00208" lon="-8.44122">
        <ele>249.12</ele>
        <time>2019-05-19T11:26:18Z</time>
      </trkpt>
      <trkpt lat="40.00218" lon="-8.44106">
        <ele>249.12</ele>
        <time>2019-05-19T11:26:31Z</time>
      </trkpt>
      <trkpt lat="40.00219" lon="-8.44104">
        <ele>249.12</ele>
        <time>2019-05-19T11:26:33Z</time>
      </trkpt>
      <trkpt lat="40.00226" lon="-8.4409">
        <ele>249.6</ele>
        <time>2019-05-19T11:26:43Z</time>
      </trkpt>
      <trkpt lat="40.00231" lon="-8.44083">
        <ele>249.6</ele>
        <time>2019-05-19T11:26:49Z</time>
      </trkpt>
      <trkpt lat="40.00232" lon="-8.4408">
        <ele>249.6</ele>
        <time>2019-05-19T11:26:51Z</time>
      </trkpt>
      <trkpt lat="40.0024" lon="-8.44072">
        <ele>249.12</ele>
        <time>2019-05-19T11:26:59Z</time>
      </trkpt>
      <trkpt lat="40.00247" lon="-8.44066">
        <ele>250.08</ele>
        <time>2019-05-19T11:27:06Z</time>
      </trkpt>
      <trkpt lat="40.00252" lon="-8.44063">
        <ele>249.6</ele>
        <time>2019-05-19T11:27:10Z</time>
      </trkpt>
      <trkpt lat="40.00254" lon="-8.44061">
        <ele>250.08</ele>
        <time>2019-05-19T11:27:13Z</time>
      </trkpt>
      <trkpt lat="40.00259" lon="-8.44054">
        <ele>249.12</ele>
        <time>2019-05-19T11:27:19Z</time>
      </trkpt>
      <trkpt lat="40.00268" lon="-8.44047">
        <ele>248.16</ele>
        <time>2019-05-19T11:27:26Z</time>
      </trkpt>
      <trkpt lat="40.00272" lon="-8.44043">
        <ele>248.64</ele>
        <time>2019-05-19T11:27:30Z</time>
      </trkpt>
      <trkpt lat="40.00282" lon="-8.4403">
        <ele>248.64</ele>
        <time>2019-05-19T11:27:41Z</time>
      </trkpt>
      <trkpt lat="40.00298" lon="-8.44021">
        <ele>246.72</ele>
        <time>2019-05-19T11:27:55Z</time>
      </trkpt>
      <trkpt lat="40.00317" lon="-8.44015">
        <ele>245.75</ele>
        <time>2019-05-19T11:28:09Z</time>
      </trkpt>
      <trkpt lat="40.00332" lon="-8.44008">
        <ele>245.27</ele>
        <time>2019-05-19T11:28:22Z</time>
      </trkpt>
      <trkpt lat="40.00344" lon="-8.44002">
        <ele>244.79</ele>
        <time>2019-05-19T11:28:35Z</time>
      </trkpt>
      <trkpt lat="40.00348" lon="-8.44006">
        <ele>245.27</ele>
        <time>2019-05-19T11:29:04Z</time>
      </trkpt>
      <trkpt lat="40.00348" lon="-8.44005">
        <ele>244.31</ele>
        <time>2019-05-19T11:29:38Z</time>
      </trkpt>
      <trkpt lat="40.00347" lon="-8.44004">
        <ele>244.79</ele>
        <time>2019-05-19T11:30:05Z</time>
      </trkpt>
      <trkpt lat="40.00348" lon="-8.44001">
        <ele>245.27</ele>
        <time>2019-05-19T11:30:26Z</time>
      </trkpt>
      <trkpt lat="40.0035" lon="-8.44004">
        <ele>245.27</ele>
        <time>2019-05-19T11:30:47Z</time>
      </trkpt>
      <trkpt lat="40.00351" lon="-8.44006">
        <ele>245.27</ele>
        <time>2019-05-19T11:30:55Z</time>
      </trkpt>
      <trkpt lat="40.00362" lon="-8.44025">
        <ele>243.83</ele>
        <time>2019-05-19T11:31:12Z</time>
      </trkpt>
      <trkpt lat="40.00369" lon="-8.44047">
        <ele>242.39</ele>
        <time>2019-05-19T11:31:28Z</time>
      </trkpt>
      <trkpt lat="40.00372" lon="-8.44059">
        <ele>241.91</ele>
        <time>2019-05-19T11:31:41Z</time>
      </trkpt>
      <trkpt lat="40.00377" lon="-8.44075">
        <ele>239.02</ele>
        <time>2019-05-19T11:31:53Z</time>
      </trkpt>
      <trkpt lat="40.00387" lon="-8.44096">
        <ele>237.58</ele>
        <time>2019-05-19T11:32:08Z</time>
      </trkpt>
      <trkpt lat="40.00391" lon="-8.44103">
        <ele>235.66</ele>
        <time>2019-05-19T11:32:13Z</time>
      </trkpt>
      <trkpt lat="40.00403" lon="-8.44119">
        <ele>234.22</ele>
        <time>2019-05-19T11:32:27Z</time>
      </trkpt>
      <trkpt lat="40.00419" lon="-8.4413">
        <ele>231.33</ele>
        <time>2019-05-19T11:32:41Z</time>
      </trkpt>
      <trkpt lat="40.00426" lon="-8.44138">
        <ele>230.37</ele>
        <time>2019-05-19T11:32:48Z</time>
      </trkpt>
      <trkpt lat="40.00436" lon="-8.44156">
        <ele>228.93</ele>
        <time>2019-05-19T11:33:01Z</time>
      </trkpt>
      <trkpt lat="40.00438" lon="-8.44161">
        <ele>227.97</ele>
        <time>2019-05-19T11:33:05Z</time>
      </trkpt>
      <trkpt lat="40.00441" lon="-8.44163">
        <ele>227.49</ele>
        <time>2019-05-19T11:33:08Z</time>
      </trkpt>
      <trkpt lat="40.0045" lon="-8.44185">
        <ele>224.12</ele>
        <time>2019-05-19T11:33:24Z</time>
      </trkpt>
      <trkpt lat="40.00454" lon="-8.44199">
        <ele>222.2</ele>
        <time>2019-05-19T11:33:33Z</time>
      </trkpt>
      <trkpt lat="40.00457" lon="-8.44213">
        <ele>221.72</ele>
        <time>2019-05-19T11:33:46Z</time>
      </trkpt>
      <trkpt lat="40.00459" lon="-8.44213">
        <ele>221.24</ele>
        <time>2019-05-19T11:34:03Z</time>
      </trkpt>
      <trkpt lat="40.00459" lon="-8.44218">
        <ele>220.28</ele>
        <time>2019-05-19T11:34:08Z</time>
      </trkpt>
      <trkpt lat="40.00461" lon="-8.44226">
        <ele>219.32</ele>
        <time>2019-05-19T11:34:13Z</time>
      </trkpt>
      <trkpt lat="40.00463" lon="-8.44252">
        <ele>217.4</ele>
        <time>2019-05-19T11:34:30Z</time>
      </trkpt>
      <trkpt lat="40.00466" lon="-8.44262">
        <ele>216.43</ele>
        <time>2019-05-19T11:34:37Z</time>
      </trkpt>
      <trkpt lat="40.00467" lon="-8.44287">
        <ele>213.55</ele>
        <time>2019-05-19T11:34:52Z</time>
      </trkpt>
      <trkpt lat="40.00467" lon="-8.4429">
        <ele>212.59</ele>
        <time>2019-05-19T11:34:54Z</time>
      </trkpt>
      <trkpt lat="40.00466" lon="-8.44314">
        <ele>211.63</ele>
        <time>2019-05-19T11:35:08Z</time>
      </trkpt>
      <trkpt lat="40.00467" lon="-8.44342">
        <ele>209.22</ele>
        <time>2019-05-19T11:35:25Z</time>
      </trkpt>
      <trkpt lat="40.00467" lon="-8.44365">
        <ele>208.26</ele>
        <time>2019-05-19T11:35:39Z</time>
      </trkpt>
      <trkpt lat="40.00467" lon="-8.4437">
        <ele>208.74</ele>
        <time>2019-05-19T11:35:49Z</time>
      </trkpt>
      <trkpt lat="40.00473" lon="-8.44396">
        <ele>208.74</ele>
        <time>2019-05-19T11:36:04Z</time>
      </trkpt>
      <trkpt lat="40.00479" lon="-8.44415">
        <ele>208.26</ele>
        <time>2019-05-19T11:36:17Z</time>
      </trkpt>
      <trkpt lat="40.00486" lon="-8.44437">
        <ele>208.74</ele>
        <time>2019-05-19T11:36:32Z</time>
      </trkpt>
      <trkpt lat="40.00489" lon="-8.44452">
        <ele>207.78</ele>
        <time>2019-05-19T11:36:44Z</time>
      </trkpt>
      <trkpt lat="40.00493" lon="-8.44471">
        <ele>207.78</ele>
        <time>2019-05-19T11:36:57Z</time>
      </trkpt>
      <trkpt lat="40.00494" lon="-8.44472">
        <ele>207.3</ele>
        <time>2019-05-19T11:37:12Z</time>
      </trkpt>
      <trkpt lat="40.00495" lon="-8.44474">
        <ele>207.78</ele>
        <time>2019-05-19T11:37:33Z</time>
      </trkpt>
      <trkpt lat="40.00494" lon="-8.44476">
        <ele>207.3</ele>
        <time>2019-05-19T11:37:50Z</time>
      </trkpt>
      <trkpt lat="40.00495" lon="-8.44481">
        <ele>207.3</ele>
        <time>2019-05-19T11:37:54Z</time>
      </trkpt>
      <trkpt lat="40.00496" lon="-8.44484">
        <ele>207.3</ele>
        <time>2019-05-19T11:37:57Z</time>
      </trkpt>
      <trkpt lat="40.005" lon="-8.44499">
        <ele>206.34</ele>
        <time>2019-05-19T11:38:08Z</time>
      </trkpt>
      <trkpt lat="40.00501" lon="-8.44506">
        <ele>206.34</ele>
        <time>2019-05-19T11:38:12Z</time>
      </trkpt>
      <trkpt lat="40.00501" lon="-8.44513">
        <ele>207.3</ele>
        <time>2019-05-19T11:38:16Z</time>
      </trkpt>
      <trkpt lat="40.00501" lon="-8.44516">
        <ele>206.82</ele>
        <time>2019-05-19T11:38:18Z</time>
      </trkpt>
      <trkpt lat="40.00504" lon="-8.4454">
        <ele>206.82</ele>
        <time>2019-05-19T11:38:33Z</time>
      </trkpt>
      <trkpt lat="40.00505" lon="-8.44562">
        <ele>206.34</ele>
        <time>2019-05-19T11:38:47Z</time>
      </trkpt>
      <trkpt lat="40.00507" lon="-8.44574">
        <ele>206.82</ele>
        <time>2019-05-19T11:38:54Z</time>
      </trkpt>
      <trkpt lat="40.00506" lon="-8.44597">
        <ele>205.86</ele>
        <time>2019-05-19T11:39:09Z</time>
      </trkpt>
      <trkpt lat="40.00508" lon="-8.4462">
        <ele>205.38</ele>
        <time>2019-05-19T11:39:23Z</time>
      </trkpt>
      <trkpt lat="40.0051" lon="-8.44632">
        <ele>205.38</ele>
        <time>2019-05-19T11:39:31Z</time>
      </trkpt>
      <trkpt lat="40.00514" lon="-8.44655">
        <ele>205.38</ele>
        <time>2019-05-19T11:39:46Z</time>
      </trkpt>
      <trkpt lat="40.00519" lon="-8.44673">
        <ele>204.9</ele>
        <time>2019-05-19T11:39:59Z</time>
      </trkpt>
      <trkpt lat="40.00527" lon="-8.44696">
        <ele>205.38</ele>
        <time>2019-05-19T11:40:14Z</time>
      </trkpt>
      <trkpt lat="40.00535" lon="-8.44714">
        <ele>205.38</ele>
        <time>2019-05-19T11:40:27Z</time>
      </trkpt>
      <trkpt lat="40.00545" lon="-8.44734">
        <ele>204.42</ele>
        <time>2019-05-19T11:40:42Z</time>
      </trkpt>
      <trkpt lat="40.00556" lon="-8.44753">
        <ele>204.42</ele>
        <time>2019-05-19T11:40:56Z</time>
      </trkpt>
      <trkpt lat="40.00568" lon="-8.44767">
        <ele>203.46</ele>
        <time>2019-05-19T11:41:07Z</time>
      </trkpt>
      <trkpt lat="40.00575" lon="-8.44778">
        <ele>202.98</ele>
        <time>2019-05-19T11:41:16Z</time>
      </trkpt>
      <trkpt lat="40.00579" lon="-8.44786">
        <ele>202.49</ele>
        <time>2019-05-19T11:41:22Z</time>
      </trkpt>
      <trkpt lat="40.00581" lon="-8.44789">
        <ele>202.01</ele>
        <time>2019-05-19T11:41:24Z</time>
      </trkpt>
      <trkpt lat="40.00588" lon="-8.44809">
        <ele>202.01</ele>
        <time>2019-05-19T11:41:38Z</time>
      </trkpt>
      <trkpt lat="40.0059" lon="-8.44816">
        <ele>201.53</ele>
        <time>2019-05-19T11:41:42Z</time>
      </trkpt>
      <trkpt lat="40.00596" lon="-8.44832">
        <ele>202.01</ele>
        <time>2019-05-19T11:41:58Z</time>
      </trkpt>
      <trkpt lat="40.00597" lon="-8.44834">
        <ele>201.53</ele>
        <time>2019-05-19T11:42:00Z</time>
      </trkpt>
      <trkpt lat="40.00612" lon="-8.44849">
        <ele>201.53</ele>
        <time>2019-05-19T11:42:16Z</time>
      </trkpt>
      <trkpt lat="40.00632" lon="-8.44864">
        <ele>201.05</ele>
        <time>2019-05-19T11:42:33Z</time>
      </trkpt>
      <trkpt lat="40.00648" lon="-8.44882">
        <ele>200.57</ele>
        <time>2019-05-19T11:42:50Z</time>
      </trkpt>
      <trkpt lat="40.0066" lon="-8.44899">
        <ele>199.13</ele>
        <time>2019-05-19T11:43:05Z</time>
      </trkpt>
      <trkpt lat="40.00667" lon="-8.44916">
        <ele>198.17</ele>
        <time>2019-05-19T11:43:19Z</time>
      </trkpt>
      <trkpt lat="40.00674" lon="-8.44935">
        <ele>197.69</ele>
        <time>2019-05-19T11:43:33Z</time>
      </trkpt>
      <trkpt lat="40.0068" lon="-8.44955">
        <ele>198.17</ele>
        <time>2019-05-19T11:43:46Z</time>
      </trkpt>
      <trkpt lat="40.00682" lon="-8.44964">
        <ele>197.69</ele>
        <time>2019-05-19T11:43:52Z</time>
      </trkpt>
      <trkpt lat="40.00689" lon="-8.4499">
        <ele>198.17</ele>
        <time>2019-05-19T11:44:09Z</time>
      </trkpt>
      <trkpt lat="40.00692" lon="-8.45012">
        <ele>198.17</ele>
        <time>2019-05-19T11:44:24Z</time>
      </trkpt>
      <trkpt lat="40.00693" lon="-8.45018">
        <ele>197.69</ele>
        <time>2019-05-19T11:44:28Z</time>
      </trkpt>
      <trkpt lat="40.00696" lon="-8.45046">
        <ele>198.65</ele>
        <time>2019-05-19T11:44:44Z</time>
      </trkpt>
      <trkpt lat="40.00698" lon="-8.45061">
        <ele>197.69</ele>
        <time>2019-05-19T11:44:53Z</time>
      </trkpt>
      <trkpt lat="40.00701" lon="-8.45086">
        <ele>198.17</ele>
        <time>2019-05-19T11:45:09Z</time>
      </trkpt>
      <trkpt lat="40.00702" lon="-8.45098">
        <ele>198.65</ele>
        <time>2019-05-19T11:45:24Z</time>
      </trkpt>
      <trkpt lat="40.00707" lon="-8.4511">
        <ele>198.17</ele>
        <time>2019-05-19T11:45:38Z</time>
      </trkpt>
      <trkpt lat="40.00726" lon="-8.45118">
        <ele>198.65</ele>
        <time>2019-05-19T11:45:53Z</time>
      </trkpt>
      <trkpt lat="40.00743" lon="-8.45122">
        <ele>198.65</ele>
        <time>2019-05-19T11:46:07Z</time>
      </trkpt>
      <trkpt lat="40.00754" lon="-8.45126">
        <ele>199.13</ele>
        <time>2019-05-19T11:46:20Z</time>
      </trkpt>
      <trkpt lat="40.00769" lon="-8.45128">
        <ele>199.13</ele>
        <time>2019-05-19T11:46:32Z</time>
      </trkpt>
      <trkpt lat="40.00789" lon="-8.45126">
        <ele>199.61</ele>
        <time>2019-05-19T11:46:47Z</time>
      </trkpt>
      <trkpt lat="40.00805" lon="-8.45124">
        <ele>199.13</ele>
        <time>2019-05-19T11:47:01Z</time>
      </trkpt>
      <trkpt lat="40.0081" lon="-8.45124">
        <ele>199.61</ele>
        <time>2019-05-19T11:47:06Z</time>
      </trkpt>
      <trkpt lat="40.00824" lon="-8.45123">
        <ele>201.05</ele>
        <time>2019-05-19T11:47:17Z</time>
      </trkpt>
      <trkpt lat="40.0083" lon="-8.45124">
        <ele>200.09</ele>
        <time>2019-05-19T11:47:23Z</time>
      </trkpt>
      <trkpt lat="40.00847" lon="-8.45129">
        <ele>199.61</ele>
        <time>2019-05-19T11:47:36Z</time>
      </trkpt>
      <trkpt lat="40.00859" lon="-8.45137">
        <ele>200.09</ele>
        <time>2019-05-19T11:47:49Z</time>
      </trkpt>
      <trkpt lat="40.00876" lon="-8.45144">
        <ele>198.65</ele>
        <time>2019-05-19T11:48:04Z</time>
      </trkpt>
      <trkpt lat="40.00898" lon="-8.45151">
        <ele>199.61</ele>
        <time>2019-05-19T11:48:22Z</time>
      </trkpt>
      <trkpt lat="40.00917" lon="-8.4516">
        <ele>199.61</ele>
        <time>2019-05-19T11:48:38Z</time>
      </trkpt>
      <trkpt lat="40.00934" lon="-8.45168">
        <ele>199.61</ele>
        <time>2019-05-19T11:48:53Z</time>
      </trkpt>
      <trkpt lat="40.0095" lon="-8.45175">
        <ele>199.61</ele>
        <time>2019-05-19T11:49:06Z</time>
      </trkpt>
      <trkpt lat="40.00962" lon="-8.45181">
        <ele>199.61</ele>
        <time>2019-05-19T11:49:19Z</time>
      </trkpt>
      <trkpt lat="40.00967" lon="-8.45183">
        <ele>199.13</ele>
        <time>2019-05-19T11:49:23Z</time>
      </trkpt>
      <trkpt lat="40.00988" lon="-8.45197">
        <ele>199.13</ele>
        <time>2019-05-19T11:49:40Z</time>
      </trkpt>
      <trkpt lat="40.01004" lon="-8.45209">
        <ele>199.13</ele>
        <time>2019-05-19T11:49:56Z</time>
      </trkpt>
      <trkpt lat="40.01021" lon="-8.45222">
        <ele>201.05</ele>
        <time>2019-05-19T11:50:12Z</time>
      </trkpt>
      <trkpt lat="40.01037" lon="-8.45233">
        <ele>200.09</ele>
        <time>2019-05-19T11:50:27Z</time>
      </trkpt>
      <trkpt lat="40.01052" lon="-8.45245">
        <ele>198.65</ele>
        <time>2019-05-19T11:50:42Z</time>
      </trkpt>
      <trkpt lat="40.01067" lon="-8.45255">
        <ele>199.61</ele>
        <time>2019-05-19T11:50:56Z</time>
      </trkpt>
      <trkpt lat="40.01082" lon="-8.45266">
        <ele>198.17</ele>
        <time>2019-05-19T11:51:10Z</time>
      </trkpt>
      <trkpt lat="40.01093" lon="-8.45275">
        <ele>199.61</ele>
        <time>2019-05-19T11:51:21Z</time>
      </trkpt>
      <trkpt lat="40.01111" lon="-8.45282">
        <ele>199.61</ele>
        <time>2019-05-19T11:51:36Z</time>
      </trkpt>
      <trkpt lat="40.01126" lon="-8.45288">
        <ele>200.09</ele>
        <time>2019-05-19T11:51:49Z</time>
      </trkpt>
      <trkpt lat="40.01144" lon="-8.45295">
        <ele>199.61</ele>
        <time>2019-05-19T11:52:05Z</time>
      </trkpt>
      <trkpt lat="40.01152" lon="-8.45298">
        <ele>199.61</ele>
        <time>2019-05-19T11:52:19Z</time>
      </trkpt>
      <trkpt lat="40.01153" lon="-8.45296">
        <ele>201.05</ele>
        <time>2019-05-19T11:52:34Z</time>
      </trkpt>
      <trkpt lat="40.01164" lon="-8.45299">
        <ele>200.09</ele>
        <time>2019-05-19T11:52:47Z</time>
      </trkpt>
      <trkpt lat="40.01164" lon="-8.45299">
        <ele>200.09</ele>
        <time>2019-05-19T11:52:51Z</time>
      </trkpt>
      <trkpt lat="40.01175" lon="-8.45294">
        <ele>199.61</ele>
        <time>2019-05-19T11:53:02Z</time>
      </trkpt>
      <trkpt lat="40.01178" lon="-8.45293">
        <ele>199.61</ele>
        <time>2019-05-19T11:53:04Z</time>
      </trkpt>
      <trkpt lat="40.0118" lon="-8.4529">
        <ele>199.61</ele>
        <time>2019-05-19T11:53:07Z</time>
      </trkpt>
      <trkpt lat="40.01182" lon="-8.45288">
        <ele>199.61</ele>
        <time>2019-05-19T11:53:09Z</time>
      </trkpt>
      <trkpt lat="40.01197" lon="-8.45273">
        <ele>199.13</ele>
        <time>2019-05-19T11:53:25Z</time>
      </trkpt>
      <trkpt lat="40.01206" lon="-8.45259">
        <ele>199.13</ele>
        <time>2019-05-19T11:53:37Z</time>
      </trkpt>
      <trkpt lat="40.01209" lon="-8.45255">
        <ele>198.65</ele>
        <time>2019-05-19T11:53:43Z</time>
      </trkpt>
      <trkpt lat="40.01216" lon="-8.45242">
        <ele>198.65</ele>
        <time>2019-05-19T11:53:54Z</time>
      </trkpt>
      <trkpt lat="40.0123" lon="-8.45223">
        <ele>197.69</ele>
        <time>2019-05-19T11:54:09Z</time>
      </trkpt>
      <trkpt lat="40.01243" lon="-8.45206">
        <ele>198.65</ele>
        <time>2019-05-19T11:54:24Z</time>
      </trkpt>
      <trkpt lat="40.01246" lon="-8.45204">
        <ele>197.69</ele>
        <time>2019-05-19T11:54:41Z</time>
      </trkpt>
      <trkpt lat="40.01249" lon="-8.452">
        <ele>198.17</ele>
        <time>2019-05-19T11:54:58Z</time>
      </trkpt>
      <trkpt lat="40.01251" lon="-8.45199">
        <ele>198.17</ele>
        <time>2019-05-19T11:55:19Z</time>
      </trkpt>
      <trkpt lat="40.0125" lon="-8.45196">
        <ele>197.21</ele>
        <time>2019-05-19T11:55:36Z</time>
      </trkpt>
      <trkpt lat="40.01258" lon="-8.45186">
        <ele>197.69</ele>
        <time>2019-05-19T11:55:49Z</time>
      </trkpt>
      <trkpt lat="40.0126" lon="-8.45182">
        <ele>196.73</ele>
        <time>2019-05-19T11:55:52Z</time>
      </trkpt>
      <trkpt lat="40.0127" lon="-8.45166">
        <ele>197.69</ele>
        <time>2019-05-19T11:56:05Z</time>
      </trkpt>
      <trkpt lat="40.01285" lon="-8.45146">
        <ele>196.73</ele>
        <time>2019-05-19T11:56:22Z</time>
      </trkpt>
      <trkpt lat="40.01289" lon="-8.45143">
        <ele>196.73</ele>
        <time>2019-05-19T11:56:26Z</time>
      </trkpt>
      <trkpt lat="40.01295" lon="-8.45129">
        <ele>196.25</ele>
        <time>2019-05-19T11:56:40Z</time>
      </trkpt>
      <trkpt lat="40.01303" lon="-8.4511">
        <ele>194.32</ele>
        <time>2019-05-19T11:56:54Z</time>
      </trkpt>
      <trkpt lat="40.01309" lon="-8.45086">
        <ele>193.36</ele>
        <time>2019-05-19T11:57:09Z</time>
      </trkpt>
      <trkpt lat="40.01315" lon="-8.45071">
        <ele>191.92</ele>
        <time>2019-05-19T11:57:19Z</time>
      </trkpt>
      <trkpt lat="40.01322" lon="-8.45065">
        <ele>190.96</ele>
        <time>2019-05-19T11:57:37Z</time>
      </trkpt>
      <trkpt lat="40.01334" lon="-8.45067">
        <ele>190.48</ele>
        <time>2019-05-19T11:57:49Z</time>
      </trkpt>
      <trkpt lat="40.01353" lon="-8.45064">
        <ele>190</ele>
        <time>2019-05-19T11:58:04Z</time>
      </trkpt>
      <trkpt lat="40.01372" lon="-8.45062">
        <ele>190</ele>
        <time>2019-05-19T11:58:19Z</time>
      </trkpt>
      <trkpt lat="40.01391" lon="-8.45061">
        <ele>189.52</ele>
        <time>2019-05-19T11:58:34Z</time>
      </trkpt>
      <trkpt lat="40.01397" lon="-8.4506">
        <ele>189.04</ele>
        <time>2019-05-19T11:58:46Z</time>
      </trkpt>
      <trkpt lat="40.014" lon="-8.45058">
        <ele>189.04</ele>
        <time>2019-05-19T11:58:49Z</time>
      </trkpt>
      <trkpt lat="40.01419" lon="-8.45048">
        <ele>188.56</ele>
        <time>2019-05-19T11:59:06Z</time>
      </trkpt>
      <trkpt lat="40.01427" lon="-8.45045">
        <ele>189.52</ele>
        <time>2019-05-19T11:59:13Z</time>
      </trkpt>
      <trkpt lat="40.01444" lon="-8.45039">
        <ele>188.56</ele>
        <time>2019-05-19T11:59:27Z</time>
      </trkpt>
      <trkpt lat="40.01455" lon="-8.45033">
        <ele>189.04</ele>
        <time>2019-05-19T11:59:43Z</time>
      </trkpt>
      <trkpt lat="40.01458" lon="-8.4503">
        <ele>189.04</ele>
        <time>2019-05-19T12:00:01Z</time>
      </trkpt>
      <trkpt lat="40.01466" lon="-8.45022">
        <ele>188.08</ele>
        <time>2019-05-19T12:00:12Z</time>
      </trkpt>
      <trkpt lat="40.01469" lon="-8.45019">
        <ele>188.56</ele>
        <time>2019-05-19T12:00:15Z</time>
      </trkpt>
      <trkpt lat="40.01473" lon="-8.45011">
        <ele>188.56</ele>
        <time>2019-05-19T12:00:21Z</time>
      </trkpt>
      <trkpt lat="40.01478" lon="-8.44997">
        <ele>188.08</ele>
        <time>2019-05-19T12:00:31Z</time>
      </trkpt>
      <trkpt lat="40.01484" lon="-8.44978">
        <ele>188.08</ele>
        <time>2019-05-19T12:00:45Z</time>
      </trkpt>
      <trkpt lat="40.01484" lon="-8.44968">
        <ele>188.56</ele>
        <time>2019-05-19T12:00:57Z</time>
      </trkpt>
      <trkpt lat="40.01483" lon="-8.44967">
        <ele>188.56</ele>
        <time>2019-05-19T12:01:23Z</time>
      </trkpt>
      <trkpt lat="40.01483" lon="-8.44972">
        <ele>188.56</ele>
        <time>2019-05-19T12:01:44Z</time>
      </trkpt>
      <trkpt lat="40.01483" lon="-8.44968">
        <ele>187.59</ele>
        <time>2019-05-19T12:02:16Z</time>
      </trkpt>
      <trkpt lat="40.01483" lon="-8.44959">
        <ele>188.08</ele>
        <time>2019-05-19T12:02:22Z</time>
      </trkpt>
      <trkpt lat="40.01481" lon="-8.44929">
        <ele>188.56</ele>
        <time>2019-05-19T12:02:41Z</time>
      </trkpt>
      <trkpt lat="40.0148" lon="-8.44901">
        <ele>188.56</ele>
        <time>2019-05-19T12:03:00Z</time>
      </trkpt>
      <trkpt lat="40.01478" lon="-8.44873">
        <ele>189.04</ele>
        <time>2019-05-19T12:03:17Z</time>
      </trkpt>
      <trkpt lat="40.01478" lon="-8.44847">
        <ele>189.52</ele>
        <time>2019-05-19T12:03:33Z</time>
      </trkpt>
      <trkpt lat="40.01474" lon="-8.44821">
        <ele>189.04</ele>
        <time>2019-05-19T12:03:50Z</time>
      </trkpt>
      <trkpt lat="40.01473" lon="-8.44804">
        <ele>188.56</ele>
        <time>2019-05-19T12:04:04Z</time>
      </trkpt>
      <trkpt lat="40.01471" lon="-8.44787">
        <ele>189.04</ele>
        <time>2019-05-19T12:04:16Z</time>
      </trkpt>
      <trkpt lat="40.01471" lon="-8.44763">
        <ele>189.04</ele>
        <time>2019-05-19T12:04:32Z</time>
      </trkpt>
      <trkpt lat="40.01486" lon="-8.44753">
        <ele>189.52</ele>
        <time>2019-05-19T12:04:48Z</time>
      </trkpt>
      <trkpt lat="40.01491" lon="-8.44754">
        <ele>188.56</ele>
        <time>2019-05-19T12:05:03Z</time>
      </trkpt>
      <trkpt lat="40.01506" lon="-8.44753">
        <ele>189.52</ele>
        <time>2019-05-19T12:05:17Z</time>
      </trkpt>
      <trkpt lat="40.01523" lon="-8.44751">
        <ele>188.08</ele>
        <time>2019-05-19T12:05:33Z</time>
      </trkpt>
      <trkpt lat="40.01522" lon="-8.44751">
        <ele>188.56</ele>
        <time>2019-05-19T12:05:52Z</time>
      </trkpt>
      <trkpt lat="40.01527" lon="-8.44751">
        <ele>188.56</ele>
        <time>2019-05-19T12:06:05Z</time>
      </trkpt>
      <trkpt lat="40.01544" lon="-8.44749">
        <ele>187.59</ele>
        <time>2019-05-19T12:06:19Z</time>
      </trkpt>
      <trkpt lat="40.01566" lon="-8.44747">
        <ele>188.08</ele>
        <time>2019-05-19T12:06:36Z</time>
      </trkpt>
      <trkpt lat="40.01585" lon="-8.44748">
        <ele>188.08</ele>
        <time>2019-05-19T12:06:50Z</time>
      </trkpt>
      <trkpt lat="40.0159" lon="-8.44747">
        <ele>188.08</ele>
        <time>2019-05-19T12:06:54Z</time>
      </trkpt>
      <trkpt lat="40.01593" lon="-8.44746">
        <ele>188.08</ele>
        <time>2019-05-19T12:06:57Z</time>
      </trkpt>
      <trkpt lat="40.01598" lon="-8.44744">
        <ele>188.08</ele>
        <time>2019-05-19T12:07:01Z</time>
      </trkpt>
      <trkpt lat="40.01606" lon="-8.44742">
        <ele>187.59</ele>
        <time>2019-05-19T12:07:07Z</time>
      </trkpt>
      <trkpt lat="40.01623" lon="-8.44737">
        <ele>187.59</ele>
        <time>2019-05-19T12:07:21Z</time>
      </trkpt>
      <trkpt lat="40.0164" lon="-8.44734">
        <ele>187.59</ele>
        <time>2019-05-19T12:07:36Z</time>
      </trkpt>
      <trkpt lat="40.01655" lon="-8.44733">
        <ele>188.08</ele>
        <time>2019-05-19T12:07:50Z</time>
      </trkpt>
      <trkpt lat="40.01668" lon="-8.44732">
        <ele>187.11</ele>
        <time>2019-05-19T12:08:03Z</time>
      </trkpt>
      <trkpt lat="40.01674" lon="-8.44731">
        <ele>187.11</ele>
        <time>2019-05-19T12:08:08Z</time>
      </trkpt>
      <trkpt lat="40.0169" lon="-8.44727">
        <ele>186.15</ele>
        <time>2019-05-19T12:08:21Z</time>
      </trkpt>
      <trkpt lat="40.01705" lon="-8.44724">
        <ele>186.63</ele>
        <time>2019-05-19T12:08:33Z</time>
      </trkpt>
      <trkpt lat="40.01709" lon="-8.44723">
        <ele>187.11</ele>
        <time>2019-05-19T12:08:36Z</time>
      </trkpt>
      <trkpt lat="40.01716" lon="-8.4472">
        <ele>186.63</ele>
        <time>2019-05-19T12:08:41Z</time>
      </trkpt>
      <trkpt lat="40.01735" lon="-8.44713">
        <ele>187.59</ele>
        <time>2019-05-19T12:08:56Z</time>
      </trkpt>
      <trkpt lat="40.01752" lon="-8.44711">
        <ele>187.59</ele>
        <time>2019-05-19T12:09:10Z</time>
      </trkpt>
      <trkpt lat="40.01757" lon="-8.44709">
        <ele>188.56</ele>
        <time>2019-05-19T12:09:14Z</time>
      </trkpt>
      <trkpt lat="40.01769" lon="-8.44691">
        <ele>188.56</ele>
        <time>2019-05-19T12:09:29Z</time>
      </trkpt>
      <trkpt lat="40.01773" lon="-8.44669">
        <ele>188.56</ele>
        <time>2019-05-19T12:09:44Z</time>
      </trkpt>
      <trkpt lat="40.01781" lon="-8.44651">
        <ele>188.56</ele>
        <time>2019-05-19T12:09:57Z</time>
      </trkpt>
      <trkpt lat="40.01786" lon="-8.44633">
        <ele>188.56</ele>
        <time>2019-05-19T12:10:09Z</time>
      </trkpt>
      <trkpt lat="40.01792" lon="-8.44609">
        <ele>189.04</ele>
        <time>2019-05-19T12:10:25Z</time>
      </trkpt>
      <trkpt lat="40.01792" lon="-8.44589">
        <ele>190.48</ele>
        <time>2019-05-19T12:10:39Z</time>
      </trkpt>
      <trkpt lat="40.01796" lon="-8.44563">
        <ele>190</ele>
        <time>2019-05-19T12:10:54Z</time>
      </trkpt>
      <trkpt lat="40.01797" lon="-8.44556">
        <ele>189.52</ele>
        <time>2019-05-19T12:11:09Z</time>
      </trkpt>
      <trkpt lat="40.01802" lon="-8.44545">
        <ele>188.56</ele>
        <time>2019-05-19T12:11:24Z</time>
      </trkpt>
      <trkpt lat="40.01805" lon="-8.44542">
        <ele>188.56</ele>
        <time>2019-05-19T12:11:35Z</time>
      </trkpt>
      <trkpt lat="40.01809" lon="-8.44534">
        <ele>187.11</ele>
        <time>2019-05-19T12:11:59Z</time>
      </trkpt>
      <trkpt lat="40.01811" lon="-8.4453">
        <ele>186.15</ele>
        <time>2019-05-19T12:12:03Z</time>
      </trkpt>
      <trkpt lat="40.01816" lon="-8.44525">
        <ele>187.11</ele>
        <time>2019-05-19T12:12:08Z</time>
      </trkpt>
      <trkpt lat="40.01825" lon="-8.44513">
        <ele>186.15</ele>
        <time>2019-05-19T12:12:19Z</time>
      </trkpt>
      <trkpt lat="40.0183" lon="-8.44504">
        <ele>186.15</ele>
        <time>2019-05-19T12:12:26Z</time>
      </trkpt>
      <trkpt lat="40.01834" lon="-8.44496">
        <ele>185.67</ele>
        <time>2019-05-19T12:12:32Z</time>
      </trkpt>
      <trkpt lat="40.01838" lon="-8.44489">
        <ele>187.11</ele>
        <time>2019-05-19T12:12:37Z</time>
      </trkpt>
      <trkpt lat="40.01845" lon="-8.44475">
        <ele>186.15</ele>
        <time>2019-05-19T12:12:48Z</time>
      </trkpt>
      <trkpt lat="40.01854" lon="-8.44453">
        <ele>185.67</ele>
        <time>2019-05-19T12:13:03Z</time>
      </trkpt>
      <trkpt lat="40.01862" lon="-8.44428">
        <ele>185.19</ele>
        <time>2019-05-19T12:13:19Z</time>
      </trkpt>
      <trkpt lat="40.01871" lon="-8.44416">
        <ele>185.67</ele>
        <time>2019-05-19T12:13:29Z</time>
      </trkpt>
      <trkpt lat="40.01879" lon="-8.44412">
        <ele>185.19</ele>
        <time>2019-05-19T12:13:36Z</time>
      </trkpt>
      <trkpt lat="40.01902" lon="-8.44419">
        <ele>184.71</ele>
        <time>2019-05-19T12:13:54Z</time>
      </trkpt>
      <trkpt lat="40.01915" lon="-8.44425">
        <ele>184.71</ele>
        <time>2019-05-19T12:14:08Z</time>
      </trkpt>
      <trkpt lat="40.01932" lon="-8.4443">
        <ele>184.23</ele>
        <time>2019-05-19T12:14:23Z</time>
      </trkpt>
      <trkpt lat="40.01949" lon="-8.44437">
        <ele>183.75</ele>
        <time>2019-05-19T12:14:38Z</time>
      </trkpt>
      <trkpt lat="40.01966" lon="-8.44443">
        <ele>183.27</ele>
        <time>2019-05-19T12:14:53Z</time>
      </trkpt>
      <trkpt lat="40.01987" lon="-8.44448">
        <ele>183.27</ele>
        <time>2019-05-19T12:15:10Z</time>
      </trkpt>
      <trkpt lat="40.02009" lon="-8.44449">
        <ele>182.79</ele>
        <time>2019-05-19T12:15:27Z</time>
      </trkpt>
      <trkpt lat="40.0203" lon="-8.44449">
        <ele>182.79</ele>
        <time>2019-05-19T12:15:43Z</time>
      </trkpt>
      <trkpt lat="40.02053" lon="-8.4445">
        <ele>182.79</ele>
        <time>2019-05-19T12:16:01Z</time>
      </trkpt>
      <trkpt lat="40.02075" lon="-8.4445">
        <ele>182.31</ele>
        <time>2019-05-19T12:16:19Z</time>
      </trkpt>
      <trkpt lat="40.02097" lon="-8.44451">
        <ele>181.35</ele>
        <time>2019-05-19T12:16:36Z</time>
      </trkpt>
      <trkpt lat="40.02114" lon="-8.44452">
        <ele>181.83</ele>
        <time>2019-05-19T12:16:50Z</time>
      </trkpt>
      <trkpt lat="40.02134" lon="-8.44452">
        <ele>181.35</ele>
        <time>2019-05-19T12:17:06Z</time>
      </trkpt>
      <trkpt lat="40.0215" lon="-8.44453">
        <ele>180.87</ele>
        <time>2019-05-19T12:17:23Z</time>
      </trkpt>
      <trkpt lat="40.02165" lon="-8.44453">
        <ele>179.9</ele>
        <time>2019-05-19T12:17:38Z</time>
      </trkpt>
      <trkpt lat="40.02185" lon="-8.44454">
        <ele>181.35</ele>
        <time>2019-05-19T12:17:53Z</time>
      </trkpt>
      <trkpt lat="40.02204" lon="-8.44455">
        <ele>180.87</ele>
        <time>2019-05-19T12:18:07Z</time>
      </trkpt>
      <trkpt lat="40.02223" lon="-8.44455">
        <ele>180.87</ele>
        <time>2019-05-19T12:18:24Z</time>
      </trkpt>
      <trkpt lat="40.02242" lon="-8.44456">
        <ele>180.87</ele>
        <time>2019-05-19T12:18:39Z</time>
      </trkpt>
      <trkpt lat="40.02251" lon="-8.44456">
        <ele>180.87</ele>
        <time>2019-05-19T12:18:54Z</time>
      </trkpt>
      <trkpt lat="40.02256" lon="-8.44457">
        <ele>180.87</ele>
        <time>2019-05-19T12:19:08Z</time>
      </trkpt>
      <trkpt lat="40.0226" lon="-8.44457">
        <ele>180.87</ele>
        <time>2019-05-19T12:19:11Z</time>
      </trkpt>
      <trkpt lat="40.02279" lon="-8.44456">
        <ele>180.38</ele>
        <time>2019-05-19T12:19:27Z</time>
      </trkpt>
      <trkpt lat="40.023" lon="-8.44456">
        <ele>180.38</ele>
        <time>2019-05-19T12:19:43Z</time>
      </trkpt>
      <trkpt lat="40.0232" lon="-8.44456">
        <ele>180.38</ele>
        <time>2019-05-19T12:19:58Z</time>
      </trkpt>
      <trkpt lat="40.02344" lon="-8.44457">
        <ele>180.38</ele>
        <time>2019-05-19T12:20:15Z</time>
      </trkpt>
      <trkpt lat="40.02363" lon="-8.44458">
        <ele>178.46</ele>
        <time>2019-05-19T12:20:30Z</time>
      </trkpt>
      <trkpt lat="40.02383" lon="-8.44458">
        <ele>180.38</ele>
        <time>2019-05-19T12:20:44Z</time>
      </trkpt>
      <trkpt lat="40.02401" lon="-8.44459">
        <ele>179.9</ele>
        <time>2019-05-19T12:20:58Z</time>
      </trkpt>
      <trkpt lat="40.0242" lon="-8.4446">
        <ele>179.9</ele>
        <time>2019-05-19T12:21:12Z</time>
      </trkpt>
      <trkpt lat="40.02441" lon="-8.4446">
        <ele>180.38</ele>
        <time>2019-05-19T12:21:28Z</time>
      </trkpt>
      <trkpt lat="40.02454" lon="-8.44461">
        <ele>180.38</ele>
        <time>2019-05-19T12:21:41Z</time>
      </trkpt>
      <trkpt lat="40.0246" lon="-8.4446">
        <ele>179.9</ele>
        <time>2019-05-19T12:22:00Z</time>
      </trkpt>
      <trkpt lat="40.02461" lon="-8.44462">
        <ele>180.87</ele>
        <time>2019-05-19T12:22:16Z</time>
      </trkpt>
      <trkpt lat="40.02475" lon="-8.44462">
        <ele>180.87</ele>
        <time>2019-05-19T12:22:31Z</time>
      </trkpt>
      <trkpt lat="40.02492" lon="-8.44462">
        <ele>181.35</ele>
        <time>2019-05-19T12:22:45Z</time>
      </trkpt>
      <trkpt lat="40.02511" lon="-8.44462">
        <ele>180.87</ele>
        <time>2019-05-19T12:23:00Z</time>
      </trkpt>
      <trkpt lat="40.02515" lon="-8.44464">
        <ele>180.87</ele>
        <time>2019-05-19T12:23:06Z</time>
      </trkpt>
      <trkpt lat="40.02539" lon="-8.44462">
        <ele>180.38</ele>
        <time>2019-05-19T12:23:26Z</time>
      </trkpt>
      <trkpt lat="40.0256" lon="-8.44462">
        <ele>180.38</ele>
        <time>2019-05-19T12:23:42Z</time>
      </trkpt>
      <trkpt lat="40.02577" lon="-8.44463">
        <ele>180.38</ele>
        <time>2019-05-19T12:23:55Z</time>
      </trkpt>
      <trkpt lat="40.02594" lon="-8.44463">
        <ele>180.38</ele>
        <time>2019-05-19T12:24:09Z</time>
      </trkpt>
      <trkpt lat="40.02613" lon="-8.44462">
        <ele>179.9</ele>
        <time>2019-05-19T12:24:23Z</time>
      </trkpt>
      <trkpt lat="40.02627" lon="-8.44463">
        <ele>179.9</ele>
        <time>2019-05-19T12:24:36Z</time>
      </trkpt>
      <trkpt lat="40.0265" lon="-8.44462">
        <ele>180.38</ele>
        <time>2019-05-19T12:24:52Z</time>
      </trkpt>
      <trkpt lat="40.02667" lon="-8.44462">
        <ele>179.42</ele>
        <time>2019-05-19T12:25:06Z</time>
      </trkpt>
      <trkpt lat="40.02688" lon="-8.44461">
        <ele>178.46</ele>
        <time>2019-05-19T12:25:21Z</time>
      </trkpt>
      <trkpt lat="40.02698" lon="-8.4446">
        <ele>178.46</ele>
        <time>2019-05-19T12:25:29Z</time>
      </trkpt>
      <trkpt lat="40.02713" lon="-8.44457">
        <ele>177.98</ele>
        <time>2019-05-19T12:25:42Z</time>
      </trkpt>
      <trkpt lat="40.02718" lon="-8.44458">
        <ele>178.94</ele>
        <time>2019-05-19T12:25:46Z</time>
      </trkpt>
      <trkpt lat="40.02725" lon="-8.44457">
        <ele>178.94</ele>
        <time>2019-05-19T12:26:00Z</time>
      </trkpt>
      <trkpt lat="40.02742" lon="-8.44459">
        <ele>179.9</ele>
        <time>2019-05-19T12:26:14Z</time>
      </trkpt>
      <trkpt lat="40.02761" lon="-8.44456">
        <ele>179.9</ele>
        <time>2019-05-19T12:26:29Z</time>
      </trkpt>
      <trkpt lat="40.0278" lon="-8.44464">
        <ele>180.38</ele>
        <time>2019-05-19T12:26:45Z</time>
      </trkpt>
      <trkpt lat="40.02783" lon="-8.44465">
        <ele>179.9</ele>
        <time>2019-05-19T12:26:47Z</time>
      </trkpt>
      <trkpt lat="40.02785" lon="-8.44478">
        <ele>179.42</ele>
        <time>2019-05-19T12:26:55Z</time>
      </trkpt>
      <trkpt lat="40.02788" lon="-8.44507">
        <ele>179.42</ele>
        <time>2019-05-19T12:27:13Z</time>
      </trkpt>
      <trkpt lat="40.0279" lon="-8.44525">
        <ele>179.42</ele>
        <time>2019-05-19T12:27:32Z</time>
      </trkpt>
      <trkpt lat="40.0279" lon="-8.44529">
        <ele>177.02</ele>
        <time>2019-05-19T12:27:39Z</time>
      </trkpt>
      <trkpt lat="40.02792" lon="-8.44558">
        <ele>177.5</ele>
        <time>2019-05-19T12:27:57Z</time>
      </trkpt>
      <trkpt lat="40.02793" lon="-8.44586">
        <ele>177.98</ele>
        <time>2019-05-19T12:28:14Z</time>
      </trkpt>
      <trkpt lat="40.02792" lon="-8.44616">
        <ele>177.98</ele>
        <time>2019-05-19T12:28:32Z</time>
      </trkpt>
      <trkpt lat="40.02793" lon="-8.44643">
        <ele>177.02</ele>
        <time>2019-05-19T12:28:49Z</time>
      </trkpt>
      <trkpt lat="40.02792" lon="-8.44668">
        <ele>176.54</ele>
        <time>2019-05-19T12:29:05Z</time>
      </trkpt>
      <trkpt lat="40.02792" lon="-8.44684">
        <ele>176.06</ele>
        <time>2019-05-19T12:29:17Z</time>
      </trkpt>
      <trkpt lat="40.02796" lon="-8.4471">
        <ele>175.58</ele>
        <time>2019-05-19T12:29:35Z</time>
      </trkpt>
      <trkpt lat="40.02806" lon="-8.44735">
        <ele>175.1</ele>
        <time>2019-05-19T12:29:52Z</time>
      </trkpt>
      <trkpt lat="40.02814" lon="-8.44749">
        <ele>175.1</ele>
        <time>2019-05-19T12:30:03Z</time>
      </trkpt>
      <trkpt lat="40.02818" lon="-8.44777">
        <ele>175.1</ele>
        <time>2019-05-19T12:30:21Z</time>
      </trkpt>
      <trkpt lat="40.02815" lon="-8.44805">
        <ele>175.58</ele>
        <time>2019-05-19T12:30:38Z</time>
      </trkpt>
      <trkpt lat="40.02814" lon="-8.44833">
        <ele>175.1</ele>
        <time>2019-05-19T12:30:57Z</time>
      </trkpt>
      <trkpt lat="40.02813" lon="-8.44862">
        <ele>175.1</ele>
        <time>2019-05-19T12:31:15Z</time>
      </trkpt>
      <trkpt lat="40.02812" lon="-8.44889">
        <ele>175.1</ele>
        <time>2019-05-19T12:31:31Z</time>
      </trkpt>
      <trkpt lat="40.02813" lon="-8.44911">
        <ele>175.58</ele>
        <time>2019-05-19T12:31:46Z</time>
      </trkpt>
      <trkpt lat="40.02822" lon="-8.44938">
        <ele>175.58</ele>
        <time>2019-05-19T12:32:04Z</time>
      </trkpt>
      <trkpt lat="40.0283" lon="-8.4496">
        <ele>175.1</ele>
        <time>2019-05-19T12:32:20Z</time>
      </trkpt>
      <trkpt lat="40.02838" lon="-8.44982">
        <ele>175.58</ele>
        <time>2019-05-19T12:32:35Z</time>
      </trkpt>
      <trkpt lat="40.02846" lon="-8.45004">
        <ele>176.54</ele>
        <time>2019-05-19T12:32:50Z</time>
      </trkpt>
      <trkpt lat="40.02856" lon="-8.45025">
        <ele>176.54</ele>
        <time>2019-05-19T12:33:05Z</time>
      </trkpt>
      <trkpt lat="40.02862" lon="-8.45037">
        <ele>176.54</ele>
        <time>2019-05-19T12:33:19Z</time>
      </trkpt>
      <trkpt lat="40.02863" lon="-8.4506">
        <ele>177.5</ele>
        <time>2019-05-19T12:33:35Z</time>
      </trkpt>
      <trkpt lat="40.02863" lon="-8.45081">
        <ele>179.42</ele>
        <time>2019-05-19T12:33:51Z</time>
      </trkpt>
      <trkpt lat="40.02864" lon="-8.45102">
        <ele>180.38</ele>
        <time>2019-05-19T12:34:07Z</time>
      </trkpt>
      <trkpt lat="40.02865" lon="-8.45123">
        <ele>182.31</ele>
        <time>2019-05-19T12:34:22Z</time>
      </trkpt>
      <trkpt lat="40.02869" lon="-8.45142">
        <ele>183.75</ele>
        <time>2019-05-19T12:34:38Z</time>
      </trkpt>
      <trkpt lat="40.02875" lon="-8.45163">
        <ele>185.19</ele>
        <time>2019-05-19T12:34:54Z</time>
      </trkpt>
      <trkpt lat="40.02879" lon="-8.45181">
        <ele>185.67</ele>
        <time>2019-05-19T12:35:08Z</time>
      </trkpt>
      <trkpt lat="40.02884" lon="-8.45198">
        <ele>187.11</ele>
        <time>2019-05-19T12:35:23Z</time>
      </trkpt>
      <trkpt lat="40.02892" lon="-8.45216">
        <ele>188.56</ele>
        <time>2019-05-19T12:35:39Z</time>
      </trkpt>
      <trkpt lat="40.02896" lon="-8.45227">
        <ele>190</ele>
        <time>2019-05-19T12:35:53Z</time>
      </trkpt>
      <trkpt lat="40.02901" lon="-8.45245">
        <ele>190.48</ele>
        <time>2019-05-19T12:36:07Z</time>
      </trkpt>
      <trkpt lat="40.02905" lon="-8.45262">
        <ele>190</ele>
        <time>2019-05-19T12:36:18Z</time>
      </trkpt>
      <trkpt lat="40.02907" lon="-8.45268">
        <ele>190</ele>
        <time>2019-05-19T12:36:22Z</time>
      </trkpt>
      <trkpt lat="40.0291" lon="-8.45276">
        <ele>190.48</ele>
        <time>2019-05-19T12:36:27Z</time>
      </trkpt>
      <trkpt lat="40.02911" lon="-8.45282">
        <ele>190</ele>
        <time>2019-05-19T12:36:31Z</time>
      </trkpt>
      <trkpt lat="40.02911" lon="-8.45307">
        <ele>189.52</ele>
        <time>2019-05-19T12:36:48Z</time>
      </trkpt>
      <trkpt lat="40.02911" lon="-8.45317">
        <ele>190</ele>
        <time>2019-05-19T12:36:54Z</time>
      </trkpt>
      <trkpt lat="40.02911" lon="-8.45335">
        <ele>190</ele>
        <time>2019-05-19T12:37:05Z</time>
      </trkpt>
      <trkpt lat="40.02912" lon="-8.45337">
        <ele>189.52</ele>
        <time>2019-05-19T12:37:07Z</time>
      </trkpt>
      <trkpt lat="40.02912" lon="-8.4534">
        <ele>189.52</ele>
        <time>2019-05-19T12:37:09Z</time>
      </trkpt>
      <trkpt lat="40.02912" lon="-8.45364">
        <ele>188.56</ele>
        <time>2019-05-19T12:37:25Z</time>
      </trkpt>
      <trkpt lat="40.02913" lon="-8.45392">
        <ele>189.04</ele>
        <time>2019-05-19T12:37:42Z</time>
      </trkpt>
      <trkpt lat="40.02913" lon="-8.45415">
        <ele>188.08</ele>
        <time>2019-05-19T12:37:57Z</time>
      </trkpt>
      <trkpt lat="40.02914" lon="-8.45439">
        <ele>186.63</ele>
        <time>2019-05-19T12:38:13Z</time>
      </trkpt>
      <trkpt lat="40.02915" lon="-8.45454">
        <ele>187.11</ele>
        <time>2019-05-19T12:38:26Z</time>
      </trkpt>
      <trkpt lat="40.02912" lon="-8.45479">
        <ele>186.63</ele>
        <time>2019-05-19T12:38:41Z</time>
      </trkpt>
      <trkpt lat="40.02915" lon="-8.45487">
        <ele>186.15</ele>
        <time>2019-05-19T12:38:54Z</time>
      </trkpt>
      <trkpt lat="40.02917" lon="-8.45489">
        <ele>187.11</ele>
        <time>2019-05-19T12:38:57Z</time>
      </trkpt>
      <trkpt lat="40.0292" lon="-8.45489">
        <ele>185.19</ele>
        <time>2019-05-19T12:39:00Z</time>
      </trkpt>
      <trkpt lat="40.02922" lon="-8.4549">
        <ele>186.15</ele>
        <time>2019-05-19T12:39:03Z</time>
      </trkpt>
      <trkpt lat="40.02937" lon="-8.45497">
        <ele>185.67</ele>
        <time>2019-05-19T12:39:16Z</time>
      </trkpt>
      <trkpt lat="40.02949" lon="-8.45498">
        <ele>185.19</ele>
        <time>2019-05-19T12:39:28Z</time>
      </trkpt>
      <trkpt lat="40.02954" lon="-8.45505">
        <ele>185.19</ele>
        <time>2019-05-19T12:39:34Z</time>
      </trkpt>
      <trkpt lat="40.02962" lon="-8.45505">
        <ele>185.19</ele>
        <time>2019-05-19T12:39:41Z</time>
      </trkpt>
      <trkpt lat="40.02969" lon="-8.45503">
        <ele>184.71</ele>
        <time>2019-05-19T12:39:56Z</time>
      </trkpt>
      <trkpt lat="40.02969" lon="-8.45503">
        <ele>184.71</ele>
        <time>2019-05-19T12:40:14Z</time>
      </trkpt>
      <trkpt lat="40.02969" lon="-8.45504">
        <ele>185.19</ele>
        <time>2019-05-19T12:40:30Z</time>
      </trkpt>
    </trkseg>
  </trk>
</gpx>